<?xml version="1.0" encoding="UTF-8" standalone="no" ?>
<gpx xmlns="http://www.topografix.com/GPX/1/1" xmlns:xsi="http://www.w3.org/2001/XMLSchema-instance" xsi:schemaLocation="http://www.topografix.com/GPX/1/1 http://www.topografix.com/GPX/1/1/gpx.xsd" version="1.1" creator="VisuGPX - https://www.visugpx.com">
  <metadata>
    <name>Promenade vers le Montaigu</name>
    <desc><![CDATA[Quelques jolies rencontres... sauf e ce qui concerne le vent!]]></desc>
  </metadata>
  <trk>
    <name><![CDATA[Montaigu]]></name>
    <trkseg>
      <trkpt lat="48.25215" lon="-0.35964">
        <ele>199.1</ele>
        <time>2012-04-06T12:31:55Z</time>
      </trkpt>
      <trkpt lat="48.25215" lon="-0.35964">
        <ele>263.5</ele>
        <time>2012-04-06T12:31:58Z</time>
      </trkpt>
      <trkpt lat="48.25214" lon="-0.3599">
        <ele>263.5</ele>
        <time>2012-04-06T12:32:25Z</time>
      </trkpt>
      <trkpt lat="48.25211" lon="-0.35997">
        <ele>263.5</ele>
        <time>2012-04-06T12:32:31Z</time>
      </trkpt>
      <trkpt lat="48.25211" lon="-0.36007">
        <ele>263.5</ele>
        <time>2012-04-06T12:32:35Z</time>
      </trkpt>
      <trkpt lat="48.25204" lon="-0.36024">
        <ele>263.5</ele>
        <time>2012-04-06T12:32:43Z</time>
      </trkpt>
      <trkpt lat="48.25188" lon="-0.36045">
        <ele>263.5</ele>
        <time>2012-04-06T12:33:03Z</time>
      </trkpt>
      <trkpt lat="48.2517" lon="-0.36072">
        <ele>263.5</ele>
        <time>2012-04-06T12:33:15Z</time>
      </trkpt>
      <trkpt lat="48.25164" lon="-0.3608">
        <ele>263.5</ele>
        <time>2012-04-06T12:33:19Z</time>
      </trkpt>
      <trkpt lat="48.25154" lon="-0.36084">
        <ele>263.5</ele>
        <time>2012-04-06T12:33:25Z</time>
      </trkpt>
      <trkpt lat="48.25144" lon="-0.36098">
        <ele>263.5</ele>
        <time>2012-04-06T12:33:35Z</time>
      </trkpt>
      <trkpt lat="48.25139" lon="-0.36111">
        <ele>263.5</ele>
        <time>2012-04-06T12:33:47Z</time>
      </trkpt>
      <trkpt lat="48.2513" lon="-0.36131">
        <ele>263.5</ele>
        <time>2012-04-06T12:34:01Z</time>
      </trkpt>
      <trkpt lat="48.25117" lon="-0.36161">
        <ele>263.5</ele>
        <time>2012-04-06T12:34:13Z</time>
      </trkpt>
      <trkpt lat="48.25109" lon="-0.36175">
        <ele>263.5</ele>
        <time>2012-04-06T12:34:21Z</time>
      </trkpt>
      <trkpt lat="48.2511" lon="-0.36191">
        <ele>263.5</ele>
        <time>2012-04-06T12:34:39Z</time>
      </trkpt>
      <trkpt lat="48.25091" lon="-0.36218">
        <ele>263.5</ele>
        <time>2012-04-06T12:34:51Z</time>
      </trkpt>
      <trkpt lat="48.25091" lon="-0.36218">
        <ele>263.5</ele>
        <time>2012-04-06T12:35:03Z</time>
      </trkpt>
      <trkpt lat="48.25083" lon="-0.36227">
        <ele>263.5</ele>
        <time>2012-04-06T12:35:07Z</time>
      </trkpt>
      <trkpt lat="48.2508" lon="-0.36239">
        <ele>263.5</ele>
        <time>2012-04-06T12:35:13Z</time>
      </trkpt>
      <trkpt lat="48.25083" lon="-0.36264">
        <ele>263.5</ele>
        <time>2012-04-06T12:35:27Z</time>
      </trkpt>
      <trkpt lat="48.25089" lon="-0.36278">
        <ele>263.5</ele>
        <time>2012-04-06T12:35:37Z</time>
      </trkpt>
      <trkpt lat="48.2509" lon="-0.363">
        <ele>263</ele>
        <time>2012-04-06T12:35:49Z</time>
      </trkpt>
      <trkpt lat="48.25085" lon="-0.36311">
        <ele>263</ele>
        <time>2012-04-06T12:35:57Z</time>
      </trkpt>
      <trkpt lat="48.25083" lon="-0.36319">
        <ele>263</ele>
        <time>2012-04-06T12:36:03Z</time>
      </trkpt>
      <trkpt lat="48.25079" lon="-0.36333">
        <ele>263</ele>
        <time>2012-04-06T12:36:19Z</time>
      </trkpt>
      <trkpt lat="48.25075" lon="-0.36343">
        <ele>262.5</ele>
        <time>2012-04-06T12:36:25Z</time>
      </trkpt>
      <trkpt lat="48.25077" lon="-0.3635">
        <ele>262.5</ele>
        <time>2012-04-06T12:36:31Z</time>
      </trkpt>
      <trkpt lat="48.25085" lon="-0.36364">
        <ele>262</ele>
        <time>2012-04-06T12:36:47Z</time>
      </trkpt>
      <trkpt lat="48.25095" lon="-0.36377">
        <ele>261.5</ele>
        <time>2012-04-06T12:37:29Z</time>
      </trkpt>
      <trkpt lat="48.25094" lon="-0.36384">
        <ele>261.5</ele>
        <time>2012-04-06T12:37:33Z</time>
      </trkpt>
      <trkpt lat="48.25094" lon="-0.3639">
        <ele>261.5</ele>
        <time>2012-04-06T12:37:35Z</time>
      </trkpt>
      <trkpt lat="48.25092" lon="-0.36398">
        <ele>261.5</ele>
        <time>2012-04-06T12:37:39Z</time>
      </trkpt>
      <trkpt lat="48.25101" lon="-0.36416">
        <ele>261.5</ele>
        <time>2012-04-06T12:37:55Z</time>
      </trkpt>
      <trkpt lat="48.25103" lon="-0.36419">
        <ele>261</ele>
        <time>2012-04-06T12:38:01Z</time>
      </trkpt>
      <trkpt lat="48.25105" lon="-0.36438">
        <ele>261</ele>
        <time>2012-04-06T12:38:09Z</time>
      </trkpt>
      <trkpt lat="48.25105" lon="-0.36444">
        <ele>261</ele>
        <time>2012-04-06T12:38:11Z</time>
      </trkpt>
      <trkpt lat="48.25104" lon="-0.36454">
        <ele>261</ele>
        <time>2012-04-06T12:38:15Z</time>
      </trkpt>
      <trkpt lat="48.25099" lon="-0.36471">
        <ele>261</ele>
        <time>2012-04-06T12:38:25Z</time>
      </trkpt>
      <trkpt lat="48.25095" lon="-0.36483">
        <ele>261</ele>
        <time>2012-04-06T12:38:31Z</time>
      </trkpt>
      <trkpt lat="48.25091" lon="-0.36492">
        <ele>261</ele>
        <time>2012-04-06T12:38:35Z</time>
      </trkpt>
      <trkpt lat="48.25087" lon="-0.36517">
        <ele>261</ele>
        <time>2012-04-06T12:38:45Z</time>
      </trkpt>
      <trkpt lat="48.25085" lon="-0.36533">
        <ele>260.5</ele>
        <time>2012-04-06T12:38:51Z</time>
      </trkpt>
      <trkpt lat="48.25085" lon="-0.3654">
        <ele>260</ele>
        <time>2012-04-06T12:38:55Z</time>
      </trkpt>
      <trkpt lat="48.25077" lon="-0.36551">
        <ele>260</ele>
        <time>2012-04-06T12:39:07Z</time>
      </trkpt>
      <trkpt lat="48.25077" lon="-0.36563">
        <ele>260</ele>
        <time>2012-04-06T12:39:11Z</time>
      </trkpt>
      <trkpt lat="48.25074" lon="-0.36573">
        <ele>259.5</ele>
        <time>2012-04-06T12:39:19Z</time>
      </trkpt>
      <trkpt lat="48.25067" lon="-0.36588">
        <ele>259.5</ele>
        <time>2012-04-06T12:39:27Z</time>
      </trkpt>
      <trkpt lat="48.25057" lon="-0.36609">
        <ele>259</ele>
        <time>2012-04-06T12:39:39Z</time>
      </trkpt>
      <trkpt lat="48.25052" lon="-0.36627">
        <ele>258.5</ele>
        <time>2012-04-06T12:39:45Z</time>
      </trkpt>
      <trkpt lat="48.25052" lon="-0.36627">
        <ele>258.5</ele>
        <time>2012-04-06T12:40:01Z</time>
      </trkpt>
      <trkpt lat="48.25056" lon="-0.36634">
        <ele>258</ele>
        <time>2012-04-06T12:40:03Z</time>
      </trkpt>
      <trkpt lat="48.2505" lon="-0.36644">
        <ele>258</ele>
        <time>2012-04-06T12:40:09Z</time>
      </trkpt>
      <trkpt lat="48.25051" lon="-0.36665">
        <ele>257.5</ele>
        <time>2012-04-06T12:40:17Z</time>
      </trkpt>
      <trkpt lat="48.25055" lon="-0.36684">
        <ele>257</ele>
        <time>2012-04-06T12:40:27Z</time>
      </trkpt>
      <trkpt lat="48.25056" lon="-0.36687">
        <ele>257</ele>
        <time>2012-04-06T12:40:29Z</time>
      </trkpt>
      <trkpt lat="48.25039" lon="-0.36694">
        <ele>253.5</ele>
        <time>2012-04-06T12:40:41Z</time>
      </trkpt>
      <trkpt lat="48.25038" lon="-0.36716">
        <ele>253</ele>
        <time>2012-04-06T12:40:53Z</time>
      </trkpt>
      <trkpt lat="48.25033" lon="-0.3673">
        <ele>252.5</ele>
        <time>2012-04-06T12:40:59Z</time>
      </trkpt>
      <trkpt lat="48.25032" lon="-0.36734">
        <ele>252</ele>
        <time>2012-04-06T12:41:01Z</time>
      </trkpt>
      <trkpt lat="48.25028" lon="-0.36739">
        <ele>252</ele>
        <time>2012-04-06T12:41:05Z</time>
      </trkpt>
      <trkpt lat="48.25017" lon="-0.36759">
        <ele>250.5</ele>
        <time>2012-04-06T12:41:19Z</time>
      </trkpt>
      <trkpt lat="48.25015" lon="-0.36778">
        <ele>249.5</ele>
        <time>2012-04-06T12:41:31Z</time>
      </trkpt>
      <trkpt lat="48.25008" lon="-0.36796">
        <ele>248.5</ele>
        <time>2012-04-06T12:41:45Z</time>
      </trkpt>
      <trkpt lat="48.25" lon="-0.36818">
        <ele>247.5</ele>
        <time>2012-04-06T12:41:59Z</time>
      </trkpt>
      <trkpt lat="48.24993" lon="-0.36834">
        <ele>246.5</ele>
        <time>2012-04-06T12:42:07Z</time>
      </trkpt>
      <trkpt lat="48.2499" lon="-0.36845">
        <ele>245</ele>
        <time>2012-04-06T12:42:13Z</time>
      </trkpt>
      <trkpt lat="48.24989" lon="-0.36855">
        <ele>244.5</ele>
        <time>2012-04-06T12:42:19Z</time>
      </trkpt>
      <trkpt lat="48.24987" lon="-0.36862">
        <ele>244</ele>
        <time>2012-04-06T12:42:23Z</time>
      </trkpt>
      <trkpt lat="48.24984" lon="-0.3687">
        <ele>244</ele>
        <time>2012-04-06T12:42:27Z</time>
      </trkpt>
      <trkpt lat="48.24981" lon="-0.36877">
        <ele>243.5</ele>
        <time>2012-04-06T12:42:31Z</time>
      </trkpt>
      <trkpt lat="48.24979" lon="-0.36881">
        <ele>243</ele>
        <time>2012-04-06T12:42:33Z</time>
      </trkpt>
      <trkpt lat="48.24977" lon="-0.36887">
        <ele>242.5</ele>
        <time>2012-04-06T12:42:37Z</time>
      </trkpt>
      <trkpt lat="48.24976" lon="-0.36895">
        <ele>242</ele>
        <time>2012-04-06T12:42:41Z</time>
      </trkpt>
      <trkpt lat="48.24978" lon="-0.36909">
        <ele>241.5</ele>
        <time>2012-04-06T12:42:49Z</time>
      </trkpt>
      <trkpt lat="48.24975" lon="-0.36917">
        <ele>241.5</ele>
        <time>2012-04-06T12:42:53Z</time>
      </trkpt>
      <trkpt lat="48.24973" lon="-0.36921">
        <ele>241.5</ele>
        <time>2012-04-06T12:42:55Z</time>
      </trkpt>
      <trkpt lat="48.24964" lon="-0.36932">
        <ele>241</ele>
        <time>2012-04-06T12:43:03Z</time>
      </trkpt>
      <trkpt lat="48.24959" lon="-0.36939">
        <ele>241.5</ele>
        <time>2012-04-06T12:43:07Z</time>
      </trkpt>
      <trkpt lat="48.24952" lon="-0.36953">
        <ele>241</ele>
        <time>2012-04-06T12:43:17Z</time>
      </trkpt>
      <trkpt lat="48.24949" lon="-0.36964">
        <ele>241</ele>
        <time>2012-04-06T12:43:25Z</time>
      </trkpt>
      <trkpt lat="48.24937" lon="-0.36977">
        <ele>241</ele>
        <time>2012-04-06T12:43:37Z</time>
      </trkpt>
      <trkpt lat="48.24925" lon="-0.3699">
        <ele>241</ele>
        <time>2012-04-06T12:43:49Z</time>
      </trkpt>
      <trkpt lat="48.24914" lon="-0.3701">
        <ele>241.5</ele>
        <time>2012-04-06T12:44:03Z</time>
      </trkpt>
      <trkpt lat="48.24921" lon="-0.37035">
        <ele>242</ele>
        <time>2012-04-06T12:44:17Z</time>
      </trkpt>
      <trkpt lat="48.2491" lon="-0.37045">
        <ele>242</ele>
        <time>2012-04-06T12:44:25Z</time>
      </trkpt>
      <trkpt lat="48.24908" lon="-0.37047">
        <ele>242</ele>
        <time>2012-04-06T12:44:27Z</time>
      </trkpt>
      <trkpt lat="48.24901" lon="-0.37058">
        <ele>242.5</ele>
        <time>2012-04-06T12:44:35Z</time>
      </trkpt>
      <trkpt lat="48.24896" lon="-0.37067">
        <ele>243</ele>
        <time>2012-04-06T12:44:41Z</time>
      </trkpt>
      <trkpt lat="48.24891" lon="-0.37081">
        <ele>243.5</ele>
        <time>2012-04-06T12:44:47Z</time>
      </trkpt>
      <trkpt lat="48.24884" lon="-0.37098">
        <ele>244</ele>
        <time>2012-04-06T12:44:59Z</time>
      </trkpt>
      <trkpt lat="48.24875" lon="-0.37108">
        <ele>245</ele>
        <time>2012-04-06T12:45:07Z</time>
      </trkpt>
      <trkpt lat="48.24871" lon="-0.37111">
        <ele>245</ele>
        <time>2012-04-06T12:45:09Z</time>
      </trkpt>
      <trkpt lat="48.24869" lon="-0.3712">
        <ele>245.5</ele>
        <time>2012-04-06T12:45:15Z</time>
      </trkpt>
      <trkpt lat="48.24867" lon="-0.37141">
        <ele>245.5</ele>
        <time>2012-04-06T12:45:23Z</time>
      </trkpt>
      <trkpt lat="48.24865" lon="-0.37148">
        <ele>245.5</ele>
        <time>2012-04-06T12:45:27Z</time>
      </trkpt>
      <trkpt lat="48.2486" lon="-0.37158">
        <ele>246</ele>
        <time>2012-04-06T12:45:33Z</time>
      </trkpt>
      <trkpt lat="48.24859" lon="-0.37166">
        <ele>246</ele>
        <time>2012-04-06T12:45:37Z</time>
      </trkpt>
      <trkpt lat="48.2486" lon="-0.37178">
        <ele>247</ele>
        <time>2012-04-06T12:45:45Z</time>
      </trkpt>
      <trkpt lat="48.2486" lon="-0.37185">
        <ele>247.5</ele>
        <time>2012-04-06T12:45:49Z</time>
      </trkpt>
      <trkpt lat="48.2486" lon="-0.3721">
        <ele>248.5</ele>
        <time>2012-04-06T12:46:03Z</time>
      </trkpt>
      <trkpt lat="48.24859" lon="-0.3723">
        <ele>249.5</ele>
        <time>2012-04-06T12:46:13Z</time>
      </trkpt>
      <trkpt lat="48.24861" lon="-0.37238">
        <ele>250.5</ele>
        <time>2012-04-06T12:46:17Z</time>
      </trkpt>
      <trkpt lat="48.24863" lon="-0.37248">
        <ele>252</ele>
        <time>2012-04-06T12:46:25Z</time>
      </trkpt>
      <trkpt lat="48.24864" lon="-0.37256">
        <ele>252.5</ele>
        <time>2012-04-06T12:46:29Z</time>
      </trkpt>
      <trkpt lat="48.24864" lon="-0.37261">
        <ele>252.5</ele>
        <time>2012-04-06T12:46:31Z</time>
      </trkpt>
      <trkpt lat="48.24866" lon="-0.37286">
        <ele>253</ele>
        <time>2012-04-06T12:46:45Z</time>
      </trkpt>
      <trkpt lat="48.24865" lon="-0.37296">
        <ele>253.5</ele>
        <time>2012-04-06T12:46:51Z</time>
      </trkpt>
      <trkpt lat="48.24865" lon="-0.373">
        <ele>254</ele>
        <time>2012-04-06T12:46:53Z</time>
      </trkpt>
      <trkpt lat="48.24863" lon="-0.37308">
        <ele>254.5</ele>
        <time>2012-04-06T12:46:57Z</time>
      </trkpt>
      <trkpt lat="48.24863" lon="-0.37321">
        <ele>254.5</ele>
        <time>2012-04-06T12:47:03Z</time>
      </trkpt>
      <trkpt lat="48.24867" lon="-0.37325">
        <ele>254.5</ele>
        <time>2012-04-06T12:47:05Z</time>
      </trkpt>
      <trkpt lat="48.24858" lon="-0.37343">
        <ele>254.5</ele>
        <time>2012-04-06T12:47:17Z</time>
      </trkpt>
      <trkpt lat="48.24864" lon="-0.37362">
        <ele>255.5</ele>
        <time>2012-04-06T12:47:27Z</time>
      </trkpt>
      <trkpt lat="48.24865" lon="-0.37366">
        <ele>255.5</ele>
        <time>2012-04-06T12:47:29Z</time>
      </trkpt>
      <trkpt lat="48.24876" lon="-0.37385">
        <ele>256</ele>
        <time>2012-04-06T12:47:39Z</time>
      </trkpt>
      <trkpt lat="48.24878" lon="-0.37397">
        <ele>256</ele>
        <time>2012-04-06T12:47:45Z</time>
      </trkpt>
      <trkpt lat="48.24878" lon="-0.37402">
        <ele>256</ele>
        <time>2012-04-06T12:47:47Z</time>
      </trkpt>
      <trkpt lat="48.2488" lon="-0.3741">
        <ele>256</ele>
        <time>2012-04-06T12:47:51Z</time>
      </trkpt>
      <trkpt lat="48.24883" lon="-0.37427">
        <ele>256</ele>
        <time>2012-04-06T12:47:57Z</time>
      </trkpt>
      <trkpt lat="48.24885" lon="-0.37439">
        <ele>255.5</ele>
        <time>2012-04-06T12:48:03Z</time>
      </trkpt>
      <trkpt lat="48.24885" lon="-0.37455">
        <ele>255.5</ele>
        <time>2012-04-06T12:48:15Z</time>
      </trkpt>
      <trkpt lat="48.24882" lon="-0.37477">
        <ele>255</ele>
        <time>2012-04-06T12:48:25Z</time>
      </trkpt>
      <trkpt lat="48.2488" lon="-0.37483">
        <ele>255</ele>
        <time>2012-04-06T12:48:29Z</time>
      </trkpt>
      <trkpt lat="48.24887" lon="-0.37498">
        <ele>255</ele>
        <time>2012-04-06T12:48:35Z</time>
      </trkpt>
      <trkpt lat="48.2489" lon="-0.37506">
        <ele>255</ele>
        <time>2012-04-06T12:48:37Z</time>
      </trkpt>
      <trkpt lat="48.24889" lon="-0.37514">
        <ele>255</ele>
        <time>2012-04-06T12:48:41Z</time>
      </trkpt>
      <trkpt lat="48.24891" lon="-0.37525">
        <ele>255</ele>
        <time>2012-04-06T12:48:47Z</time>
      </trkpt>
      <trkpt lat="48.24892" lon="-0.37547">
        <ele>254.5</ele>
        <time>2012-04-06T12:48:59Z</time>
      </trkpt>
      <trkpt lat="48.24895" lon="-0.37557">
        <ele>254</ele>
        <time>2012-04-06T12:49:07Z</time>
      </trkpt>
      <trkpt lat="48.24895" lon="-0.37565">
        <ele>254</ele>
        <time>2012-04-06T12:49:11Z</time>
      </trkpt>
      <trkpt lat="48.24896" lon="-0.37579">
        <ele>253</ele>
        <time>2012-04-06T12:49:18Z</time>
      </trkpt>
      <trkpt lat="48.24897" lon="-0.37595">
        <ele>252.5</ele>
        <time>2012-04-06T12:49:26Z</time>
      </trkpt>
      <trkpt lat="48.24897" lon="-0.37607">
        <ele>252</ele>
        <time>2012-04-06T12:49:32Z</time>
      </trkpt>
      <trkpt lat="48.24897" lon="-0.37616">
        <ele>252</ele>
        <time>2012-04-06T12:49:36Z</time>
      </trkpt>
      <trkpt lat="48.24902" lon="-0.37638">
        <ele>250</ele>
        <time>2012-04-06T12:49:48Z</time>
      </trkpt>
      <trkpt lat="48.24904" lon="-0.37651">
        <ele>249</ele>
        <time>2012-04-06T12:49:54Z</time>
      </trkpt>
      <trkpt lat="48.24905" lon="-0.37656">
        <ele>249</ele>
        <time>2012-04-06T12:49:56Z</time>
      </trkpt>
      <trkpt lat="48.24906" lon="-0.3767">
        <ele>248.5</ele>
        <time>2012-04-06T12:50:02Z</time>
      </trkpt>
      <trkpt lat="48.24906" lon="-0.37678">
        <ele>248.5</ele>
        <time>2012-04-06T12:50:06Z</time>
      </trkpt>
      <trkpt lat="48.24906" lon="-0.37694">
        <ele>247.5</ele>
        <time>2012-04-06T12:50:14Z</time>
      </trkpt>
      <trkpt lat="48.24906" lon="-0.37706">
        <ele>247</ele>
        <time>2012-04-06T12:50:20Z</time>
      </trkpt>
      <trkpt lat="48.24905" lon="-0.37714">
        <ele>247</ele>
        <time>2012-04-06T12:50:24Z</time>
      </trkpt>
      <trkpt lat="48.24906" lon="-0.37724">
        <ele>246.5</ele>
        <time>2012-04-06T12:50:28Z</time>
      </trkpt>
      <trkpt lat="48.24904" lon="-0.37738">
        <ele>245.5</ele>
        <time>2012-04-06T12:50:36Z</time>
      </trkpt>
      <trkpt lat="48.24904" lon="-0.37745">
        <ele>245.5</ele>
        <time>2012-04-06T12:50:40Z</time>
      </trkpt>
      <trkpt lat="48.24909" lon="-0.37768">
        <ele>245.5</ele>
        <time>2012-04-06T12:50:54Z</time>
      </trkpt>
      <trkpt lat="48.24909" lon="-0.37793">
        <ele>245</ele>
        <time>2012-04-06T12:51:08Z</time>
      </trkpt>
      <trkpt lat="48.24908" lon="-0.3781">
        <ele>244.5</ele>
        <time>2012-04-06T12:51:14Z</time>
      </trkpt>
      <trkpt lat="48.24908" lon="-0.37819">
        <ele>244.5</ele>
        <time>2012-04-06T12:51:18Z</time>
      </trkpt>
      <trkpt lat="48.24909" lon="-0.37822">
        <ele>244.5</ele>
        <time>2012-04-06T12:51:20Z</time>
      </trkpt>
      <trkpt lat="48.24909" lon="-0.37827">
        <ele>244.5</ele>
        <time>2012-04-06T12:51:22Z</time>
      </trkpt>
      <trkpt lat="48.24909" lon="-0.37849">
        <ele>244.5</ele>
        <time>2012-04-06T12:51:32Z</time>
      </trkpt>
      <trkpt lat="48.2491" lon="-0.37862">
        <ele>244.5</ele>
        <time>2012-04-06T12:51:38Z</time>
      </trkpt>
      <trkpt lat="48.24911" lon="-0.37869">
        <ele>244</ele>
        <time>2012-04-06T12:51:42Z</time>
      </trkpt>
      <trkpt lat="48.24911" lon="-0.3788">
        <ele>243.5</ele>
        <time>2012-04-06T12:51:48Z</time>
      </trkpt>
      <trkpt lat="48.24911" lon="-0.37884">
        <ele>243.5</ele>
        <time>2012-04-06T12:51:50Z</time>
      </trkpt>
      <trkpt lat="48.24911" lon="-0.37888">
        <ele>243.5</ele>
        <time>2012-04-06T12:51:52Z</time>
      </trkpt>
      <trkpt lat="48.24911" lon="-0.37896">
        <ele>243</ele>
        <time>2012-04-06T12:51:56Z</time>
      </trkpt>
      <trkpt lat="48.24912" lon="-0.37908">
        <ele>242</ele>
        <time>2012-04-06T12:52:04Z</time>
      </trkpt>
      <trkpt lat="48.24916" lon="-0.37927">
        <ele>242</ele>
        <time>2012-04-06T12:52:12Z</time>
      </trkpt>
      <trkpt lat="48.24923" lon="-0.37934">
        <ele>242</ele>
        <time>2012-04-06T12:52:18Z</time>
      </trkpt>
      <trkpt lat="48.24927" lon="-0.37941">
        <ele>242</ele>
        <time>2012-04-06T12:52:22Z</time>
      </trkpt>
      <trkpt lat="48.24928" lon="-0.37944">
        <ele>242</ele>
        <time>2012-04-06T12:52:24Z</time>
      </trkpt>
      <trkpt lat="48.24933" lon="-0.37955">
        <ele>242</ele>
        <time>2012-04-06T12:52:30Z</time>
      </trkpt>
      <trkpt lat="48.24936" lon="-0.37961">
        <ele>241.5</ele>
        <time>2012-04-06T12:52:34Z</time>
      </trkpt>
      <trkpt lat="48.24939" lon="-0.37969">
        <ele>242</ele>
        <time>2012-04-06T12:52:40Z</time>
      </trkpt>
      <trkpt lat="48.24941" lon="-0.37974">
        <ele>242</ele>
        <time>2012-04-06T12:52:44Z</time>
      </trkpt>
      <trkpt lat="48.24943" lon="-0.3798">
        <ele>242</ele>
        <time>2012-04-06T12:52:48Z</time>
      </trkpt>
      <trkpt lat="48.24954" lon="-0.38001">
        <ele>242</ele>
        <time>2012-04-06T12:52:58Z</time>
      </trkpt>
      <trkpt lat="48.24956" lon="-0.38005">
        <ele>241.5</ele>
        <time>2012-04-06T12:53:00Z</time>
      </trkpt>
      <trkpt lat="48.24957" lon="-0.38013">
        <ele>241.5</ele>
        <time>2012-04-06T12:53:04Z</time>
      </trkpt>
      <trkpt lat="48.24958" lon="-0.38027">
        <ele>241.5</ele>
        <time>2012-04-06T12:53:10Z</time>
      </trkpt>
      <trkpt lat="48.24956" lon="-0.38034">
        <ele>241.5</ele>
        <time>2012-04-06T12:53:14Z</time>
      </trkpt>
      <trkpt lat="48.24955" lon="-0.38038">
        <ele>242</ele>
        <time>2012-04-06T12:53:16Z</time>
      </trkpt>
      <trkpt lat="48.24948" lon="-0.38049">
        <ele>242</ele>
        <time>2012-04-06T12:53:22Z</time>
      </trkpt>
      <trkpt lat="48.24941" lon="-0.38062">
        <ele>242.5</ele>
        <time>2012-04-06T12:53:30Z</time>
      </trkpt>
      <trkpt lat="48.24932" lon="-0.38073">
        <ele>242.5</ele>
        <time>2012-04-06T12:53:38Z</time>
      </trkpt>
      <trkpt lat="48.24929" lon="-0.38081">
        <ele>243</ele>
        <time>2012-04-06T12:53:42Z</time>
      </trkpt>
      <trkpt lat="48.24927" lon="-0.38088">
        <ele>243</ele>
        <time>2012-04-06T12:53:46Z</time>
      </trkpt>
      <trkpt lat="48.24925" lon="-0.38095">
        <ele>243.5</ele>
        <time>2012-04-06T12:53:50Z</time>
      </trkpt>
      <trkpt lat="48.24922" lon="-0.38102">
        <ele>243.5</ele>
        <time>2012-04-06T12:53:54Z</time>
      </trkpt>
      <trkpt lat="48.2492" lon="-0.38114">
        <ele>244.5</ele>
        <time>2012-04-06T12:54:00Z</time>
      </trkpt>
      <trkpt lat="48.24919" lon="-0.38119">
        <ele>244.5</ele>
        <time>2012-04-06T12:54:04Z</time>
      </trkpt>
      <trkpt lat="48.24919" lon="-0.38123">
        <ele>244.5</ele>
        <time>2012-04-06T12:54:06Z</time>
      </trkpt>
      <trkpt lat="48.24916" lon="-0.38135">
        <ele>245</ele>
        <time>2012-04-06T12:54:12Z</time>
      </trkpt>
      <trkpt lat="48.24911" lon="-0.38147">
        <ele>245.5</ele>
        <time>2012-04-06T12:54:18Z</time>
      </trkpt>
      <trkpt lat="48.24903" lon="-0.38161">
        <ele>245.5</ele>
        <time>2012-04-06T12:54:28Z</time>
      </trkpt>
      <trkpt lat="48.24892" lon="-0.38176">
        <ele>246</ele>
        <time>2012-04-06T12:54:38Z</time>
      </trkpt>
      <trkpt lat="48.24889" lon="-0.38192">
        <ele>246</ele>
        <time>2012-04-06T12:54:48Z</time>
      </trkpt>
      <trkpt lat="48.24888" lon="-0.38199">
        <ele>246</ele>
        <time>2012-04-06T12:54:52Z</time>
      </trkpt>
      <trkpt lat="48.24879" lon="-0.38218">
        <ele>246.5</ele>
        <time>2012-04-06T12:55:04Z</time>
      </trkpt>
      <trkpt lat="48.2487" lon="-0.38227">
        <ele>247</ele>
        <time>2012-04-06T12:55:12Z</time>
      </trkpt>
      <trkpt lat="48.24866" lon="-0.38234">
        <ele>247</ele>
        <time>2012-04-06T12:55:18Z</time>
      </trkpt>
      <trkpt lat="48.24862" lon="-0.38244">
        <ele>246.5</ele>
        <time>2012-04-06T12:55:24Z</time>
      </trkpt>
      <trkpt lat="48.2486" lon="-0.38249">
        <ele>246.5</ele>
        <time>2012-04-06T12:55:26Z</time>
      </trkpt>
      <trkpt lat="48.24858" lon="-0.38257">
        <ele>246.5</ele>
        <time>2012-04-06T12:55:30Z</time>
      </trkpt>
      <trkpt lat="48.2485" lon="-0.38274">
        <ele>245.5</ele>
        <time>2012-04-06T12:55:40Z</time>
      </trkpt>
      <trkpt lat="48.24848" lon="-0.38281">
        <ele>245.5</ele>
        <time>2012-04-06T12:55:44Z</time>
      </trkpt>
      <trkpt lat="48.24845" lon="-0.38287">
        <ele>245</ele>
        <time>2012-04-06T12:55:48Z</time>
      </trkpt>
      <trkpt lat="48.24845" lon="-0.38295">
        <ele>244.5</ele>
        <time>2012-04-06T12:55:52Z</time>
      </trkpt>
      <trkpt lat="48.24845" lon="-0.38308">
        <ele>244</ele>
        <time>2012-04-06T12:55:58Z</time>
      </trkpt>
      <trkpt lat="48.24844" lon="-0.38323">
        <ele>243</ele>
        <time>2012-04-06T12:56:06Z</time>
      </trkpt>
      <trkpt lat="48.24843" lon="-0.3833">
        <ele>241</ele>
        <time>2012-04-06T12:56:10Z</time>
      </trkpt>
      <trkpt lat="48.24838" lon="-0.38344">
        <ele>237</ele>
        <time>2012-04-06T12:56:16Z</time>
      </trkpt>
      <trkpt lat="48.24833" lon="-0.3835">
        <ele>237.5</ele>
        <time>2012-04-06T12:56:22Z</time>
      </trkpt>
      <trkpt lat="48.2483" lon="-0.38362">
        <ele>236</ele>
        <time>2012-04-06T12:56:28Z</time>
      </trkpt>
      <trkpt lat="48.2483" lon="-0.38372">
        <ele>236.5</ele>
        <time>2012-04-06T12:56:32Z</time>
      </trkpt>
      <trkpt lat="48.24829" lon="-0.38381">
        <ele>236.5</ele>
        <time>2012-04-06T12:56:36Z</time>
      </trkpt>
      <trkpt lat="48.24826" lon="-0.38394">
        <ele>238</ele>
        <time>2012-04-06T12:56:44Z</time>
      </trkpt>
      <trkpt lat="48.2482" lon="-0.38414">
        <ele>238.5</ele>
        <time>2012-04-06T12:56:54Z</time>
      </trkpt>
      <trkpt lat="48.24815" lon="-0.38419">
        <ele>238.5</ele>
        <time>2012-04-06T12:56:58Z</time>
      </trkpt>
      <trkpt lat="48.24809" lon="-0.38428">
        <ele>238.5</ele>
        <time>2012-04-06T12:57:04Z</time>
      </trkpt>
      <trkpt lat="48.24806" lon="-0.38434">
        <ele>238</ele>
        <time>2012-04-06T12:57:08Z</time>
      </trkpt>
      <trkpt lat="48.24798" lon="-0.38445">
        <ele>238.5</ele>
        <time>2012-04-06T12:57:16Z</time>
      </trkpt>
      <trkpt lat="48.24792" lon="-0.38449">
        <ele>239</ele>
        <time>2012-04-06T12:57:20Z</time>
      </trkpt>
      <trkpt lat="48.24783" lon="-0.38455">
        <ele>237.5</ele>
        <time>2012-04-06T12:57:26Z</time>
      </trkpt>
      <trkpt lat="48.24779" lon="-0.38457">
        <ele>238</ele>
        <time>2012-04-06T12:57:30Z</time>
      </trkpt>
      <trkpt lat="48.24776" lon="-0.38459">
        <ele>237.5</ele>
        <time>2012-04-06T12:57:32Z</time>
      </trkpt>
      <trkpt lat="48.24762" lon="-0.38473">
        <ele>237.5</ele>
        <time>2012-04-06T12:57:44Z</time>
      </trkpt>
      <trkpt lat="48.24752" lon="-0.38487">
        <ele>236.5</ele>
        <time>2012-04-06T12:57:56Z</time>
      </trkpt>
      <trkpt lat="48.24744" lon="-0.38498">
        <ele>235.5</ele>
        <time>2012-04-06T12:58:02Z</time>
      </trkpt>
      <trkpt lat="48.2474" lon="-0.38504">
        <ele>235</ele>
        <time>2012-04-06T12:58:06Z</time>
      </trkpt>
      <trkpt lat="48.24736" lon="-0.38509">
        <ele>233.5</ele>
        <time>2012-04-06T12:58:10Z</time>
      </trkpt>
      <trkpt lat="48.24734" lon="-0.38511">
        <ele>233.5</ele>
        <time>2012-04-06T12:58:12Z</time>
      </trkpt>
      <trkpt lat="48.24728" lon="-0.3852">
        <ele>231.5</ele>
        <time>2012-04-06T12:58:18Z</time>
      </trkpt>
      <trkpt lat="48.24728" lon="-0.38528">
        <ele>232</ele>
        <time>2012-04-06T12:58:22Z</time>
      </trkpt>
      <trkpt lat="48.24734" lon="-0.38541">
        <ele>232</ele>
        <time>2012-04-06T12:58:28Z</time>
      </trkpt>
      <trkpt lat="48.24734" lon="-0.38551">
        <ele>232.5</ele>
        <time>2012-04-06T12:58:32Z</time>
      </trkpt>
      <trkpt lat="48.24733" lon="-0.38558">
        <ele>233</ele>
        <time>2012-04-06T12:58:36Z</time>
      </trkpt>
      <trkpt lat="48.24729" lon="-0.3857">
        <ele>234</ele>
        <time>2012-04-06T12:58:44Z</time>
      </trkpt>
      <trkpt lat="48.2473" lon="-0.38579">
        <ele>234.5</ele>
        <time>2012-04-06T12:58:48Z</time>
      </trkpt>
      <trkpt lat="48.24732" lon="-0.3859">
        <ele>234.5</ele>
        <time>2012-04-06T12:58:54Z</time>
      </trkpt>
      <trkpt lat="48.24734" lon="-0.38597">
        <ele>234.5</ele>
        <time>2012-04-06T12:58:58Z</time>
      </trkpt>
      <trkpt lat="48.24737" lon="-0.38604">
        <ele>233.5</ele>
        <time>2012-04-06T12:59:02Z</time>
      </trkpt>
      <trkpt lat="48.24741" lon="-0.3862">
        <ele>233.5</ele>
        <time>2012-04-06T12:59:10Z</time>
      </trkpt>
      <trkpt lat="48.24744" lon="-0.38628">
        <ele>233</ele>
        <time>2012-04-06T12:59:14Z</time>
      </trkpt>
      <trkpt lat="48.24744" lon="-0.38646">
        <ele>233</ele>
        <time>2012-04-06T12:59:24Z</time>
      </trkpt>
      <trkpt lat="48.24745" lon="-0.3866">
        <ele>233</ele>
        <time>2012-04-06T12:59:34Z</time>
      </trkpt>
      <trkpt lat="48.24748" lon="-0.38666">
        <ele>230</ele>
        <time>2012-04-06T12:59:36Z</time>
      </trkpt>
      <trkpt lat="48.24751" lon="-0.3868">
        <ele>229.5</ele>
        <time>2012-04-06T12:59:42Z</time>
      </trkpt>
      <trkpt lat="48.24754" lon="-0.38693">
        <ele>228.5</ele>
        <time>2012-04-06T12:59:46Z</time>
      </trkpt>
      <trkpt lat="48.24755" lon="-0.38698">
        <ele>228.5</ele>
        <time>2012-04-06T12:59:48Z</time>
      </trkpt>
      <trkpt lat="48.24752" lon="-0.38711">
        <ele>229</ele>
        <time>2012-04-06T12:59:54Z</time>
      </trkpt>
      <trkpt lat="48.2475" lon="-0.38725">
        <ele>228.5</ele>
        <time>2012-04-06T13:00:02Z</time>
      </trkpt>
      <trkpt lat="48.24746" lon="-0.38733">
        <ele>229.5</ele>
        <time>2012-04-06T13:00:06Z</time>
      </trkpt>
      <trkpt lat="48.24744" lon="-0.38736">
        <ele>229.5</ele>
        <time>2012-04-06T13:00:08Z</time>
      </trkpt>
      <trkpt lat="48.24741" lon="-0.38749">
        <ele>232</ele>
        <time>2012-04-06T13:00:14Z</time>
      </trkpt>
      <trkpt lat="48.2474" lon="-0.38757">
        <ele>232.5</ele>
        <time>2012-04-06T13:00:20Z</time>
      </trkpt>
      <trkpt lat="48.24734" lon="-0.38765">
        <ele>233.5</ele>
        <time>2012-04-06T13:00:26Z</time>
      </trkpt>
      <trkpt lat="48.24723" lon="-0.38777">
        <ele>234.5</ele>
        <time>2012-04-06T13:00:34Z</time>
      </trkpt>
      <trkpt lat="48.24714" lon="-0.38776">
        <ele>235.5</ele>
        <time>2012-04-06T13:00:40Z</time>
      </trkpt>
      <trkpt lat="48.24706" lon="-0.38778">
        <ele>235</ele>
        <time>2012-04-06T13:00:44Z</time>
      </trkpt>
      <trkpt lat="48.24692" lon="-0.3878">
        <ele>233</ele>
        <time>2012-04-06T13:00:54Z</time>
      </trkpt>
      <trkpt lat="48.24682" lon="-0.38783">
        <ele>235.5</ele>
        <time>2012-04-06T13:01:02Z</time>
      </trkpt>
      <trkpt lat="48.24677" lon="-0.38784">
        <ele>236.5</ele>
        <time>2012-04-06T13:01:06Z</time>
      </trkpt>
      <trkpt lat="48.24665" lon="-0.38782">
        <ele>238</ele>
        <time>2012-04-06T13:01:14Z</time>
      </trkpt>
      <trkpt lat="48.2466" lon="-0.38784">
        <ele>238.5</ele>
        <time>2012-04-06T13:01:18Z</time>
      </trkpt>
      <trkpt lat="48.24652" lon="-0.3879">
        <ele>239.5</ele>
        <time>2012-04-06T13:01:28Z</time>
      </trkpt>
      <trkpt lat="48.24643" lon="-0.38798">
        <ele>240</ele>
        <time>2012-04-06T13:01:36Z</time>
      </trkpt>
      <trkpt lat="48.24639" lon="-0.38805">
        <ele>240</ele>
        <time>2012-04-06T13:01:40Z</time>
      </trkpt>
      <trkpt lat="48.24631" lon="-0.38808">
        <ele>240</ele>
        <time>2012-04-06T13:01:48Z</time>
      </trkpt>
      <trkpt lat="48.24628" lon="-0.38815">
        <ele>240.5</ele>
        <time>2012-04-06T13:01:52Z</time>
      </trkpt>
      <trkpt lat="48.24623" lon="-0.38828">
        <ele>242</ele>
        <time>2012-04-06T13:02:02Z</time>
      </trkpt>
      <trkpt lat="48.24613" lon="-0.3884">
        <ele>242.5</ele>
        <time>2012-04-06T13:02:12Z</time>
      </trkpt>
      <trkpt lat="48.24607" lon="-0.3884">
        <ele>243</ele>
        <time>2012-04-06T13:02:16Z</time>
      </trkpt>
      <trkpt lat="48.24598" lon="-0.38849">
        <ele>243.5</ele>
        <time>2012-04-06T13:02:26Z</time>
      </trkpt>
      <trkpt lat="48.24588" lon="-0.38861">
        <ele>243.5</ele>
        <time>2012-04-06T13:02:38Z</time>
      </trkpt>
      <trkpt lat="48.24586" lon="-0.38871">
        <ele>244</ele>
        <time>2012-04-06T13:02:48Z</time>
      </trkpt>
      <trkpt lat="48.24574" lon="-0.38876">
        <ele>243.5</ele>
        <time>2012-04-06T13:02:56Z</time>
      </trkpt>
      <trkpt lat="48.24567" lon="-0.38877">
        <ele>243.5</ele>
        <time>2012-04-06T13:02:58Z</time>
      </trkpt>
      <trkpt lat="48.24557" lon="-0.38883">
        <ele>243</ele>
        <time>2012-04-06T13:03:02Z</time>
      </trkpt>
      <trkpt lat="48.24552" lon="-0.38886">
        <ele>243.5</ele>
        <time>2012-04-06T13:03:03Z</time>
      </trkpt>
      <trkpt lat="48.24533" lon="-0.38887">
        <ele>247.5</ele>
        <time>2012-04-06T13:03:13Z</time>
      </trkpt>
      <trkpt lat="48.2452" lon="-0.38891">
        <ele>249</ele>
        <time>2012-04-06T13:03:25Z</time>
      </trkpt>
      <trkpt lat="48.24515" lon="-0.3889">
        <ele>248.5</ele>
        <time>2012-04-06T13:03:29Z</time>
      </trkpt>
      <trkpt lat="48.24506" lon="-0.38892">
        <ele>248</ele>
        <time>2012-04-06T13:03:37Z</time>
      </trkpt>
      <trkpt lat="48.24502" lon="-0.38895">
        <ele>248</ele>
        <time>2012-04-06T13:03:41Z</time>
      </trkpt>
      <trkpt lat="48.24494" lon="-0.38898">
        <ele>247.5</ele>
        <time>2012-04-06T13:03:47Z</time>
      </trkpt>
      <trkpt lat="48.24489" lon="-0.38898">
        <ele>247</ele>
        <time>2012-04-06T13:03:51Z</time>
      </trkpt>
      <trkpt lat="48.24477" lon="-0.38914">
        <ele>246</ele>
        <time>2012-04-06T13:04:05Z</time>
      </trkpt>
      <trkpt lat="48.24463" lon="-0.38932">
        <ele>246</ele>
        <time>2012-04-06T13:04:17Z</time>
      </trkpt>
      <trkpt lat="48.24462" lon="-0.38935">
        <ele>246.5</ele>
        <time>2012-04-06T13:04:19Z</time>
      </trkpt>
      <trkpt lat="48.24453" lon="-0.38946">
        <ele>247</ele>
        <time>2012-04-06T13:04:29Z</time>
      </trkpt>
      <trkpt lat="48.24438" lon="-0.38956">
        <ele>247</ele>
        <time>2012-04-06T13:04:41Z</time>
      </trkpt>
      <trkpt lat="48.24424" lon="-0.38965">
        <ele>247</ele>
        <time>2012-04-06T13:04:53Z</time>
      </trkpt>
      <trkpt lat="48.24414" lon="-0.38971">
        <ele>247</ele>
        <time>2012-04-06T13:05:01Z</time>
      </trkpt>
      <trkpt lat="48.2441" lon="-0.38978">
        <ele>247</ele>
        <time>2012-04-06T13:05:07Z</time>
      </trkpt>
      <trkpt lat="48.24406" lon="-0.38991">
        <ele>247</ele>
        <time>2012-04-06T13:05:13Z</time>
      </trkpt>
      <trkpt lat="48.24403" lon="-0.38997">
        <ele>247.5</ele>
        <time>2012-04-06T13:05:19Z</time>
      </trkpt>
      <trkpt lat="48.24398" lon="-0.38999">
        <ele>248</ele>
        <time>2012-04-06T13:05:23Z</time>
      </trkpt>
      <trkpt lat="48.24387" lon="-0.39003">
        <ele>250</ele>
        <time>2012-04-06T13:05:33Z</time>
      </trkpt>
      <trkpt lat="48.24382" lon="-0.39009">
        <ele>250.5</ele>
        <time>2012-04-06T13:05:37Z</time>
      </trkpt>
      <trkpt lat="48.24373" lon="-0.39019">
        <ele>251</ele>
        <time>2012-04-06T13:05:45Z</time>
      </trkpt>
      <trkpt lat="48.24366" lon="-0.39019">
        <ele>251</ele>
        <time>2012-04-06T13:05:51Z</time>
      </trkpt>
      <trkpt lat="48.24353" lon="-0.39024">
        <ele>251.5</ele>
        <time>2012-04-06T13:05:59Z</time>
      </trkpt>
      <trkpt lat="48.24348" lon="-0.39031">
        <ele>252</ele>
        <time>2012-04-06T13:06:03Z</time>
      </trkpt>
      <trkpt lat="48.24343" lon="-0.39037">
        <ele>252</ele>
        <time>2012-04-06T13:06:09Z</time>
      </trkpt>
      <trkpt lat="48.24338" lon="-0.39039">
        <ele>252</ele>
        <time>2012-04-06T13:06:13Z</time>
      </trkpt>
      <trkpt lat="48.2433" lon="-0.39042">
        <ele>252</ele>
        <time>2012-04-06T13:06:19Z</time>
      </trkpt>
      <trkpt lat="48.24325" lon="-0.39048">
        <ele>252</ele>
        <time>2012-04-06T13:06:23Z</time>
      </trkpt>
      <trkpt lat="48.2432" lon="-0.39059">
        <ele>251.5</ele>
        <time>2012-04-06T13:06:27Z</time>
      </trkpt>
      <trkpt lat="48.24312" lon="-0.39064">
        <ele>252</ele>
        <time>2012-04-06T13:06:35Z</time>
      </trkpt>
      <trkpt lat="48.24309" lon="-0.39066">
        <ele>252</ele>
        <time>2012-04-06T13:06:39Z</time>
      </trkpt>
      <trkpt lat="48.24294" lon="-0.39076">
        <ele>251.5</ele>
        <time>2012-04-06T13:06:49Z</time>
      </trkpt>
      <trkpt lat="48.2429" lon="-0.39081">
        <ele>251.5</ele>
        <time>2012-04-06T13:06:53Z</time>
      </trkpt>
      <trkpt lat="48.24276" lon="-0.39092">
        <ele>251.5</ele>
        <time>2012-04-06T13:07:05Z</time>
      </trkpt>
      <trkpt lat="48.24267" lon="-0.39098">
        <ele>251.5</ele>
        <time>2012-04-06T13:07:13Z</time>
      </trkpt>
      <trkpt lat="48.24262" lon="-0.39101">
        <ele>251.5</ele>
        <time>2012-04-06T13:07:17Z</time>
      </trkpt>
      <trkpt lat="48.24248" lon="-0.39112">
        <ele>250.5</ele>
        <time>2012-04-06T13:07:31Z</time>
      </trkpt>
      <trkpt lat="48.24238" lon="-0.39125">
        <ele>248</ele>
        <time>2012-04-06T13:07:41Z</time>
      </trkpt>
      <trkpt lat="48.24236" lon="-0.39127">
        <ele>248</ele>
        <time>2012-04-06T13:07:43Z</time>
      </trkpt>
      <trkpt lat="48.24233" lon="-0.3913">
        <ele>248</ele>
        <time>2012-04-06T13:07:45Z</time>
      </trkpt>
      <trkpt lat="48.2422" lon="-0.3914">
        <ele>248</ele>
        <time>2012-04-06T13:07:57Z</time>
      </trkpt>
      <trkpt lat="48.24212" lon="-0.39142">
        <ele>248.5</ele>
        <time>2012-04-06T13:08:05Z</time>
      </trkpt>
      <trkpt lat="48.24207" lon="-0.39147">
        <ele>248.5</ele>
        <time>2012-04-06T13:08:09Z</time>
      </trkpt>
      <trkpt lat="48.24199" lon="-0.39155">
        <ele>248.5</ele>
        <time>2012-04-06T13:08:17Z</time>
      </trkpt>
      <trkpt lat="48.24196" lon="-0.3916">
        <ele>248</ele>
        <time>2012-04-06T13:08:21Z</time>
      </trkpt>
      <trkpt lat="48.24195" lon="-0.39163">
        <ele>248</ele>
        <time>2012-04-06T13:08:23Z</time>
      </trkpt>
      <trkpt lat="48.24191" lon="-0.39171">
        <ele>248</ele>
        <time>2012-04-06T13:08:29Z</time>
      </trkpt>
      <trkpt lat="48.24184" lon="-0.39177">
        <ele>249.5</ele>
        <time>2012-04-06T13:08:35Z</time>
      </trkpt>
      <trkpt lat="48.24177" lon="-0.39186">
        <ele>249</ele>
        <time>2012-04-06T13:08:41Z</time>
      </trkpt>
      <trkpt lat="48.24174" lon="-0.39189">
        <ele>249.5</ele>
        <time>2012-04-06T13:08:45Z</time>
      </trkpt>
      <trkpt lat="48.24171" lon="-0.39192">
        <ele>249.5</ele>
        <time>2012-04-06T13:08:47Z</time>
      </trkpt>
      <trkpt lat="48.24167" lon="-0.39202">
        <ele>249.5</ele>
        <time>2012-04-06T13:08:53Z</time>
      </trkpt>
      <trkpt lat="48.24162" lon="-0.39211">
        <ele>250</ele>
        <time>2012-04-06T13:08:59Z</time>
      </trkpt>
      <trkpt lat="48.24156" lon="-0.39217">
        <ele>250</ele>
        <time>2012-04-06T13:09:05Z</time>
      </trkpt>
      <trkpt lat="48.24152" lon="-0.39224">
        <ele>250.5</ele>
        <time>2012-04-06T13:09:13Z</time>
      </trkpt>
      <trkpt lat="48.24148" lon="-0.39234">
        <ele>252</ele>
        <time>2012-04-06T13:09:19Z</time>
      </trkpt>
      <trkpt lat="48.24143" lon="-0.39242">
        <ele>251.5</ele>
        <time>2012-04-06T13:09:23Z</time>
      </trkpt>
      <trkpt lat="48.24138" lon="-0.39245">
        <ele>254</ele>
        <time>2012-04-06T13:09:27Z</time>
      </trkpt>
      <trkpt lat="48.24136" lon="-0.39261">
        <ele>252</ele>
        <time>2012-04-06T13:09:35Z</time>
      </trkpt>
      <trkpt lat="48.24135" lon="-0.3927">
        <ele>252</ele>
        <time>2012-04-06T13:09:39Z</time>
      </trkpt>
      <trkpt lat="48.24133" lon="-0.3928">
        <ele>252.5</ele>
        <time>2012-04-06T13:09:45Z</time>
      </trkpt>
      <trkpt lat="48.24136" lon="-0.39288">
        <ele>255</ele>
        <time>2012-04-06T13:09:49Z</time>
      </trkpt>
      <trkpt lat="48.2414" lon="-0.39296">
        <ele>255</ele>
        <time>2012-04-06T13:09:51Z</time>
      </trkpt>
      <trkpt lat="48.2414" lon="-0.39307">
        <ele>254</ele>
        <time>2012-04-06T13:09:57Z</time>
      </trkpt>
      <trkpt lat="48.24136" lon="-0.39313">
        <ele>253.5</ele>
        <time>2012-04-06T13:10:03Z</time>
      </trkpt>
      <trkpt lat="48.24132" lon="-0.39323">
        <ele>254</ele>
        <time>2012-04-06T13:10:11Z</time>
      </trkpt>
      <trkpt lat="48.24132" lon="-0.39333">
        <ele>254.5</ele>
        <time>2012-04-06T13:10:15Z</time>
      </trkpt>
      <trkpt lat="48.24135" lon="-0.39339">
        <ele>255</ele>
        <time>2012-04-06T13:10:19Z</time>
      </trkpt>
      <trkpt lat="48.24134" lon="-0.39373">
        <ele>255.5</ele>
        <time>2012-04-06T13:10:31Z</time>
      </trkpt>
      <trkpt lat="48.24142" lon="-0.39393">
        <ele>256</ele>
        <time>2012-04-06T13:10:39Z</time>
      </trkpt>
      <trkpt lat="48.24142" lon="-0.39406">
        <ele>257</ele>
        <time>2012-04-06T13:10:47Z</time>
      </trkpt>
      <trkpt lat="48.24132" lon="-0.39421">
        <ele>257.5</ele>
        <time>2012-04-06T13:10:55Z</time>
      </trkpt>
      <trkpt lat="48.24123" lon="-0.39439">
        <ele>259.5</ele>
        <time>2012-04-06T13:11:07Z</time>
      </trkpt>
      <trkpt lat="48.24125" lon="-0.39458">
        <ele>261</ele>
        <time>2012-04-06T13:11:15Z</time>
      </trkpt>
      <trkpt lat="48.24119" lon="-0.39481">
        <ele>262</ele>
        <time>2012-04-06T13:11:27Z</time>
      </trkpt>
      <trkpt lat="48.24109" lon="-0.3949">
        <ele>261.5</ele>
        <time>2012-04-06T13:11:33Z</time>
      </trkpt>
      <trkpt lat="48.24106" lon="-0.39496">
        <ele>261</ele>
        <time>2012-04-06T13:11:35Z</time>
      </trkpt>
      <trkpt lat="48.24103" lon="-0.39505">
        <ele>260</ele>
        <time>2012-04-06T13:11:39Z</time>
      </trkpt>
      <trkpt lat="48.24091" lon="-0.39522">
        <ele>259</ele>
        <time>2012-04-06T13:11:49Z</time>
      </trkpt>
      <trkpt lat="48.2409" lon="-0.3954">
        <ele>257</ele>
        <time>2012-04-06T13:11:57Z</time>
      </trkpt>
      <trkpt lat="48.24081" lon="-0.39558">
        <ele>255</ele>
        <time>2012-04-06T13:12:11Z</time>
      </trkpt>
      <trkpt lat="48.24069" lon="-0.39575">
        <ele>253.5</ele>
        <time>2012-04-06T13:12:21Z</time>
      </trkpt>
      <trkpt lat="48.2406" lon="-0.39587">
        <ele>253</ele>
        <time>2012-04-06T13:12:31Z</time>
      </trkpt>
      <trkpt lat="48.24063" lon="-0.39609">
        <ele>253.5</ele>
        <time>2012-04-06T13:12:43Z</time>
      </trkpt>
      <trkpt lat="48.24058" lon="-0.39626">
        <ele>255.5</ele>
        <time>2012-04-06T13:12:55Z</time>
      </trkpt>
      <trkpt lat="48.24061" lon="-0.39655">
        <ele>257.5</ele>
        <time>2012-04-06T13:13:09Z</time>
      </trkpt>
      <trkpt lat="48.2406" lon="-0.39664">
        <ele>257.5</ele>
        <time>2012-04-06T13:13:17Z</time>
      </trkpt>
      <trkpt lat="48.24056" lon="-0.39682">
        <ele>256.5</ele>
        <time>2012-04-06T13:13:27Z</time>
      </trkpt>
      <trkpt lat="48.24056" lon="-0.39689">
        <ele>256.5</ele>
        <time>2012-04-06T13:13:29Z</time>
      </trkpt>
      <trkpt lat="48.24059" lon="-0.39699">
        <ele>256</ele>
        <time>2012-04-06T13:13:35Z</time>
      </trkpt>
      <trkpt lat="48.24058" lon="-0.39711">
        <ele>256</ele>
        <time>2012-04-06T13:13:41Z</time>
      </trkpt>
      <trkpt lat="48.24057" lon="-0.39721">
        <ele>256.5</ele>
        <time>2012-04-06T13:13:47Z</time>
      </trkpt>
      <trkpt lat="48.24054" lon="-0.39731">
        <ele>257.5</ele>
        <time>2012-04-06T13:13:53Z</time>
      </trkpt>
      <trkpt lat="48.24056" lon="-0.39743">
        <ele>258</ele>
        <time>2012-04-06T13:13:59Z</time>
      </trkpt>
      <trkpt lat="48.24055" lon="-0.3975">
        <ele>259.5</ele>
        <time>2012-04-06T13:14:03Z</time>
      </trkpt>
      <trkpt lat="48.24051" lon="-0.39757">
        <ele>258.5</ele>
        <time>2012-04-06T13:14:07Z</time>
      </trkpt>
      <trkpt lat="48.24043" lon="-0.39769">
        <ele>261</ele>
        <time>2012-04-06T13:14:15Z</time>
      </trkpt>
      <trkpt lat="48.24035" lon="-0.39776">
        <ele>262</ele>
        <time>2012-04-06T13:14:19Z</time>
      </trkpt>
      <trkpt lat="48.24021" lon="-0.39781">
        <ele>258.5</ele>
        <time>2012-04-06T13:14:25Z</time>
      </trkpt>
      <trkpt lat="48.24016" lon="-0.39782">
        <ele>255</ele>
        <time>2012-04-06T13:14:29Z</time>
      </trkpt>
      <trkpt lat="48.24004" lon="-0.39782">
        <ele>255</ele>
        <time>2012-04-06T13:14:39Z</time>
      </trkpt>
      <trkpt lat="48.23996" lon="-0.3978">
        <ele>255</ele>
        <time>2012-04-06T13:14:49Z</time>
      </trkpt>
      <trkpt lat="48.23992" lon="-0.39775">
        <ele>255</ele>
        <time>2012-04-06T13:14:53Z</time>
      </trkpt>
      <trkpt lat="48.23985" lon="-0.39773">
        <ele>255</ele>
        <time>2012-04-06T13:14:59Z</time>
      </trkpt>
      <trkpt lat="48.23978" lon="-0.3977">
        <ele>255</ele>
        <time>2012-04-06T13:15:05Z</time>
      </trkpt>
      <trkpt lat="48.23974" lon="-0.39772">
        <ele>255</ele>
        <time>2012-04-06T13:15:07Z</time>
      </trkpt>
      <trkpt lat="48.23956" lon="-0.39771">
        <ele>257.5</ele>
        <time>2012-04-06T13:15:17Z</time>
      </trkpt>
      <trkpt lat="48.23945" lon="-0.39767">
        <ele>259</ele>
        <time>2012-04-06T13:15:23Z</time>
      </trkpt>
      <trkpt lat="48.23932" lon="-0.39763">
        <ele>260.5</ele>
        <time>2012-04-06T13:15:31Z</time>
      </trkpt>
      <trkpt lat="48.23923" lon="-0.39749">
        <ele>262</ele>
        <time>2012-04-06T13:15:39Z</time>
      </trkpt>
      <trkpt lat="48.23921" lon="-0.39734">
        <ele>261</ele>
        <time>2012-04-06T13:15:45Z</time>
      </trkpt>
      <trkpt lat="48.23921" lon="-0.39727">
        <ele>260</ele>
        <time>2012-04-06T13:15:51Z</time>
      </trkpt>
      <trkpt lat="48.23915" lon="-0.39728">
        <ele>260.5</ele>
        <time>2012-04-06T13:16:05Z</time>
      </trkpt>
      <trkpt lat="48.23911" lon="-0.39729">
        <ele>260</ele>
        <time>2012-04-06T13:16:09Z</time>
      </trkpt>
      <trkpt lat="48.23908" lon="-0.3973">
        <ele>260</ele>
        <time>2012-04-06T13:16:15Z</time>
      </trkpt>
      <trkpt lat="48.23904" lon="-0.39731">
        <ele>260.5</ele>
        <time>2012-04-06T13:16:19Z</time>
      </trkpt>
      <trkpt lat="48.239" lon="-0.39735">
        <ele>260.5</ele>
        <time>2012-04-06T13:16:23Z</time>
      </trkpt>
      <trkpt lat="48.23896" lon="-0.39743">
        <ele>260.5</ele>
        <time>2012-04-06T13:16:29Z</time>
      </trkpt>
      <trkpt lat="48.23893" lon="-0.39748">
        <ele>261</ele>
        <time>2012-04-06T13:16:41Z</time>
      </trkpt>
      <trkpt lat="48.23889" lon="-0.39752">
        <ele>261.5</ele>
        <time>2012-04-06T13:16:45Z</time>
      </trkpt>
      <trkpt lat="48.23888" lon="-0.39761">
        <ele>262.5</ele>
        <time>2012-04-06T13:16:51Z</time>
      </trkpt>
      <trkpt lat="48.2389" lon="-0.39773">
        <ele>263.5</ele>
        <time>2012-04-06T13:16:59Z</time>
      </trkpt>
      <trkpt lat="48.23892" lon="-0.39796">
        <ele>264</ele>
        <time>2012-04-06T13:17:11Z</time>
      </trkpt>
      <trkpt lat="48.23892" lon="-0.39809">
        <ele>264</ele>
        <time>2012-04-06T13:17:17Z</time>
      </trkpt>
      <trkpt lat="48.23898" lon="-0.39819">
        <ele>264.5</ele>
        <time>2012-04-06T13:17:27Z</time>
      </trkpt>
      <trkpt lat="48.239" lon="-0.39826">
        <ele>265</ele>
        <time>2012-04-06T13:17:29Z</time>
      </trkpt>
      <trkpt lat="48.23904" lon="-0.39846">
        <ele>265.5</ele>
        <time>2012-04-06T13:17:39Z</time>
      </trkpt>
      <trkpt lat="48.23907" lon="-0.39851">
        <ele>265.5</ele>
        <time>2012-04-06T13:17:43Z</time>
      </trkpt>
      <trkpt lat="48.23911" lon="-0.3987">
        <ele>266.5</ele>
        <time>2012-04-06T13:17:57Z</time>
      </trkpt>
      <trkpt lat="48.23914" lon="-0.39879">
        <ele>267</ele>
        <time>2012-04-06T13:18:05Z</time>
      </trkpt>
      <trkpt lat="48.23923" lon="-0.39882">
        <ele>267</ele>
        <time>2012-04-06T13:18:13Z</time>
      </trkpt>
      <trkpt lat="48.23935" lon="-0.39883">
        <ele>268.5</ele>
        <time>2012-04-06T13:18:21Z</time>
      </trkpt>
      <trkpt lat="48.23949" lon="-0.39894">
        <ele>268.5</ele>
        <time>2012-04-06T13:18:27Z</time>
      </trkpt>
      <trkpt lat="48.23942" lon="-0.3992">
        <ele>267</ele>
        <time>2012-04-06T13:18:37Z</time>
      </trkpt>
      <trkpt lat="48.23937" lon="-0.39931">
        <ele>267.5</ele>
        <time>2012-04-06T13:18:45Z</time>
      </trkpt>
      <trkpt lat="48.23936" lon="-0.39943">
        <ele>267.5</ele>
        <time>2012-04-06T13:18:53Z</time>
      </trkpt>
      <trkpt lat="48.23933" lon="-0.39953">
        <ele>267.5</ele>
        <time>2012-04-06T13:18:59Z</time>
      </trkpt>
      <trkpt lat="48.23929" lon="-0.39965">
        <ele>268.5</ele>
        <time>2012-04-06T13:19:07Z</time>
      </trkpt>
      <trkpt lat="48.23931" lon="-0.39982">
        <ele>269</ele>
        <time>2012-04-06T13:19:13Z</time>
      </trkpt>
      <trkpt lat="48.23928" lon="-0.40002">
        <ele>269.5</ele>
        <time>2012-04-06T13:19:27Z</time>
      </trkpt>
      <trkpt lat="48.23923" lon="-0.40012">
        <ele>269</ele>
        <time>2012-04-06T13:19:33Z</time>
      </trkpt>
      <trkpt lat="48.23923" lon="-0.4002">
        <ele>269</ele>
        <time>2012-04-06T13:19:35Z</time>
      </trkpt>
      <trkpt lat="48.23928" lon="-0.40027">
        <ele>269</ele>
        <time>2012-04-06T13:19:39Z</time>
      </trkpt>
      <trkpt lat="48.2393" lon="-0.40035">
        <ele>268.5</ele>
        <time>2012-04-06T13:19:43Z</time>
      </trkpt>
      <trkpt lat="48.23929" lon="-0.40052">
        <ele>268</ele>
        <time>2012-04-06T13:19:49Z</time>
      </trkpt>
      <trkpt lat="48.23926" lon="-0.40063">
        <ele>267</ele>
        <time>2012-04-06T13:19:55Z</time>
      </trkpt>
      <trkpt lat="48.23923" lon="-0.40076">
        <ele>266.5</ele>
        <time>2012-04-06T13:20:01Z</time>
      </trkpt>
      <trkpt lat="48.23922" lon="-0.4008">
        <ele>266.5</ele>
        <time>2012-04-06T13:20:03Z</time>
      </trkpt>
      <trkpt lat="48.23921" lon="-0.4009">
        <ele>266.5</ele>
        <time>2012-04-06T13:20:07Z</time>
      </trkpt>
      <trkpt lat="48.23915" lon="-0.40102">
        <ele>265</ele>
        <time>2012-04-06T13:20:17Z</time>
      </trkpt>
      <trkpt lat="48.23914" lon="-0.40111">
        <ele>265.5</ele>
        <time>2012-04-06T13:20:19Z</time>
      </trkpt>
      <trkpt lat="48.23913" lon="-0.40119">
        <ele>265.5</ele>
        <time>2012-04-06T13:20:23Z</time>
      </trkpt>
      <trkpt lat="48.23909" lon="-0.40128">
        <ele>265.5</ele>
        <time>2012-04-06T13:20:29Z</time>
      </trkpt>
      <trkpt lat="48.23907" lon="-0.40133">
        <ele>265</ele>
        <time>2012-04-06T13:20:31Z</time>
      </trkpt>
      <trkpt lat="48.23899" lon="-0.40145">
        <ele>264.5</ele>
        <time>2012-04-06T13:20:37Z</time>
      </trkpt>
      <trkpt lat="48.23896" lon="-0.40156">
        <ele>264</ele>
        <time>2012-04-06T13:20:45Z</time>
      </trkpt>
      <trkpt lat="48.23892" lon="-0.40165">
        <ele>264</ele>
        <time>2012-04-06T13:20:51Z</time>
      </trkpt>
      <trkpt lat="48.23888" lon="-0.40169">
        <ele>264</ele>
        <time>2012-04-06T13:20:55Z</time>
      </trkpt>
      <trkpt lat="48.23884" lon="-0.40172">
        <ele>264</ele>
        <time>2012-04-06T13:20:57Z</time>
      </trkpt>
      <trkpt lat="48.23867" lon="-0.40169">
        <ele>263.5</ele>
        <time>2012-04-06T13:21:11Z</time>
      </trkpt>
      <trkpt lat="48.2386" lon="-0.40164">
        <ele>263.5</ele>
        <time>2012-04-06T13:21:17Z</time>
      </trkpt>
      <trkpt lat="48.2386" lon="-0.40164">
        <ele>263.5</ele>
        <time>2012-04-06T13:21:33Z</time>
      </trkpt>
      <trkpt lat="48.23855" lon="-0.40162">
        <ele>265.5</ele>
        <time>2012-04-06T13:21:41Z</time>
      </trkpt>
      <trkpt lat="48.23847" lon="-0.40163">
        <ele>265.5</ele>
        <time>2012-04-06T13:21:45Z</time>
      </trkpt>
      <trkpt lat="48.2384" lon="-0.40169">
        <ele>266</ele>
        <time>2012-04-06T13:21:49Z</time>
      </trkpt>
      <trkpt lat="48.23834" lon="-0.40172">
        <ele>266.5</ele>
        <time>2012-04-06T13:21:55Z</time>
      </trkpt>
      <trkpt lat="48.2383" lon="-0.40169">
        <ele>267</ele>
        <time>2012-04-06T13:22:01Z</time>
      </trkpt>
      <trkpt lat="48.23822" lon="-0.40167">
        <ele>269.5</ele>
        <time>2012-04-06T13:22:19Z</time>
      </trkpt>
      <trkpt lat="48.23814" lon="-0.40159">
        <ele>269.5</ele>
        <time>2012-04-06T13:22:31Z</time>
      </trkpt>
      <trkpt lat="48.23803" lon="-0.40152">
        <ele>271</ele>
        <time>2012-04-06T13:22:47Z</time>
      </trkpt>
      <trkpt lat="48.23795" lon="-0.4015">
        <ele>273.5</ele>
        <time>2012-04-06T13:23:01Z</time>
      </trkpt>
      <trkpt lat="48.23787" lon="-0.40143">
        <ele>275</ele>
        <time>2012-04-06T13:23:15Z</time>
      </trkpt>
      <trkpt lat="48.23783" lon="-0.4014">
        <ele>275.5</ele>
        <time>2012-04-06T13:23:23Z</time>
      </trkpt>
      <trkpt lat="48.23777" lon="-0.4014">
        <ele>276</ele>
        <time>2012-04-06T13:23:27Z</time>
      </trkpt>
      <trkpt lat="48.23777" lon="-0.4014">
        <ele>276</ele>
        <time>2012-04-06T13:24:05Z</time>
      </trkpt>
      <trkpt lat="48.23777" lon="-0.4014">
        <ele>276</ele>
        <time>2012-04-06T13:24:43Z</time>
      </trkpt>
      <trkpt lat="48.23757" lon="-0.40117">
        <ele>282.5</ele>
        <time>2012-04-06T13:24:49Z</time>
      </trkpt>
      <trkpt lat="48.23758" lon="-0.40108">
        <ele>282.5</ele>
        <time>2012-04-06T13:24:57Z</time>
      </trkpt>
      <trkpt lat="48.23756" lon="-0.40098">
        <ele>288.5</ele>
        <time>2012-04-06T13:25:13Z</time>
      </trkpt>
      <trkpt lat="48.23757" lon="-0.40077">
        <ele>293.5</ele>
        <time>2012-04-06T13:25:25Z</time>
      </trkpt>
      <trkpt lat="48.23759" lon="-0.40069">
        <ele>296.5</ele>
        <time>2012-04-06T13:25:31Z</time>
      </trkpt>
      <trkpt lat="48.23749" lon="-0.40066">
        <ele>301</ele>
        <time>2012-04-06T13:25:47Z</time>
      </trkpt>
      <trkpt lat="48.23733" lon="-0.40071">
        <ele>303</ele>
        <time>2012-04-06T13:25:57Z</time>
      </trkpt>
      <trkpt lat="48.23724" lon="-0.40072">
        <ele>307.5</ele>
        <time>2012-04-06T13:26:03Z</time>
      </trkpt>
      <trkpt lat="48.23715" lon="-0.40072">
        <ele>309.5</ele>
        <time>2012-04-06T13:26:13Z</time>
      </trkpt>
      <trkpt lat="48.237" lon="-0.4007">
        <ele>311</ele>
        <time>2012-04-06T13:26:25Z</time>
      </trkpt>
      <trkpt lat="48.23693" lon="-0.40068">
        <ele>313.5</ele>
        <time>2012-04-06T13:26:33Z</time>
      </trkpt>
      <trkpt lat="48.23688" lon="-0.40069">
        <ele>312.5</ele>
        <time>2012-04-06T13:26:37Z</time>
      </trkpt>
      <trkpt lat="48.23679" lon="-0.40076">
        <ele>316</ele>
        <time>2012-04-06T13:26:49Z</time>
      </trkpt>
      <trkpt lat="48.23674" lon="-0.40096">
        <ele>321.5</ele>
        <time>2012-04-06T13:27:05Z</time>
      </trkpt>
      <trkpt lat="48.23669" lon="-0.40102">
        <ele>324.5</ele>
        <time>2012-04-06T13:27:13Z</time>
      </trkpt>
      <trkpt lat="48.23665" lon="-0.40106">
        <ele>325.5</ele>
        <time>2012-04-06T13:27:17Z</time>
      </trkpt>
      <trkpt lat="48.2366" lon="-0.40111">
        <ele>325.5</ele>
        <time>2012-04-06T13:27:21Z</time>
      </trkpt>
      <trkpt lat="48.2366" lon="-0.40111">
        <ele>325.5</ele>
        <time>2012-04-06T13:27:39Z</time>
      </trkpt>
      <trkpt lat="48.23654" lon="-0.4012">
        <ele>325.5</ele>
        <time>2012-04-06T13:27:43Z</time>
      </trkpt>
      <trkpt lat="48.2365" lon="-0.40125">
        <ele>326</ele>
        <time>2012-04-06T13:27:49Z</time>
      </trkpt>
      <trkpt lat="48.23646" lon="-0.40129">
        <ele>327.5</ele>
        <time>2012-04-06T13:27:55Z</time>
      </trkpt>
      <trkpt lat="48.23643" lon="-0.40132">
        <ele>327.5</ele>
        <time>2012-04-06T13:27:57Z</time>
      </trkpt>
      <trkpt lat="48.23642" lon="-0.4014">
        <ele>328</ele>
        <time>2012-04-06T13:28:01Z</time>
      </trkpt>
      <trkpt lat="48.23636" lon="-0.40158">
        <ele>330</ele>
        <time>2012-04-06T13:28:15Z</time>
      </trkpt>
      <trkpt lat="48.23629" lon="-0.40178">
        <ele>335.5</ele>
        <time>2012-04-06T13:28:32Z</time>
      </trkpt>
      <trkpt lat="48.23625" lon="-0.40184">
        <ele>335</ele>
        <time>2012-04-06T13:28:36Z</time>
      </trkpt>
      <trkpt lat="48.23621" lon="-0.40188">
        <ele>334.5</ele>
        <time>2012-04-06T13:28:40Z</time>
      </trkpt>
      <trkpt lat="48.23616" lon="-0.40193">
        <ele>337.5</ele>
        <time>2012-04-06T13:28:46Z</time>
      </trkpt>
      <trkpt lat="48.23611" lon="-0.40195">
        <ele>337.5</ele>
        <time>2012-04-06T13:28:50Z</time>
      </trkpt>
      <trkpt lat="48.23605" lon="-0.40205">
        <ele>337</ele>
        <time>2012-04-06T13:28:58Z</time>
      </trkpt>
      <trkpt lat="48.23601" lon="-0.40213">
        <ele>337.5</ele>
        <time>2012-04-06T13:29:02Z</time>
      </trkpt>
      <trkpt lat="48.23597" lon="-0.40219">
        <ele>337.5</ele>
        <time>2012-04-06T13:29:08Z</time>
      </trkpt>
      <trkpt lat="48.23596" lon="-0.40227">
        <ele>337.5</ele>
        <time>2012-04-06T13:29:14Z</time>
      </trkpt>
      <trkpt lat="48.23597" lon="-0.40237">
        <ele>340</ele>
        <time>2012-04-06T13:29:22Z</time>
      </trkpt>
      <trkpt lat="48.23593" lon="-0.40245">
        <ele>340</ele>
        <time>2012-04-06T13:29:26Z</time>
      </trkpt>
      <trkpt lat="48.23593" lon="-0.40245">
        <ele>289.1</ele>
        <time>2012-04-06T13:30:04Z</time>
      </trkpt>
      <trkpt lat="48.23593" lon="-0.40245">
        <ele>289.1</ele>
        <time>2012-04-06T13:31:01Z</time>
      </trkpt>
      <trkpt lat="48.23596" lon="-0.40284">
        <ele>326.5</ele>
        <time>2012-04-06T13:31:05Z</time>
      </trkpt>
      <trkpt lat="48.23592" lon="-0.40275">
        <ele>330.5</ele>
        <time>2012-04-06T13:31:11Z</time>
      </trkpt>
      <trkpt lat="48.23588" lon="-0.40269">
        <ele>333.5</ele>
        <time>2012-04-06T13:31:15Z</time>
      </trkpt>
      <trkpt lat="48.23581" lon="-0.40267">
        <ele>334.5</ele>
        <time>2012-04-06T13:31:23Z</time>
      </trkpt>
      <trkpt lat="48.23576" lon="-0.40274">
        <ele>336</ele>
        <time>2012-04-06T13:31:29Z</time>
      </trkpt>
      <trkpt lat="48.23571" lon="-0.40277">
        <ele>338</ele>
        <time>2012-04-06T13:31:37Z</time>
      </trkpt>
      <trkpt lat="48.23567" lon="-0.40279">
        <ele>339</ele>
        <time>2012-04-06T13:31:41Z</time>
      </trkpt>
      <trkpt lat="48.23559" lon="-0.40283">
        <ele>339.5</ele>
        <time>2012-04-06T13:31:47Z</time>
      </trkpt>
      <trkpt lat="48.23557" lon="-0.40284">
        <ele>339.5</ele>
        <time>2012-04-06T13:31:49Z</time>
      </trkpt>
      <trkpt lat="48.23557" lon="-0.40284">
        <ele>288.8</ele>
        <time>2012-04-06T13:31:56Z</time>
      </trkpt>
      <trkpt lat="48.23557" lon="-0.40284">
        <ele>288.8</ele>
        <time>2012-04-06T13:38:34Z</time>
      </trkpt>
      <trkpt lat="48.23557" lon="-0.40283">
        <ele>332.5</ele>
        <time>2012-04-06T13:38:38Z</time>
      </trkpt>
      <trkpt lat="48.23556" lon="-0.40275">
        <ele>331.5</ele>
        <time>2012-04-06T13:38:42Z</time>
      </trkpt>
      <trkpt lat="48.23557" lon="-0.40266">
        <ele>332.5</ele>
        <time>2012-04-06T13:38:48Z</time>
      </trkpt>
      <trkpt lat="48.23559" lon="-0.40255">
        <ele>335</ele>
        <time>2012-04-06T13:38:56Z</time>
      </trkpt>
      <trkpt lat="48.23561" lon="-0.40247">
        <ele>335.5</ele>
        <time>2012-04-06T13:39:02Z</time>
      </trkpt>
      <trkpt lat="48.2356" lon="-0.40233">
        <ele>336</ele>
        <time>2012-04-06T13:39:08Z</time>
      </trkpt>
      <trkpt lat="48.23554" lon="-0.4023">
        <ele>336</ele>
        <time>2012-04-06T13:39:14Z</time>
      </trkpt>
      <trkpt lat="48.23547" lon="-0.40225">
        <ele>336</ele>
        <time>2012-04-06T13:39:20Z</time>
      </trkpt>
      <trkpt lat="48.23544" lon="-0.40217">
        <ele>336</ele>
        <time>2012-04-06T13:39:24Z</time>
      </trkpt>
      <trkpt lat="48.2354" lon="-0.40204">
        <ele>338</ele>
        <time>2012-04-06T13:39:38Z</time>
      </trkpt>
      <trkpt lat="48.23527" lon="-0.40186">
        <ele>339.5</ele>
        <time>2012-04-06T13:39:50Z</time>
      </trkpt>
      <trkpt lat="48.23517" lon="-0.40187">
        <ele>338</ele>
        <time>2012-04-06T13:39:58Z</time>
      </trkpt>
      <trkpt lat="48.23504" lon="-0.40197">
        <ele>333</ele>
        <time>2012-04-06T13:40:10Z</time>
      </trkpt>
      <trkpt lat="48.23504" lon="-0.40197">
        <ele>333</ele>
        <time>2012-04-06T13:40:53Z</time>
      </trkpt>
      <trkpt lat="48.23504" lon="-0.40197">
        <ele>333</ele>
        <time>2012-04-06T13:41:21Z</time>
      </trkpt>
      <trkpt lat="48.23504" lon="-0.40197">
        <ele>333</ele>
        <time>2012-04-06T13:41:41Z</time>
      </trkpt>
      <trkpt lat="48.23504" lon="-0.40197">
        <ele>333</ele>
        <time>2012-04-06T13:42:01Z</time>
      </trkpt>
      <trkpt lat="48.23504" lon="-0.40197">
        <ele>333</ele>
        <time>2012-04-06T13:42:23Z</time>
      </trkpt>
      <trkpt lat="48.23504" lon="-0.40197">
        <ele>333</ele>
        <time>2012-04-06T13:42:44Z</time>
      </trkpt>
      <trkpt lat="48.23517" lon="-0.40174">
        <ele>333</ele>
        <time>2012-04-06T13:43:08Z</time>
      </trkpt>
      <trkpt lat="48.23522" lon="-0.40169">
        <ele>333.5</ele>
        <time>2012-04-06T13:43:14Z</time>
      </trkpt>
      <trkpt lat="48.23523" lon="-0.40162">
        <ele>337.5</ele>
        <time>2012-04-06T13:43:20Z</time>
      </trkpt>
      <trkpt lat="48.23524" lon="-0.40158">
        <ele>338.5</ele>
        <time>2012-04-06T13:43:22Z</time>
      </trkpt>
      <trkpt lat="48.23525" lon="-0.40148">
        <ele>340</ele>
        <time>2012-04-06T13:43:30Z</time>
      </trkpt>
      <trkpt lat="48.23524" lon="-0.4014">
        <ele>341.5</ele>
        <time>2012-04-06T13:43:34Z</time>
      </trkpt>
      <trkpt lat="48.23522" lon="-0.40129">
        <ele>340.5</ele>
        <time>2012-04-06T13:43:42Z</time>
      </trkpt>
      <trkpt lat="48.23515" lon="-0.40126">
        <ele>344</ele>
        <time>2012-04-06T13:43:52Z</time>
      </trkpt>
      <trkpt lat="48.2351" lon="-0.40124">
        <ele>344</ele>
        <time>2012-04-06T13:43:56Z</time>
      </trkpt>
      <trkpt lat="48.23501" lon="-0.40119">
        <ele>344.5</ele>
        <time>2012-04-06T13:44:04Z</time>
      </trkpt>
      <trkpt lat="48.23496" lon="-0.40124">
        <ele>346.5</ele>
        <time>2012-04-06T13:44:10Z</time>
      </trkpt>
      <trkpt lat="48.23489" lon="-0.40133">
        <ele>348.5</ele>
        <time>2012-04-06T13:44:14Z</time>
      </trkpt>
      <trkpt lat="48.2348" lon="-0.40132">
        <ele>346.5</ele>
        <time>2012-04-06T13:44:24Z</time>
      </trkpt>
      <trkpt lat="48.23472" lon="-0.40116">
        <ele>343</ele>
        <time>2012-04-06T13:44:34Z</time>
      </trkpt>
      <trkpt lat="48.23468" lon="-0.40107">
        <ele>341</ele>
        <time>2012-04-06T13:44:38Z</time>
      </trkpt>
      <trkpt lat="48.23458" lon="-0.40109">
        <ele>332</ele>
        <time>2012-04-06T13:44:46Z</time>
      </trkpt>
      <trkpt lat="48.23452" lon="-0.40108">
        <ele>329.5</ele>
        <time>2012-04-06T13:44:50Z</time>
      </trkpt>
      <trkpt lat="48.23441" lon="-0.40102">
        <ele>325</ele>
        <time>2012-04-06T13:44:57Z</time>
      </trkpt>
      <trkpt lat="48.23436" lon="-0.40097">
        <ele>324</ele>
        <time>2012-04-06T13:45:01Z</time>
      </trkpt>
      <trkpt lat="48.23433" lon="-0.40093">
        <ele>325</ele>
        <time>2012-04-06T13:45:07Z</time>
      </trkpt>
      <trkpt lat="48.23425" lon="-0.40091">
        <ele>325.5</ele>
        <time>2012-04-06T13:45:15Z</time>
      </trkpt>
      <trkpt lat="48.23417" lon="-0.40089">
        <ele>323.5</ele>
        <time>2012-04-06T13:45:21Z</time>
      </trkpt>
      <trkpt lat="48.23414" lon="-0.40088">
        <ele>323.5</ele>
        <time>2012-04-06T13:45:23Z</time>
      </trkpt>
      <trkpt lat="48.23409" lon="-0.40087">
        <ele>323</ele>
        <time>2012-04-06T13:45:29Z</time>
      </trkpt>
      <trkpt lat="48.23397" lon="-0.40079">
        <ele>323</ele>
        <time>2012-04-06T13:45:42Z</time>
      </trkpt>
      <trkpt lat="48.23392" lon="-0.40071">
        <ele>322</ele>
        <time>2012-04-06T13:45:48Z</time>
      </trkpt>
      <trkpt lat="48.23386" lon="-0.40068">
        <ele>319.5</ele>
        <time>2012-04-06T13:45:52Z</time>
      </trkpt>
      <trkpt lat="48.23383" lon="-0.40067">
        <ele>318</ele>
        <time>2012-04-06T13:45:58Z</time>
      </trkpt>
      <trkpt lat="48.23383" lon="-0.40067">
        <ele>263.5</ele>
        <time>2012-04-06T13:46:24Z</time>
      </trkpt>
      <trkpt lat="48.23383" lon="-0.40067">
        <ele>263.5</ele>
        <time>2012-04-06T13:49:58Z</time>
      </trkpt>
      <trkpt lat="48.2338" lon="-0.40059">
        <ele>309.5</ele>
        <time>2012-04-06T13:50:02Z</time>
      </trkpt>
      <trkpt lat="48.2338" lon="-0.40059">
        <ele>309.5</ele>
        <time>2012-04-06T13:50:30Z</time>
      </trkpt>
      <trkpt lat="48.2337" lon="-0.40047">
        <ele>315.5</ele>
        <time>2012-04-06T13:50:34Z</time>
      </trkpt>
      <trkpt lat="48.23365" lon="-0.40046">
        <ele>316.5</ele>
        <time>2012-04-06T13:50:40Z</time>
      </trkpt>
      <trkpt lat="48.23359" lon="-0.40045">
        <ele>314</ele>
        <time>2012-04-06T13:50:46Z</time>
      </trkpt>
      <trkpt lat="48.23353" lon="-0.40048">
        <ele>314</ele>
        <time>2012-04-06T13:50:51Z</time>
      </trkpt>
      <trkpt lat="48.23345" lon="-0.40052">
        <ele>313.5</ele>
        <time>2012-04-06T13:50:57Z</time>
      </trkpt>
      <trkpt lat="48.23345" lon="-0.40052">
        <ele>313.5</ele>
        <time>2012-04-06T13:51:23Z</time>
      </trkpt>
      <trkpt lat="48.23331" lon="-0.40039">
        <ele>313.5</ele>
        <time>2012-04-06T13:51:27Z</time>
      </trkpt>
      <trkpt lat="48.23326" lon="-0.40035">
        <ele>315</ele>
        <time>2012-04-06T13:51:33Z</time>
      </trkpt>
      <trkpt lat="48.23314" lon="-0.40026">
        <ele>314.5</ele>
        <time>2012-04-06T13:51:45Z</time>
      </trkpt>
      <trkpt lat="48.23308" lon="-0.40027">
        <ele>317.5</ele>
        <time>2012-04-06T13:51:57Z</time>
      </trkpt>
      <trkpt lat="48.23303" lon="-0.40034">
        <ele>320</ele>
        <time>2012-04-06T13:52:03Z</time>
      </trkpt>
      <trkpt lat="48.23296" lon="-0.40036">
        <ele>316</ele>
        <time>2012-04-06T13:52:09Z</time>
      </trkpt>
      <trkpt lat="48.23288" lon="-0.40028">
        <ele>315</ele>
        <time>2012-04-06T13:52:15Z</time>
      </trkpt>
      <trkpt lat="48.23284" lon="-0.40022">
        <ele>314.5</ele>
        <time>2012-04-06T13:52:21Z</time>
      </trkpt>
      <trkpt lat="48.23276" lon="-0.40013">
        <ele>313.5</ele>
        <time>2012-04-06T13:52:27Z</time>
      </trkpt>
      <trkpt lat="48.23275" lon="-0.40004">
        <ele>314</ele>
        <time>2012-04-06T13:52:31Z</time>
      </trkpt>
      <trkpt lat="48.23275" lon="-0.39996">
        <ele>314.5</ele>
        <time>2012-04-06T13:52:35Z</time>
      </trkpt>
      <trkpt lat="48.23275" lon="-0.39983">
        <ele>314</ele>
        <time>2012-04-06T13:52:41Z</time>
      </trkpt>
      <trkpt lat="48.23273" lon="-0.39976">
        <ele>314</ele>
        <time>2012-04-06T13:52:45Z</time>
      </trkpt>
      <trkpt lat="48.23273" lon="-0.39976">
        <ele>314</ele>
        <time>2012-04-06T13:52:57Z</time>
      </trkpt>
      <trkpt lat="48.23268" lon="-0.39974">
        <ele>315</ele>
        <time>2012-04-06T13:53:09Z</time>
      </trkpt>
      <trkpt lat="48.23267" lon="-0.39966">
        <ele>315.5</ele>
        <time>2012-04-06T13:53:15Z</time>
      </trkpt>
      <trkpt lat="48.23266" lon="-0.39958">
        <ele>316.5</ele>
        <time>2012-04-06T13:53:21Z</time>
      </trkpt>
      <trkpt lat="48.23265" lon="-0.3995">
        <ele>317.5</ele>
        <time>2012-04-06T13:53:25Z</time>
      </trkpt>
      <trkpt lat="48.23262" lon="-0.39944">
        <ele>317.5</ele>
        <time>2012-04-06T13:53:31Z</time>
      </trkpt>
      <trkpt lat="48.23262" lon="-0.39944">
        <ele>317.5</ele>
        <time>2012-04-06T13:54:01Z</time>
      </trkpt>
      <trkpt lat="48.23262" lon="-0.39944">
        <ele>317.5</ele>
        <time>2012-04-06T13:54:19Z</time>
      </trkpt>
      <trkpt lat="48.23265" lon="-0.39936">
        <ele>315.5</ele>
        <time>2012-04-06T13:54:21Z</time>
      </trkpt>
      <trkpt lat="48.23271" lon="-0.39938">
        <ele>315.5</ele>
        <time>2012-04-06T13:54:29Z</time>
      </trkpt>
      <trkpt lat="48.23275" lon="-0.39943">
        <ele>313</ele>
        <time>2012-04-06T13:54:35Z</time>
      </trkpt>
      <trkpt lat="48.23271" lon="-0.39946">
        <ele>311</ele>
        <time>2012-04-06T13:54:47Z</time>
      </trkpt>
      <trkpt lat="48.23266" lon="-0.39934">
        <ele>310</ele>
        <time>2012-04-06T13:54:57Z</time>
      </trkpt>
      <trkpt lat="48.23264" lon="-0.39926">
        <ele>311</ele>
        <time>2012-04-06T13:55:07Z</time>
      </trkpt>
      <trkpt lat="48.23259" lon="-0.39919">
        <ele>309.5</ele>
        <time>2012-04-06T13:55:13Z</time>
      </trkpt>
      <trkpt lat="48.23255" lon="-0.3991">
        <ele>310</ele>
        <time>2012-04-06T13:55:19Z</time>
      </trkpt>
      <trkpt lat="48.23257" lon="-0.39903">
        <ele>310</ele>
        <time>2012-04-06T13:55:23Z</time>
      </trkpt>
      <trkpt lat="48.23257" lon="-0.39892">
        <ele>309.5</ele>
        <time>2012-04-06T13:55:29Z</time>
      </trkpt>
      <trkpt lat="48.23256" lon="-0.39884">
        <ele>310.5</ele>
        <time>2012-04-06T13:55:35Z</time>
      </trkpt>
      <trkpt lat="48.23255" lon="-0.39876">
        <ele>310.5</ele>
        <time>2012-04-06T13:55:39Z</time>
      </trkpt>
      <trkpt lat="48.23254" lon="-0.39861">
        <ele>305.5</ele>
        <time>2012-04-06T13:55:45Z</time>
      </trkpt>
      <trkpt lat="48.23252" lon="-0.39855">
        <ele>305</ele>
        <time>2012-04-06T13:55:49Z</time>
      </trkpt>
      <trkpt lat="48.23252" lon="-0.39855">
        <ele>305</ele>
        <time>2012-04-06T13:56:25Z</time>
      </trkpt>
      <trkpt lat="48.23249" lon="-0.39847">
        <ele>307</ele>
        <time>2012-04-06T13:56:29Z</time>
      </trkpt>
      <trkpt lat="48.2325" lon="-0.39839">
        <ele>306</ele>
        <time>2012-04-06T13:56:33Z</time>
      </trkpt>
      <trkpt lat="48.23247" lon="-0.39822">
        <ele>307.5</ele>
        <time>2012-04-06T13:56:45Z</time>
      </trkpt>
      <trkpt lat="48.23243" lon="-0.39811">
        <ele>308.5</ele>
        <time>2012-04-06T13:56:51Z</time>
      </trkpt>
      <trkpt lat="48.23241" lon="-0.39801">
        <ele>308</ele>
        <time>2012-04-06T13:56:55Z</time>
      </trkpt>
      <trkpt lat="48.23241" lon="-0.39798">
        <ele>308</ele>
        <time>2012-04-06T13:56:57Z</time>
      </trkpt>
      <trkpt lat="48.23242" lon="-0.39786">
        <ele>307</ele>
        <time>2012-04-06T13:57:03Z</time>
      </trkpt>
      <trkpt lat="48.23242" lon="-0.39776">
        <ele>306</ele>
        <time>2012-04-06T13:57:07Z</time>
      </trkpt>
      <trkpt lat="48.23244" lon="-0.39761">
        <ele>303</ele>
        <time>2012-04-06T13:57:17Z</time>
      </trkpt>
      <trkpt lat="48.23246" lon="-0.39753">
        <ele>302.5</ele>
        <time>2012-04-06T13:57:22Z</time>
      </trkpt>
      <trkpt lat="48.23246" lon="-0.39738">
        <ele>303</ele>
        <time>2012-04-06T13:57:30Z</time>
      </trkpt>
      <trkpt lat="48.23248" lon="-0.39731">
        <ele>302.5</ele>
        <time>2012-04-06T13:57:34Z</time>
      </trkpt>
      <trkpt lat="48.23251" lon="-0.39725">
        <ele>302</ele>
        <time>2012-04-06T13:57:38Z</time>
      </trkpt>
      <trkpt lat="48.23257" lon="-0.39714">
        <ele>300.5</ele>
        <time>2012-04-06T13:57:44Z</time>
      </trkpt>
      <trkpt lat="48.23262" lon="-0.39708">
        <ele>300</ele>
        <time>2012-04-06T13:57:50Z</time>
      </trkpt>
      <trkpt lat="48.23269" lon="-0.39703">
        <ele>301</ele>
        <time>2012-04-06T13:57:55Z</time>
      </trkpt>
      <trkpt lat="48.23272" lon="-0.39701">
        <ele>300.5</ele>
        <time>2012-04-06T13:57:57Z</time>
      </trkpt>
      <trkpt lat="48.23279" lon="-0.3969">
        <ele>300</ele>
        <time>2012-04-06T13:58:03Z</time>
      </trkpt>
      <trkpt lat="48.23283" lon="-0.39685">
        <ele>300</ele>
        <time>2012-04-06T13:58:07Z</time>
      </trkpt>
      <trkpt lat="48.23289" lon="-0.39682">
        <ele>300</ele>
        <time>2012-04-06T13:58:17Z</time>
      </trkpt>
      <trkpt lat="48.23296" lon="-0.3968">
        <ele>300.5</ele>
        <time>2012-04-06T13:58:21Z</time>
      </trkpt>
      <trkpt lat="48.23304" lon="-0.39673">
        <ele>301.5</ele>
        <time>2012-04-06T13:58:27Z</time>
      </trkpt>
      <trkpt lat="48.23307" lon="-0.3967">
        <ele>301.5</ele>
        <time>2012-04-06T13:58:29Z</time>
      </trkpt>
      <trkpt lat="48.23313" lon="-0.39668">
        <ele>301</ele>
        <time>2012-04-06T13:58:33Z</time>
      </trkpt>
      <trkpt lat="48.23326" lon="-0.39661">
        <ele>302</ele>
        <time>2012-04-06T13:58:45Z</time>
      </trkpt>
      <trkpt lat="48.23337" lon="-0.39654">
        <ele>303</ele>
        <time>2012-04-06T13:58:55Z</time>
      </trkpt>
      <trkpt lat="48.23348" lon="-0.39649">
        <ele>305.5</ele>
        <time>2012-04-06T13:59:05Z</time>
      </trkpt>
      <trkpt lat="48.23353" lon="-0.39649">
        <ele>305.5</ele>
        <time>2012-04-06T13:59:11Z</time>
      </trkpt>
      <trkpt lat="48.23362" lon="-0.39648">
        <ele>305</ele>
        <time>2012-04-06T13:59:17Z</time>
      </trkpt>
      <trkpt lat="48.23372" lon="-0.39646">
        <ele>305</ele>
        <time>2012-04-06T13:59:25Z</time>
      </trkpt>
      <trkpt lat="48.23382" lon="-0.39645">
        <ele>305.5</ele>
        <time>2012-04-06T13:59:31Z</time>
      </trkpt>
      <trkpt lat="48.23387" lon="-0.3964">
        <ele>306.5</ele>
        <time>2012-04-06T13:59:35Z</time>
      </trkpt>
      <trkpt lat="48.23395" lon="-0.39643">
        <ele>307.5</ele>
        <time>2012-04-06T13:59:43Z</time>
      </trkpt>
      <trkpt lat="48.23412" lon="-0.39639">
        <ele>307</ele>
        <time>2012-04-06T13:59:58Z</time>
      </trkpt>
      <trkpt lat="48.23425" lon="-0.39638">
        <ele>309</ele>
        <time>2012-04-06T14:00:12Z</time>
      </trkpt>
      <trkpt lat="48.23434" lon="-0.39629">
        <ele>308</ele>
        <time>2012-04-06T14:00:18Z</time>
      </trkpt>
      <trkpt lat="48.23437" lon="-0.39626">
        <ele>307.5</ele>
        <time>2012-04-06T14:00:20Z</time>
      </trkpt>
      <trkpt lat="48.23447" lon="-0.39619">
        <ele>306.5</ele>
        <time>2012-04-06T14:00:26Z</time>
      </trkpt>
      <trkpt lat="48.23459" lon="-0.39618">
        <ele>302</ele>
        <time>2012-04-06T14:00:36Z</time>
      </trkpt>
      <trkpt lat="48.23464" lon="-0.39611">
        <ele>302.5</ele>
        <time>2012-04-06T14:00:42Z</time>
      </trkpt>
      <trkpt lat="48.23477" lon="-0.39617">
        <ele>299.5</ele>
        <time>2012-04-06T14:00:50Z</time>
      </trkpt>
      <trkpt lat="48.23484" lon="-0.39622">
        <ele>302.5</ele>
        <time>2012-04-06T14:00:58Z</time>
      </trkpt>
      <trkpt lat="48.23495" lon="-0.39623">
        <ele>301.5</ele>
        <time>2012-04-06T14:01:12Z</time>
      </trkpt>
      <trkpt lat="48.23511" lon="-0.39621">
        <ele>296</ele>
        <time>2012-04-06T14:01:32Z</time>
      </trkpt>
      <trkpt lat="48.23511" lon="-0.39621">
        <ele>296</ele>
        <time>2012-04-06T14:02:24Z</time>
      </trkpt>
      <trkpt lat="48.23525" lon="-0.3961">
        <ele>298</ele>
        <time>2012-04-06T14:02:26Z</time>
      </trkpt>
      <trkpt lat="48.2353" lon="-0.39605">
        <ele>298</ele>
        <time>2012-04-06T14:02:34Z</time>
      </trkpt>
      <trkpt lat="48.23539" lon="-0.39591">
        <ele>290.5</ele>
        <time>2012-04-06T14:02:44Z</time>
      </trkpt>
      <trkpt lat="48.2355" lon="-0.39579">
        <ele>289</ele>
        <time>2012-04-06T14:02:54Z</time>
      </trkpt>
      <trkpt lat="48.23558" lon="-0.39577">
        <ele>292</ele>
        <time>2012-04-06T14:02:58Z</time>
      </trkpt>
      <trkpt lat="48.23567" lon="-0.39577">
        <ele>291.5</ele>
        <time>2012-04-06T14:03:04Z</time>
      </trkpt>
      <trkpt lat="48.2357" lon="-0.39576">
        <ele>290.5</ele>
        <time>2012-04-06T14:03:08Z</time>
      </trkpt>
      <trkpt lat="48.23579" lon="-0.39578">
        <ele>289</ele>
        <time>2012-04-06T14:03:14Z</time>
      </trkpt>
      <trkpt lat="48.23585" lon="-0.39575">
        <ele>289</ele>
        <time>2012-04-06T14:03:22Z</time>
      </trkpt>
      <trkpt lat="48.23591" lon="-0.39569">
        <ele>291</ele>
        <time>2012-04-06T14:03:30Z</time>
      </trkpt>
      <trkpt lat="48.23594" lon="-0.39566">
        <ele>292.5</ele>
        <time>2012-04-06T14:03:44Z</time>
      </trkpt>
      <trkpt lat="48.236" lon="-0.39561">
        <ele>289.5</ele>
        <time>2012-04-06T14:03:50Z</time>
      </trkpt>
      <trkpt lat="48.23604" lon="-0.39558">
        <ele>288.5</ele>
        <time>2012-04-06T14:03:52Z</time>
      </trkpt>
      <trkpt lat="48.23609" lon="-0.39556">
        <ele>288.5</ele>
        <time>2012-04-06T14:03:56Z</time>
      </trkpt>
      <trkpt lat="48.23613" lon="-0.39551">
        <ele>288.5</ele>
        <time>2012-04-06T14:04:00Z</time>
      </trkpt>
      <trkpt lat="48.23613" lon="-0.39551">
        <ele>288.5</ele>
        <time>2012-04-06T14:04:30Z</time>
      </trkpt>
      <trkpt lat="48.23613" lon="-0.39551">
        <ele>288.5</ele>
        <time>2012-04-06T14:04:47Z</time>
      </trkpt>
      <trkpt lat="48.23629" lon="-0.3955">
        <ele>288</ele>
        <time>2012-04-06T14:04:49Z</time>
      </trkpt>
      <trkpt lat="48.23635" lon="-0.39549">
        <ele>288</ele>
        <time>2012-04-06T14:04:55Z</time>
      </trkpt>
      <trkpt lat="48.23641" lon="-0.39547">
        <ele>287.5</ele>
        <time>2012-04-06T14:04:59Z</time>
      </trkpt>
      <trkpt lat="48.23645" lon="-0.39543">
        <ele>288</ele>
        <time>2012-04-06T14:05:03Z</time>
      </trkpt>
      <trkpt lat="48.2365" lon="-0.39539">
        <ele>287.5</ele>
        <time>2012-04-06T14:05:07Z</time>
      </trkpt>
      <trkpt lat="48.23654" lon="-0.39537">
        <ele>287.5</ele>
        <time>2012-04-06T14:05:11Z</time>
      </trkpt>
      <trkpt lat="48.23658" lon="-0.39534">
        <ele>287.5</ele>
        <time>2012-04-06T14:05:13Z</time>
      </trkpt>
      <trkpt lat="48.23664" lon="-0.39532">
        <ele>287.5</ele>
        <time>2012-04-06T14:05:17Z</time>
      </trkpt>
      <trkpt lat="48.23672" lon="-0.3953">
        <ele>287</ele>
        <time>2012-04-06T14:05:25Z</time>
      </trkpt>
      <trkpt lat="48.23675" lon="-0.39529">
        <ele>288</ele>
        <time>2012-04-06T14:05:29Z</time>
      </trkpt>
      <trkpt lat="48.23687" lon="-0.39526">
        <ele>289</ele>
        <time>2012-04-06T14:05:41Z</time>
      </trkpt>
      <trkpt lat="48.23692" lon="-0.39527">
        <ele>289</ele>
        <time>2012-04-06T14:05:45Z</time>
      </trkpt>
      <trkpt lat="48.237" lon="-0.39529">
        <ele>288</ele>
        <time>2012-04-06T14:05:49Z</time>
      </trkpt>
      <trkpt lat="48.23712" lon="-0.39535">
        <ele>290.5</ele>
        <time>2012-04-06T14:05:57Z</time>
      </trkpt>
      <trkpt lat="48.23725" lon="-0.39536">
        <ele>289</ele>
        <time>2012-04-06T14:06:05Z</time>
      </trkpt>
      <trkpt lat="48.23735" lon="-0.39539">
        <ele>291.5</ele>
        <time>2012-04-06T14:06:11Z</time>
      </trkpt>
      <trkpt lat="48.2374" lon="-0.39534">
        <ele>296</ele>
        <time>2012-04-06T14:06:15Z</time>
      </trkpt>
      <trkpt lat="48.23747" lon="-0.39535">
        <ele>298</ele>
        <time>2012-04-06T14:06:23Z</time>
      </trkpt>
      <trkpt lat="48.23752" lon="-0.39535">
        <ele>297.5</ele>
        <time>2012-04-06T14:06:27Z</time>
      </trkpt>
      <trkpt lat="48.23758" lon="-0.39537">
        <ele>297.5</ele>
        <time>2012-04-06T14:06:33Z</time>
      </trkpt>
      <trkpt lat="48.23764" lon="-0.39539">
        <ele>292.5</ele>
        <time>2012-04-06T14:06:37Z</time>
      </trkpt>
      <trkpt lat="48.2377" lon="-0.39539">
        <ele>293</ele>
        <time>2012-04-06T14:06:41Z</time>
      </trkpt>
      <trkpt lat="48.23779" lon="-0.39542">
        <ele>293</ele>
        <time>2012-04-06T14:06:47Z</time>
      </trkpt>
      <trkpt lat="48.23781" lon="-0.39543">
        <ele>293.5</ele>
        <time>2012-04-06T14:06:49Z</time>
      </trkpt>
      <trkpt lat="48.23786" lon="-0.39544">
        <ele>297</ele>
        <time>2012-04-06T14:06:53Z</time>
      </trkpt>
      <trkpt lat="48.23803" lon="-0.39547">
        <ele>298</ele>
        <time>2012-04-06T14:07:03Z</time>
      </trkpt>
      <trkpt lat="48.23807" lon="-0.39551">
        <ele>296.5</ele>
        <time>2012-04-06T14:07:05Z</time>
      </trkpt>
      <trkpt lat="48.23811" lon="-0.39554">
        <ele>298</ele>
        <time>2012-04-06T14:07:07Z</time>
      </trkpt>
      <trkpt lat="48.2382" lon="-0.39554">
        <ele>301</ele>
        <time>2012-04-06T14:07:13Z</time>
      </trkpt>
      <trkpt lat="48.23828" lon="-0.39554">
        <ele>299</ele>
        <time>2012-04-06T14:07:17Z</time>
      </trkpt>
      <trkpt lat="48.23834" lon="-0.39558">
        <ele>302.5</ele>
        <time>2012-04-06T14:07:27Z</time>
      </trkpt>
      <trkpt lat="48.23839" lon="-0.3957">
        <ele>301.5</ele>
        <time>2012-04-06T14:07:33Z</time>
      </trkpt>
      <trkpt lat="48.23847" lon="-0.39585">
        <ele>312.5</ele>
        <time>2012-04-06T14:07:43Z</time>
      </trkpt>
      <trkpt lat="48.23853" lon="-0.39593">
        <ele>312.5</ele>
        <time>2012-04-06T14:07:49Z</time>
      </trkpt>
      <trkpt lat="48.23854" lon="-0.39602">
        <ele>312</ele>
        <time>2012-04-06T14:08:05Z</time>
      </trkpt>
      <trkpt lat="48.23857" lon="-0.39627">
        <ele>309.5</ele>
        <time>2012-04-06T14:08:13Z</time>
      </trkpt>
      <trkpt lat="48.23864" lon="-0.39632">
        <ele>302.5</ele>
        <time>2012-04-06T14:08:37Z</time>
      </trkpt>
      <trkpt lat="48.2387" lon="-0.39636">
        <ele>301</ele>
        <time>2012-04-06T14:08:47Z</time>
      </trkpt>
      <trkpt lat="48.23883" lon="-0.39637">
        <ele>299</ele>
        <time>2012-04-06T14:09:07Z</time>
      </trkpt>
      <trkpt lat="48.23898" lon="-0.3964">
        <ele>301</ele>
        <time>2012-04-06T14:09:17Z</time>
      </trkpt>
      <trkpt lat="48.239" lon="-0.39646">
        <ele>301.5</ele>
        <time>2012-04-06T14:09:21Z</time>
      </trkpt>
      <trkpt lat="48.23904" lon="-0.39659">
        <ele>302</ele>
        <time>2012-04-06T14:09:29Z</time>
      </trkpt>
      <trkpt lat="48.23906" lon="-0.39664">
        <ele>301.5</ele>
        <time>2012-04-06T14:09:33Z</time>
      </trkpt>
      <trkpt lat="48.23918" lon="-0.39682">
        <ele>300.5</ele>
        <time>2012-04-06T14:09:47Z</time>
      </trkpt>
      <trkpt lat="48.23936" lon="-0.39694">
        <ele>289.5</ele>
        <time>2012-04-06T14:09:57Z</time>
      </trkpt>
      <trkpt lat="48.23942" lon="-0.39695">
        <ele>285.5</ele>
        <time>2012-04-06T14:10:01Z</time>
      </trkpt>
      <trkpt lat="48.23953" lon="-0.39703">
        <ele>282.5</ele>
        <time>2012-04-06T14:10:07Z</time>
      </trkpt>
      <trkpt lat="48.23955" lon="-0.39712">
        <ele>279.5</ele>
        <time>2012-04-06T14:10:11Z</time>
      </trkpt>
      <trkpt lat="48.2396" lon="-0.39721">
        <ele>275.5</ele>
        <time>2012-04-06T14:10:17Z</time>
      </trkpt>
      <trkpt lat="48.23964" lon="-0.39727">
        <ele>272.5</ele>
        <time>2012-04-06T14:10:21Z</time>
      </trkpt>
      <trkpt lat="48.23965" lon="-0.39743">
        <ele>266</ele>
        <time>2012-04-06T14:10:27Z</time>
      </trkpt>
      <trkpt lat="48.23969" lon="-0.39747">
        <ele>265.5</ele>
        <time>2012-04-06T14:10:31Z</time>
      </trkpt>
      <trkpt lat="48.23975" lon="-0.3975">
        <ele>264</ele>
        <time>2012-04-06T14:10:35Z</time>
      </trkpt>
      <trkpt lat="48.23984" lon="-0.39755">
        <ele>262</ele>
        <time>2012-04-06T14:10:41Z</time>
      </trkpt>
      <trkpt lat="48.23989" lon="-0.3976">
        <ele>261</ele>
        <time>2012-04-06T14:10:45Z</time>
      </trkpt>
      <trkpt lat="48.23997" lon="-0.39764">
        <ele>260.5</ele>
        <time>2012-04-06T14:10:51Z</time>
      </trkpt>
      <trkpt lat="48.24002" lon="-0.39767">
        <ele>260.5</ele>
        <time>2012-04-06T14:10:55Z</time>
      </trkpt>
      <trkpt lat="48.24004" lon="-0.39768">
        <ele>260</ele>
        <time>2012-04-06T14:10:57Z</time>
      </trkpt>
      <trkpt lat="48.2401" lon="-0.39766">
        <ele>258</ele>
        <time>2012-04-06T14:11:03Z</time>
      </trkpt>
      <trkpt lat="48.24014" lon="-0.39771">
        <ele>256.5</ele>
        <time>2012-04-06T14:11:07Z</time>
      </trkpt>
      <trkpt lat="48.24022" lon="-0.39775">
        <ele>255.5</ele>
        <time>2012-04-06T14:11:15Z</time>
      </trkpt>
      <trkpt lat="48.24027" lon="-0.3977">
        <ele>256</ele>
        <time>2012-04-06T14:11:21Z</time>
      </trkpt>
      <trkpt lat="48.2403" lon="-0.39762">
        <ele>256</ele>
        <time>2012-04-06T14:11:27Z</time>
      </trkpt>
      <trkpt lat="48.24027" lon="-0.39752">
        <ele>256</ele>
        <time>2012-04-06T14:11:33Z</time>
      </trkpt>
      <trkpt lat="48.24027" lon="-0.39739">
        <ele>257.5</ele>
        <time>2012-04-06T14:11:39Z</time>
      </trkpt>
      <trkpt lat="48.24029" lon="-0.39732">
        <ele>257.5</ele>
        <time>2012-04-06T14:11:45Z</time>
      </trkpt>
      <trkpt lat="48.24032" lon="-0.39724">
        <ele>257.5</ele>
        <time>2012-04-06T14:11:59Z</time>
      </trkpt>
      <trkpt lat="48.24039" lon="-0.39709">
        <ele>258.5</ele>
        <time>2012-04-06T14:12:17Z</time>
      </trkpt>
      <trkpt lat="48.24039" lon="-0.397">
        <ele>258.5</ele>
        <time>2012-04-06T14:12:23Z</time>
      </trkpt>
      <trkpt lat="48.24039" lon="-0.397">
        <ele>258.5</ele>
        <time>2012-04-06T14:12:49Z</time>
      </trkpt>
      <trkpt lat="48.24039" lon="-0.397">
        <ele>258.5</ele>
        <time>2012-04-06T14:13:07Z</time>
      </trkpt>
      <trkpt lat="48.24039" lon="-0.39675">
        <ele>258</ele>
        <time>2012-04-06T14:13:13Z</time>
      </trkpt>
      <trkpt lat="48.24041" lon="-0.39667">
        <ele>257</ele>
        <time>2012-04-06T14:13:17Z</time>
      </trkpt>
      <trkpt lat="48.24044" lon="-0.39653">
        <ele>254.5</ele>
        <time>2012-04-06T14:13:25Z</time>
      </trkpt>
      <trkpt lat="48.24047" lon="-0.3964">
        <ele>254.5</ele>
        <time>2012-04-06T14:13:31Z</time>
      </trkpt>
      <trkpt lat="48.24048" lon="-0.39636">
        <ele>254</ele>
        <time>2012-04-06T14:13:33Z</time>
      </trkpt>
      <trkpt lat="48.24051" lon="-0.39626">
        <ele>250.5</ele>
        <time>2012-04-06T14:13:37Z</time>
      </trkpt>
      <trkpt lat="48.24055" lon="-0.39622">
        <ele>248.5</ele>
        <time>2012-04-06T14:13:39Z</time>
      </trkpt>
      <trkpt lat="48.24066" lon="-0.396">
        <ele>242.5</ele>
        <time>2012-04-06T14:13:49Z</time>
      </trkpt>
      <trkpt lat="48.24068" lon="-0.39585">
        <ele>240.5</ele>
        <time>2012-04-06T14:13:59Z</time>
      </trkpt>
      <trkpt lat="48.2407" lon="-0.39558">
        <ele>237.5</ele>
        <time>2012-04-06T14:14:11Z</time>
      </trkpt>
      <trkpt lat="48.24071" lon="-0.39554">
        <ele>237</ele>
        <time>2012-04-06T14:14:13Z</time>
      </trkpt>
      <trkpt lat="48.24078" lon="-0.39535">
        <ele>236</ele>
        <time>2012-04-06T14:14:25Z</time>
      </trkpt>
      <trkpt lat="48.24085" lon="-0.39519">
        <ele>234</ele>
        <time>2012-04-06T14:14:35Z</time>
      </trkpt>
      <trkpt lat="48.24089" lon="-0.39513">
        <ele>233</ele>
        <time>2012-04-06T14:14:39Z</time>
      </trkpt>
      <trkpt lat="48.24096" lon="-0.39497">
        <ele>231</ele>
        <time>2012-04-06T14:14:49Z</time>
      </trkpt>
      <trkpt lat="48.24099" lon="-0.39489">
        <ele>229.5</ele>
        <time>2012-04-06T14:14:53Z</time>
      </trkpt>
      <trkpt lat="48.24105" lon="-0.3948">
        <ele>229</ele>
        <time>2012-04-06T14:14:59Z</time>
      </trkpt>
      <trkpt lat="48.24106" lon="-0.39471">
        <ele>228</ele>
        <time>2012-04-06T14:15:03Z</time>
      </trkpt>
      <trkpt lat="48.24106" lon="-0.39459">
        <ele>228</ele>
        <time>2012-04-06T14:15:07Z</time>
      </trkpt>
      <trkpt lat="48.2411" lon="-0.39442">
        <ele>231</ele>
        <time>2012-04-06T14:15:17Z</time>
      </trkpt>
      <trkpt lat="48.24113" lon="-0.39431">
        <ele>232</ele>
        <time>2012-04-06T14:15:23Z</time>
      </trkpt>
      <trkpt lat="48.24114" lon="-0.39424">
        <ele>232</ele>
        <time>2012-04-06T14:15:27Z</time>
      </trkpt>
      <trkpt lat="48.24118" lon="-0.39419">
        <ele>229.5</ele>
        <time>2012-04-06T14:15:31Z</time>
      </trkpt>
      <trkpt lat="48.24119" lon="-0.3941">
        <ele>229</ele>
        <time>2012-04-06T14:15:35Z</time>
      </trkpt>
      <trkpt lat="48.24117" lon="-0.39401">
        <ele>229.5</ele>
        <time>2012-04-06T14:15:39Z</time>
      </trkpt>
      <trkpt lat="48.24122" lon="-0.39394">
        <ele>229</ele>
        <time>2012-04-06T14:15:45Z</time>
      </trkpt>
      <trkpt lat="48.24124" lon="-0.39391">
        <ele>228</ele>
        <time>2012-04-06T14:15:47Z</time>
      </trkpt>
      <trkpt lat="48.24132" lon="-0.39366">
        <ele>229</ele>
        <time>2012-04-06T14:15:59Z</time>
      </trkpt>
      <trkpt lat="48.24133" lon="-0.39357">
        <ele>230</ele>
        <time>2012-04-06T14:16:03Z</time>
      </trkpt>
      <trkpt lat="48.24126" lon="-0.39338">
        <ele>233.5</ele>
        <time>2012-04-06T14:16:11Z</time>
      </trkpt>
      <trkpt lat="48.2412" lon="-0.39321">
        <ele>236.5</ele>
        <time>2012-04-06T14:16:23Z</time>
      </trkpt>
      <trkpt lat="48.24116" lon="-0.3931">
        <ele>236</ele>
        <time>2012-04-06T14:16:31Z</time>
      </trkpt>
      <trkpt lat="48.24117" lon="-0.39296">
        <ele>236</ele>
        <time>2012-04-06T14:16:37Z</time>
      </trkpt>
      <trkpt lat="48.24122" lon="-0.3928">
        <ele>240</ele>
        <time>2012-04-06T14:16:43Z</time>
      </trkpt>
      <trkpt lat="48.24126" lon="-0.39272">
        <ele>242.5</ele>
        <time>2012-04-06T14:16:47Z</time>
      </trkpt>
      <trkpt lat="48.2413" lon="-0.39264">
        <ele>241.5</ele>
        <time>2012-04-06T14:16:51Z</time>
      </trkpt>
      <trkpt lat="48.24134" lon="-0.39257">
        <ele>242</ele>
        <time>2012-04-06T14:16:55Z</time>
      </trkpt>
      <trkpt lat="48.24136" lon="-0.39252">
        <ele>242</ele>
        <time>2012-04-06T14:16:57Z</time>
      </trkpt>
      <trkpt lat="48.2414" lon="-0.39246">
        <ele>242</ele>
        <time>2012-04-06T14:17:01Z</time>
      </trkpt>
      <trkpt lat="48.24151" lon="-0.39233">
        <ele>238.5</ele>
        <time>2012-04-06T14:17:11Z</time>
      </trkpt>
      <trkpt lat="48.24157" lon="-0.39224">
        <ele>235</ele>
        <time>2012-04-06T14:17:19Z</time>
      </trkpt>
      <trkpt lat="48.24159" lon="-0.39221">
        <ele>234.5</ele>
        <time>2012-04-06T14:17:21Z</time>
      </trkpt>
      <trkpt lat="48.24163" lon="-0.39216">
        <ele>232</ele>
        <time>2012-04-06T14:17:25Z</time>
      </trkpt>
      <trkpt lat="48.24169" lon="-0.39207">
        <ele>234.5</ele>
        <time>2012-04-06T14:17:31Z</time>
      </trkpt>
      <trkpt lat="48.24172" lon="-0.39199">
        <ele>235</ele>
        <time>2012-04-06T14:17:37Z</time>
      </trkpt>
      <trkpt lat="48.24174" lon="-0.39195">
        <ele>235</ele>
        <time>2012-04-06T14:17:39Z</time>
      </trkpt>
      <trkpt lat="48.24177" lon="-0.39183">
        <ele>234.5</ele>
        <time>2012-04-06T14:17:43Z</time>
      </trkpt>
      <trkpt lat="48.24179" lon="-0.39176">
        <ele>234.5</ele>
        <time>2012-04-06T14:17:47Z</time>
      </trkpt>
      <trkpt lat="48.24182" lon="-0.3917">
        <ele>232.5</ele>
        <time>2012-04-06T14:17:51Z</time>
      </trkpt>
      <trkpt lat="48.24189" lon="-0.39158">
        <ele>231.5</ele>
        <time>2012-04-06T14:17:57Z</time>
      </trkpt>
      <trkpt lat="48.24191" lon="-0.39155">
        <ele>231.5</ele>
        <time>2012-04-06T14:17:59Z</time>
      </trkpt>
      <trkpt lat="48.24195" lon="-0.39152">
        <ele>231.5</ele>
        <time>2012-04-06T14:18:03Z</time>
      </trkpt>
      <trkpt lat="48.24208" lon="-0.39143">
        <ele>231</ele>
        <time>2012-04-06T14:18:15Z</time>
      </trkpt>
      <trkpt lat="48.24215" lon="-0.39137">
        <ele>232</ele>
        <time>2012-04-06T14:18:21Z</time>
      </trkpt>
      <trkpt lat="48.24222" lon="-0.39132">
        <ele>236</ele>
        <time>2012-04-06T14:18:27Z</time>
      </trkpt>
      <trkpt lat="48.24226" lon="-0.39129">
        <ele>236</ele>
        <time>2012-04-06T14:18:31Z</time>
      </trkpt>
      <trkpt lat="48.24235" lon="-0.39122">
        <ele>236</ele>
        <time>2012-04-06T14:18:39Z</time>
      </trkpt>
      <trkpt lat="48.2424" lon="-0.39115">
        <ele>234</ele>
        <time>2012-04-06T14:18:43Z</time>
      </trkpt>
      <trkpt lat="48.24255" lon="-0.39108">
        <ele>233.5</ele>
        <time>2012-04-06T14:18:53Z</time>
      </trkpt>
      <trkpt lat="48.24263" lon="-0.39105">
        <ele>233.5</ele>
        <time>2012-04-06T14:19:01Z</time>
      </trkpt>
      <trkpt lat="48.2427" lon="-0.39102">
        <ele>234.5</ele>
        <time>2012-04-06T14:19:05Z</time>
      </trkpt>
      <trkpt lat="48.2428" lon="-0.39094">
        <ele>235.5</ele>
        <time>2012-04-06T14:19:12Z</time>
      </trkpt>
      <trkpt lat="48.24286" lon="-0.39086">
        <ele>235.5</ele>
        <time>2012-04-06T14:19:18Z</time>
      </trkpt>
      <trkpt lat="48.24293" lon="-0.39076">
        <ele>237.5</ele>
        <time>2012-04-06T14:19:26Z</time>
      </trkpt>
      <trkpt lat="48.24298" lon="-0.39072">
        <ele>238</ele>
        <time>2012-04-06T14:19:30Z</time>
      </trkpt>
      <trkpt lat="48.24308" lon="-0.39061">
        <ele>238.5</ele>
        <time>2012-04-06T14:19:40Z</time>
      </trkpt>
      <trkpt lat="48.2431" lon="-0.39059">
        <ele>238.5</ele>
        <time>2012-04-06T14:19:42Z</time>
      </trkpt>
      <trkpt lat="48.24316" lon="-0.39057">
        <ele>238.5</ele>
        <time>2012-04-06T14:19:46Z</time>
      </trkpt>
      <trkpt lat="48.24321" lon="-0.39054">
        <ele>238.5</ele>
        <time>2012-04-06T14:19:50Z</time>
      </trkpt>
      <trkpt lat="48.24326" lon="-0.3905">
        <ele>238.5</ele>
        <time>2012-04-06T14:19:54Z</time>
      </trkpt>
      <trkpt lat="48.2433" lon="-0.39047">
        <ele>238.5</ele>
        <time>2012-04-06T14:19:58Z</time>
      </trkpt>
      <trkpt lat="48.24332" lon="-0.39045">
        <ele>239</ele>
        <time>2012-04-06T14:20:00Z</time>
      </trkpt>
      <trkpt lat="48.24338" lon="-0.3904">
        <ele>241</ele>
        <time>2012-04-06T14:20:06Z</time>
      </trkpt>
      <trkpt lat="48.24344" lon="-0.39035">
        <ele>241</ele>
        <time>2012-04-06T14:20:10Z</time>
      </trkpt>
      <trkpt lat="48.24348" lon="-0.3903">
        <ele>241.5</ele>
        <time>2012-04-06T14:20:14Z</time>
      </trkpt>
      <trkpt lat="48.24356" lon="-0.39027">
        <ele>242</ele>
        <time>2012-04-06T14:20:20Z</time>
      </trkpt>
      <trkpt lat="48.24362" lon="-0.39025">
        <ele>245</ele>
        <time>2012-04-06T14:20:24Z</time>
      </trkpt>
      <trkpt lat="48.24366" lon="-0.39021">
        <ele>245</ele>
        <time>2012-04-06T14:20:28Z</time>
      </trkpt>
      <trkpt lat="48.24372" lon="-0.39013">
        <ele>244.5</ele>
        <time>2012-04-06T14:20:34Z</time>
      </trkpt>
      <trkpt lat="48.24381" lon="-0.39007">
        <ele>242</ele>
        <time>2012-04-06T14:20:42Z</time>
      </trkpt>
      <trkpt lat="48.24391" lon="-0.39">
        <ele>245.5</ele>
        <time>2012-04-06T14:20:50Z</time>
      </trkpt>
      <trkpt lat="48.24399" lon="-0.38994">
        <ele>245.5</ele>
        <time>2012-04-06T14:20:56Z</time>
      </trkpt>
      <trkpt lat="48.24404" lon="-0.3899">
        <ele>244</ele>
        <time>2012-04-06T14:21:00Z</time>
      </trkpt>
      <trkpt lat="48.24414" lon="-0.38985">
        <ele>243.5</ele>
        <time>2012-04-06T14:21:08Z</time>
      </trkpt>
      <trkpt lat="48.24422" lon="-0.38981">
        <ele>243.5</ele>
        <time>2012-04-06T14:21:14Z</time>
      </trkpt>
      <trkpt lat="48.24425" lon="-0.38976">
        <ele>244</ele>
        <time>2012-04-06T14:21:18Z</time>
      </trkpt>
      <trkpt lat="48.24429" lon="-0.3897">
        <ele>243</ele>
        <time>2012-04-06T14:21:22Z</time>
      </trkpt>
      <trkpt lat="48.24438" lon="-0.38967">
        <ele>250.5</ele>
        <time>2012-04-06T14:21:28Z</time>
      </trkpt>
      <trkpt lat="48.24442" lon="-0.38956">
        <ele>249.5</ele>
        <time>2012-04-06T14:21:34Z</time>
      </trkpt>
      <trkpt lat="48.24446" lon="-0.38944">
        <ele>249.5</ele>
        <time>2012-04-06T14:21:40Z</time>
      </trkpt>
      <trkpt lat="48.24451" lon="-0.38943">
        <ele>247.5</ele>
        <time>2012-04-06T14:21:44Z</time>
      </trkpt>
      <trkpt lat="48.24451" lon="-0.38943">
        <ele>247.5</ele>
        <time>2012-04-06T14:22:10Z</time>
      </trkpt>
      <trkpt lat="48.24457" lon="-0.38937">
        <ele>252</ele>
        <time>2012-04-06T14:22:12Z</time>
      </trkpt>
      <trkpt lat="48.24462" lon="-0.38937">
        <ele>247.5</ele>
        <time>2012-04-06T14:22:24Z</time>
      </trkpt>
      <trkpt lat="48.24473" lon="-0.38923">
        <ele>240</ele>
        <time>2012-04-06T14:22:38Z</time>
      </trkpt>
      <trkpt lat="48.24481" lon="-0.38914">
        <ele>240.5</ele>
        <time>2012-04-06T14:22:44Z</time>
      </trkpt>
      <trkpt lat="48.24487" lon="-0.38914">
        <ele>237.5</ele>
        <time>2012-04-06T14:22:48Z</time>
      </trkpt>
      <trkpt lat="48.2449" lon="-0.38907">
        <ele>236.5</ele>
        <time>2012-04-06T14:22:52Z</time>
      </trkpt>
      <trkpt lat="48.245" lon="-0.38894">
        <ele>243</ele>
        <time>2012-04-06T14:23:02Z</time>
      </trkpt>
      <trkpt lat="48.24508" lon="-0.38889">
        <ele>241.5</ele>
        <time>2012-04-06T14:23:08Z</time>
      </trkpt>
      <trkpt lat="48.24512" lon="-0.38886">
        <ele>244.5</ele>
        <time>2012-04-06T14:23:12Z</time>
      </trkpt>
      <trkpt lat="48.24519" lon="-0.3889">
        <ele>248</ele>
        <time>2012-04-06T14:23:16Z</time>
      </trkpt>
      <trkpt lat="48.24525" lon="-0.38894">
        <ele>248</ele>
        <time>2012-04-06T14:23:24Z</time>
      </trkpt>
      <trkpt lat="48.24532" lon="-0.38885">
        <ele>244.5</ele>
        <time>2012-04-06T14:23:42Z</time>
      </trkpt>
      <trkpt lat="48.24534" lon="-0.38882">
        <ele>246</ele>
        <time>2012-04-06T14:23:44Z</time>
      </trkpt>
      <trkpt lat="48.2454" lon="-0.38884">
        <ele>247.5</ele>
        <time>2012-04-06T14:23:52Z</time>
      </trkpt>
      <trkpt lat="48.24545" lon="-0.38881">
        <ele>245</ele>
        <time>2012-04-06T14:23:56Z</time>
      </trkpt>
      <trkpt lat="48.24551" lon="-0.38878">
        <ele>245</ele>
        <time>2012-04-06T14:24:02Z</time>
      </trkpt>
      <trkpt lat="48.24559" lon="-0.38873">
        <ele>244</ele>
        <time>2012-04-06T14:24:10Z</time>
      </trkpt>
      <trkpt lat="48.24562" lon="-0.38871">
        <ele>243.5</ele>
        <time>2012-04-06T14:24:12Z</time>
      </trkpt>
      <trkpt lat="48.24576" lon="-0.38861">
        <ele>245.5</ele>
        <time>2012-04-06T14:24:24Z</time>
      </trkpt>
      <trkpt lat="48.24578" lon="-0.38858">
        <ele>246.5</ele>
        <time>2012-04-06T14:24:26Z</time>
      </trkpt>
      <trkpt lat="48.24584" lon="-0.3885">
        <ele>248</ele>
        <time>2012-04-06T14:24:30Z</time>
      </trkpt>
      <trkpt lat="48.24589" lon="-0.38845">
        <ele>248.5</ele>
        <time>2012-04-06T14:24:34Z</time>
      </trkpt>
      <trkpt lat="48.24592" lon="-0.3884">
        <ele>248</ele>
        <time>2012-04-06T14:24:38Z</time>
      </trkpt>
      <trkpt lat="48.24598" lon="-0.38837">
        <ele>248</ele>
        <time>2012-04-06T14:24:46Z</time>
      </trkpt>
      <trkpt lat="48.24606" lon="-0.38829">
        <ele>248.5</ele>
        <time>2012-04-06T14:24:52Z</time>
      </trkpt>
      <trkpt lat="48.24614" lon="-0.3882">
        <ele>249</ele>
        <time>2012-04-06T14:24:58Z</time>
      </trkpt>
      <trkpt lat="48.24617" lon="-0.38817">
        <ele>249.5</ele>
        <time>2012-04-06T14:25:02Z</time>
      </trkpt>
      <trkpt lat="48.24623" lon="-0.38807">
        <ele>247.5</ele>
        <time>2012-04-06T14:25:10Z</time>
      </trkpt>
      <trkpt lat="48.24627" lon="-0.38801">
        <ele>247</ele>
        <time>2012-04-06T14:25:14Z</time>
      </trkpt>
      <trkpt lat="48.24644" lon="-0.38789">
        <ele>245.5</ele>
        <time>2012-04-06T14:25:24Z</time>
      </trkpt>
      <trkpt lat="48.2465" lon="-0.38785">
        <ele>245.5</ele>
        <time>2012-04-06T14:25:28Z</time>
      </trkpt>
      <trkpt lat="48.24656" lon="-0.38781">
        <ele>241.5</ele>
        <time>2012-04-06T14:25:34Z</time>
      </trkpt>
      <trkpt lat="48.24661" lon="-0.3878">
        <ele>240.5</ele>
        <time>2012-04-06T14:25:38Z</time>
      </trkpt>
      <trkpt lat="48.24669" lon="-0.38778">
        <ele>239.5</ele>
        <time>2012-04-06T14:25:44Z</time>
      </trkpt>
      <trkpt lat="48.24674" lon="-0.38776">
        <ele>239.5</ele>
        <time>2012-04-06T14:25:56Z</time>
      </trkpt>
      <trkpt lat="48.24681" lon="-0.38775">
        <ele>239.5</ele>
        <time>2012-04-06T14:26:00Z</time>
      </trkpt>
      <trkpt lat="48.24684" lon="-0.38774">
        <ele>239</ele>
        <time>2012-04-06T14:26:02Z</time>
      </trkpt>
      <trkpt lat="48.2469" lon="-0.38773">
        <ele>239</ele>
        <time>2012-04-06T14:26:06Z</time>
      </trkpt>
      <trkpt lat="48.24702" lon="-0.38773">
        <ele>235</ele>
        <time>2012-04-06T14:26:16Z</time>
      </trkpt>
      <trkpt lat="48.24718" lon="-0.38771">
        <ele>234.5</ele>
        <time>2012-04-06T14:26:30Z</time>
      </trkpt>
      <trkpt lat="48.24726" lon="-0.38764">
        <ele>233.5</ele>
        <time>2012-04-06T14:26:36Z</time>
      </trkpt>
      <trkpt lat="48.2473" lon="-0.3875">
        <ele>229.5</ele>
        <time>2012-04-06T14:26:46Z</time>
      </trkpt>
      <trkpt lat="48.24733" lon="-0.38738">
        <ele>227</ele>
        <time>2012-04-06T14:26:52Z</time>
      </trkpt>
      <trkpt lat="48.24737" lon="-0.3873">
        <ele>228</ele>
        <time>2012-04-06T14:26:58Z</time>
      </trkpt>
      <trkpt lat="48.2474" lon="-0.38725">
        <ele>226.5</ele>
        <time>2012-04-06T14:27:00Z</time>
      </trkpt>
      <trkpt lat="48.24745" lon="-0.38703">
        <ele>230.5</ele>
        <time>2012-04-06T14:27:10Z</time>
      </trkpt>
      <trkpt lat="48.24746" lon="-0.38691">
        <ele>232.5</ele>
        <time>2012-04-06T14:27:16Z</time>
      </trkpt>
      <trkpt lat="48.24744" lon="-0.38684">
        <ele>232</ele>
        <time>2012-04-06T14:27:20Z</time>
      </trkpt>
      <trkpt lat="48.24744" lon="-0.38672">
        <ele>230</ele>
        <time>2012-04-06T14:27:26Z</time>
      </trkpt>
      <trkpt lat="48.24743" lon="-0.38665">
        <ele>230</ele>
        <time>2012-04-06T14:27:30Z</time>
      </trkpt>
      <trkpt lat="48.24742" lon="-0.38657">
        <ele>230.5</ele>
        <time>2012-04-06T14:27:34Z</time>
      </trkpt>
      <trkpt lat="48.24737" lon="-0.38646">
        <ele>235</ele>
        <time>2012-04-06T14:27:42Z</time>
      </trkpt>
      <trkpt lat="48.24734" lon="-0.38638">
        <ele>236</ele>
        <time>2012-04-06T14:27:46Z</time>
      </trkpt>
      <trkpt lat="48.24732" lon="-0.38617">
        <ele>237.5</ele>
        <time>2012-04-06T14:27:56Z</time>
      </trkpt>
      <trkpt lat="48.24731" lon="-0.3861">
        <ele>233.5</ele>
        <time>2012-04-06T14:28:00Z</time>
      </trkpt>
      <trkpt lat="48.24729" lon="-0.38588">
        <ele>234</ele>
        <time>2012-04-06T14:28:10Z</time>
      </trkpt>
      <trkpt lat="48.24728" lon="-0.38579">
        <ele>234</ele>
        <time>2012-04-06T14:28:14Z</time>
      </trkpt>
      <trkpt lat="48.24727" lon="-0.38569">
        <ele>232</ele>
        <time>2012-04-06T14:28:18Z</time>
      </trkpt>
      <trkpt lat="48.24727" lon="-0.38565">
        <ele>231.5</ele>
        <time>2012-04-06T14:28:20Z</time>
      </trkpt>
      <trkpt lat="48.24727" lon="-0.3856">
        <ele>231.5</ele>
        <time>2012-04-06T14:28:22Z</time>
      </trkpt>
      <trkpt lat="48.24726" lon="-0.38551">
        <ele>231.5</ele>
        <time>2012-04-06T14:28:26Z</time>
      </trkpt>
      <trkpt lat="48.24724" lon="-0.3854">
        <ele>231.5</ele>
        <time>2012-04-06T14:28:32Z</time>
      </trkpt>
      <trkpt lat="48.24724" lon="-0.38533">
        <ele>232.5</ele>
        <time>2012-04-06T14:28:36Z</time>
      </trkpt>
      <trkpt lat="48.24724" lon="-0.38533">
        <ele>232.5</ele>
        <time>2012-04-06T14:28:52Z</time>
      </trkpt>
      <trkpt lat="48.24726" lon="-0.38525">
        <ele>232</ele>
        <time>2012-04-06T14:29:02Z</time>
      </trkpt>
      <trkpt lat="48.24724" lon="-0.38517">
        <ele>232.5</ele>
        <time>2012-04-06T14:29:06Z</time>
      </trkpt>
      <trkpt lat="48.24721" lon="-0.38505">
        <ele>234.5</ele>
        <time>2012-04-06T14:29:12Z</time>
      </trkpt>
      <trkpt lat="48.24719" lon="-0.38502">
        <ele>235</ele>
        <time>2012-04-06T14:29:14Z</time>
      </trkpt>
      <trkpt lat="48.24716" lon="-0.38495">
        <ele>236</ele>
        <time>2012-04-06T14:29:20Z</time>
      </trkpt>
      <trkpt lat="48.24708" lon="-0.38484">
        <ele>236.5</ele>
        <time>2012-04-06T14:29:34Z</time>
      </trkpt>
      <trkpt lat="48.24701" lon="-0.3848">
        <ele>237.5</ele>
        <time>2012-04-06T14:29:40Z</time>
      </trkpt>
      <trkpt lat="48.24697" lon="-0.38477">
        <ele>237.5</ele>
        <time>2012-04-06T14:29:42Z</time>
      </trkpt>
      <trkpt lat="48.24689" lon="-0.38473">
        <ele>240</ele>
        <time>2012-04-06T14:29:50Z</time>
      </trkpt>
      <trkpt lat="48.24685" lon="-0.38469">
        <ele>239</ele>
        <time>2012-04-06T14:29:54Z</time>
      </trkpt>
      <trkpt lat="48.24682" lon="-0.38466">
        <ele>239</ele>
        <time>2012-04-06T14:29:56Z</time>
      </trkpt>
      <trkpt lat="48.24669" lon="-0.3846">
        <ele>240.5</ele>
        <time>2012-04-06T14:30:12Z</time>
      </trkpt>
      <trkpt lat="48.24665" lon="-0.38457">
        <ele>241.5</ele>
        <time>2012-04-06T14:30:18Z</time>
      </trkpt>
      <trkpt lat="48.24656" lon="-0.38453">
        <ele>243</ele>
        <time>2012-04-06T14:30:28Z</time>
      </trkpt>
      <trkpt lat="48.24647" lon="-0.38446">
        <ele>245</ele>
        <time>2012-04-06T14:30:39Z</time>
      </trkpt>
      <trkpt lat="48.2464" lon="-0.38442">
        <ele>247</ele>
        <time>2012-04-06T14:30:47Z</time>
      </trkpt>
      <trkpt lat="48.24636" lon="-0.38439">
        <ele>248</ele>
        <time>2012-04-06T14:30:52Z</time>
      </trkpt>
      <trkpt lat="48.24629" lon="-0.38435">
        <ele>248</ele>
        <time>2012-04-06T14:30:58Z</time>
      </trkpt>
      <trkpt lat="48.24625" lon="-0.38434">
        <ele>246.5</ele>
        <time>2012-04-06T14:31:02Z</time>
      </trkpt>
      <trkpt lat="48.24623" lon="-0.38432">
        <ele>246</ele>
        <time>2012-04-06T14:31:04Z</time>
      </trkpt>
      <trkpt lat="48.24617" lon="-0.38429">
        <ele>246</ele>
        <time>2012-04-06T14:31:10Z</time>
      </trkpt>
      <trkpt lat="48.24613" lon="-0.38427">
        <ele>245</ele>
        <time>2012-04-06T14:31:14Z</time>
      </trkpt>
      <trkpt lat="48.24608" lon="-0.38426">
        <ele>245</ele>
        <time>2012-04-06T14:31:18Z</time>
      </trkpt>
      <trkpt lat="48.24603" lon="-0.38419">
        <ele>246</ele>
        <time>2012-04-06T14:31:26Z</time>
      </trkpt>
      <trkpt lat="48.24598" lon="-0.38413">
        <ele>245.5</ele>
        <time>2012-04-06T14:31:32Z</time>
      </trkpt>
      <trkpt lat="48.24593" lon="-0.38407">
        <ele>245.5</ele>
        <time>2012-04-06T14:31:38Z</time>
      </trkpt>
      <trkpt lat="48.2459" lon="-0.38403">
        <ele>244.5</ele>
        <time>2012-04-06T14:31:42Z</time>
      </trkpt>
      <trkpt lat="48.24587" lon="-0.38399">
        <ele>243.5</ele>
        <time>2012-04-06T14:31:46Z</time>
      </trkpt>
      <trkpt lat="48.24581" lon="-0.38392">
        <ele>246</ele>
        <time>2012-04-06T14:31:54Z</time>
      </trkpt>
      <trkpt lat="48.24577" lon="-0.38387">
        <ele>247</ele>
        <time>2012-04-06T14:31:58Z</time>
      </trkpt>
      <trkpt lat="48.24577" lon="-0.38387">
        <ele>247</ele>
        <time>2012-04-06T14:32:14Z</time>
      </trkpt>
      <trkpt lat="48.24573" lon="-0.38383">
        <ele>248</ele>
        <time>2012-04-06T14:32:24Z</time>
      </trkpt>
      <trkpt lat="48.2457" lon="-0.38377">
        <ele>248</ele>
        <time>2012-04-06T14:32:28Z</time>
      </trkpt>
      <trkpt lat="48.24567" lon="-0.3837">
        <ele>246</ele>
        <time>2012-04-06T14:32:32Z</time>
      </trkpt>
      <trkpt lat="48.2456" lon="-0.38362">
        <ele>247.5</ele>
        <time>2012-04-06T14:32:40Z</time>
      </trkpt>
      <trkpt lat="48.2455" lon="-0.38359">
        <ele>250</ele>
        <time>2012-04-06T14:32:48Z</time>
      </trkpt>
      <trkpt lat="48.24545" lon="-0.38358">
        <ele>250</ele>
        <time>2012-04-06T14:32:58Z</time>
      </trkpt>
      <trkpt lat="48.24539" lon="-0.38352">
        <ele>251</ele>
        <time>2012-04-06T14:33:08Z</time>
      </trkpt>
      <trkpt lat="48.24536" lon="-0.38345">
        <ele>249</ele>
        <time>2012-04-06T14:33:16Z</time>
      </trkpt>
      <trkpt lat="48.24531" lon="-0.38341">
        <ele>249.5</ele>
        <time>2012-04-06T14:33:20Z</time>
      </trkpt>
      <trkpt lat="48.24523" lon="-0.38339">
        <ele>256.5</ele>
        <time>2012-04-06T14:33:30Z</time>
      </trkpt>
      <trkpt lat="48.24517" lon="-0.38335">
        <ele>261.5</ele>
        <time>2012-04-06T14:33:36Z</time>
      </trkpt>
      <trkpt lat="48.24512" lon="-0.3833">
        <ele>259.5</ele>
        <time>2012-04-06T14:33:42Z</time>
      </trkpt>
      <trkpt lat="48.24502" lon="-0.38322">
        <ele>258</ele>
        <time>2012-04-06T14:33:50Z</time>
      </trkpt>
      <trkpt lat="48.24497" lon="-0.38318">
        <ele>257</ele>
        <time>2012-04-06T14:33:54Z</time>
      </trkpt>
      <trkpt lat="48.24492" lon="-0.38315">
        <ele>262</ele>
        <time>2012-04-06T14:33:58Z</time>
      </trkpt>
      <trkpt lat="48.24489" lon="-0.38313">
        <ele>265.5</ele>
        <time>2012-04-06T14:34:02Z</time>
      </trkpt>
      <trkpt lat="48.24484" lon="-0.38311">
        <ele>271</ele>
        <time>2012-04-06T14:34:06Z</time>
      </trkpt>
      <trkpt lat="48.24479" lon="-0.38308">
        <ele>274</ele>
        <time>2012-04-06T14:34:10Z</time>
      </trkpt>
      <trkpt lat="48.24474" lon="-0.38296">
        <ele>271.5</ele>
        <time>2012-04-06T14:34:20Z</time>
      </trkpt>
      <trkpt lat="48.2447" lon="-0.3829">
        <ele>272</ele>
        <time>2012-04-06T14:34:24Z</time>
      </trkpt>
      <trkpt lat="48.24463" lon="-0.38283">
        <ele>272</ele>
        <time>2012-04-06T14:34:30Z</time>
      </trkpt>
      <trkpt lat="48.24461" lon="-0.38281">
        <ele>271</ele>
        <time>2012-04-06T14:34:32Z</time>
      </trkpt>
      <trkpt lat="48.24457" lon="-0.38277">
        <ele>271.5</ele>
        <time>2012-04-06T14:34:36Z</time>
      </trkpt>
      <trkpt lat="48.24455" lon="-0.38275">
        <ele>272.5</ele>
        <time>2012-04-06T14:34:38Z</time>
      </trkpt>
      <trkpt lat="48.24449" lon="-0.38265">
        <ele>269.5</ele>
        <time>2012-04-06T14:34:46Z</time>
      </trkpt>
      <trkpt lat="48.24448" lon="-0.38262">
        <ele>268.5</ele>
        <time>2012-04-06T14:34:48Z</time>
      </trkpt>
      <trkpt lat="48.24444" lon="-0.38258">
        <ele>270</ele>
        <time>2012-04-06T14:34:52Z</time>
      </trkpt>
      <trkpt lat="48.24438" lon="-0.38249">
        <ele>269.5</ele>
        <time>2012-04-06T14:34:58Z</time>
      </trkpt>
      <trkpt lat="48.24435" lon="-0.38243">
        <ele>269</ele>
        <time>2012-04-06T14:35:02Z</time>
      </trkpt>
      <trkpt lat="48.24435" lon="-0.38243">
        <ele>269</ele>
        <time>2012-04-06T14:35:18Z</time>
      </trkpt>
      <trkpt lat="48.2443" lon="-0.3824">
        <ele>271.5</ele>
        <time>2012-04-06T14:35:30Z</time>
      </trkpt>
      <trkpt lat="48.24425" lon="-0.38233">
        <ele>273</ele>
        <time>2012-04-06T14:35:36Z</time>
      </trkpt>
      <trkpt lat="48.24422" lon="-0.38228">
        <ele>273</ele>
        <time>2012-04-06T14:35:40Z</time>
      </trkpt>
      <trkpt lat="48.24419" lon="-0.38223">
        <ele>274.5</ele>
        <time>2012-04-06T14:35:44Z</time>
      </trkpt>
      <trkpt lat="48.24417" lon="-0.38217">
        <ele>274</ele>
        <time>2012-04-06T14:35:48Z</time>
      </trkpt>
      <trkpt lat="48.24411" lon="-0.38207">
        <ele>273</ele>
        <time>2012-04-06T14:35:56Z</time>
      </trkpt>
      <trkpt lat="48.24407" lon="-0.38201">
        <ele>274</ele>
        <time>2012-04-06T14:36:00Z</time>
      </trkpt>
      <trkpt lat="48.24402" lon="-0.38195">
        <ele>278.5</ele>
        <time>2012-04-06T14:36:06Z</time>
      </trkpt>
      <trkpt lat="48.244" lon="-0.38192">
        <ele>279.5</ele>
        <time>2012-04-06T14:36:08Z</time>
      </trkpt>
      <trkpt lat="48.24397" lon="-0.38186">
        <ele>280.5</ele>
        <time>2012-04-06T14:36:12Z</time>
      </trkpt>
      <trkpt lat="48.24394" lon="-0.3818">
        <ele>279.5</ele>
        <time>2012-04-06T14:36:16Z</time>
      </trkpt>
      <trkpt lat="48.24391" lon="-0.3817">
        <ele>278</ele>
        <time>2012-04-06T14:36:22Z</time>
      </trkpt>
      <trkpt lat="48.24389" lon="-0.38164">
        <ele>279.5</ele>
        <time>2012-04-06T14:36:26Z</time>
      </trkpt>
      <trkpt lat="48.24388" lon="-0.38157">
        <ele>278</ele>
        <time>2012-04-06T14:36:36Z</time>
      </trkpt>
      <trkpt lat="48.24383" lon="-0.38142">
        <ele>279</ele>
        <time>2012-04-06T14:36:48Z</time>
      </trkpt>
      <trkpt lat="48.24381" lon="-0.38127">
        <ele>277.5</ele>
        <time>2012-04-06T14:36:58Z</time>
      </trkpt>
      <trkpt lat="48.2438" lon="-0.3812">
        <ele>277</ele>
        <time>2012-04-06T14:37:01Z</time>
      </trkpt>
      <trkpt lat="48.2438" lon="-0.3811">
        <ele>278</ele>
        <time>2012-04-06T14:37:07Z</time>
      </trkpt>
      <trkpt lat="48.2438" lon="-0.38093">
        <ele>278</ele>
        <time>2012-04-06T14:37:19Z</time>
      </trkpt>
      <trkpt lat="48.24379" lon="-0.38085">
        <ele>278.5</ele>
        <time>2012-04-06T14:37:29Z</time>
      </trkpt>
      <trkpt lat="48.24379" lon="-0.38066">
        <ele>279</ele>
        <time>2012-04-06T14:37:49Z</time>
      </trkpt>
      <trkpt lat="48.24378" lon="-0.38059">
        <ele>279.5</ele>
        <time>2012-04-06T14:37:53Z</time>
      </trkpt>
      <trkpt lat="48.24377" lon="-0.38052">
        <ele>279</ele>
        <time>2012-04-06T14:37:57Z</time>
      </trkpt>
      <trkpt lat="48.24377" lon="-0.38045">
        <ele>280</ele>
        <time>2012-04-06T14:38:01Z</time>
      </trkpt>
      <trkpt lat="48.24376" lon="-0.38038">
        <ele>280</ele>
        <time>2012-04-06T14:38:05Z</time>
      </trkpt>
      <trkpt lat="48.24375" lon="-0.38031">
        <ele>282</ele>
        <time>2012-04-06T14:38:09Z</time>
      </trkpt>
      <trkpt lat="48.24375" lon="-0.38031">
        <ele>282</ele>
        <time>2012-04-06T14:38:42Z</time>
      </trkpt>
      <trkpt lat="48.24373" lon="-0.38021">
        <ele>281</ele>
        <time>2012-04-06T14:38:46Z</time>
      </trkpt>
      <trkpt lat="48.24372" lon="-0.38013">
        <ele>286</ele>
        <time>2012-04-06T14:39:00Z</time>
      </trkpt>
      <trkpt lat="48.24372" lon="-0.38007">
        <ele>287</ele>
        <time>2012-04-06T14:39:06Z</time>
      </trkpt>
      <trkpt lat="48.24372" lon="-0.38003">
        <ele>283</ele>
        <time>2012-04-06T14:39:16Z</time>
      </trkpt>
      <trkpt lat="48.24371" lon="-0.37998">
        <ele>284</ele>
        <time>2012-04-06T14:39:26Z</time>
      </trkpt>
      <trkpt lat="48.2437" lon="-0.37994">
        <ele>287</ele>
        <time>2012-04-06T14:39:30Z</time>
      </trkpt>
      <trkpt lat="48.24368" lon="-0.37979">
        <ele>284.5</ele>
        <time>2012-04-06T14:39:48Z</time>
      </trkpt>
      <trkpt lat="48.24366" lon="-0.37972">
        <ele>284.5</ele>
        <time>2012-04-06T14:39:52Z</time>
      </trkpt>
      <trkpt lat="48.24365" lon="-0.37969">
        <ele>284.5</ele>
        <time>2012-04-06T14:39:54Z</time>
      </trkpt>
      <trkpt lat="48.24364" lon="-0.37965">
        <ele>284.5</ele>
        <time>2012-04-06T14:39:56Z</time>
      </trkpt>
      <trkpt lat="48.24361" lon="-0.37955">
        <ele>285.5</ele>
        <time>2012-04-06T14:40:02Z</time>
      </trkpt>
      <trkpt lat="48.24359" lon="-0.37949">
        <ele>279.5</ele>
        <time>2012-04-06T14:40:06Z</time>
      </trkpt>
      <trkpt lat="48.24357" lon="-0.3794">
        <ele>277.5</ele>
        <time>2012-04-06T14:40:12Z</time>
      </trkpt>
      <trkpt lat="48.24353" lon="-0.37932">
        <ele>278</ele>
        <time>2012-04-06T14:40:20Z</time>
      </trkpt>
      <trkpt lat="48.24341" lon="-0.37918">
        <ele>280</ele>
        <time>2012-04-06T14:40:30Z</time>
      </trkpt>
      <trkpt lat="48.24336" lon="-0.37912">
        <ele>280.5</ele>
        <time>2012-04-06T14:40:34Z</time>
      </trkpt>
      <trkpt lat="48.24327" lon="-0.379">
        <ele>285.5</ele>
        <time>2012-04-06T14:40:44Z</time>
      </trkpt>
      <trkpt lat="48.24322" lon="-0.37891">
        <ele>284.5</ele>
        <time>2012-04-06T14:40:50Z</time>
      </trkpt>
      <trkpt lat="48.24318" lon="-0.37887">
        <ele>284</ele>
        <time>2012-04-06T14:40:54Z</time>
      </trkpt>
      <trkpt lat="48.24315" lon="-0.37885">
        <ele>285.5</ele>
        <time>2012-04-06T14:40:56Z</time>
      </trkpt>
      <trkpt lat="48.24313" lon="-0.37883">
        <ele>287</ele>
        <time>2012-04-06T14:40:58Z</time>
      </trkpt>
      <trkpt lat="48.24307" lon="-0.37875">
        <ele>284</ele>
        <time>2012-04-06T14:41:04Z</time>
      </trkpt>
      <trkpt lat="48.24305" lon="-0.37872">
        <ele>283</ele>
        <time>2012-04-06T14:41:06Z</time>
      </trkpt>
      <trkpt lat="48.24303" lon="-0.37869">
        <ele>282.5</ele>
        <time>2012-04-06T14:41:08Z</time>
      </trkpt>
      <trkpt lat="48.243" lon="-0.37863">
        <ele>282.5</ele>
        <time>2012-04-06T14:41:12Z</time>
      </trkpt>
      <trkpt lat="48.24296" lon="-0.37858">
        <ele>283.5</ele>
        <time>2012-04-06T14:41:16Z</time>
      </trkpt>
      <trkpt lat="48.24293" lon="-0.37852">
        <ele>283.5</ele>
        <time>2012-04-06T14:41:20Z</time>
      </trkpt>
      <trkpt lat="48.24291" lon="-0.37849">
        <ele>284</ele>
        <time>2012-04-06T14:41:22Z</time>
      </trkpt>
      <trkpt lat="48.24289" lon="-0.37846">
        <ele>284.5</ele>
        <time>2012-04-06T14:41:26Z</time>
      </trkpt>
      <trkpt lat="48.24285" lon="-0.3784">
        <ele>283</ele>
        <time>2012-04-06T14:41:32Z</time>
      </trkpt>
      <trkpt lat="48.24281" lon="-0.37836">
        <ele>287</ele>
        <time>2012-04-06T14:41:38Z</time>
      </trkpt>
      <trkpt lat="48.24268" lon="-0.3782">
        <ele>285.5</ele>
        <time>2012-04-06T14:41:52Z</time>
      </trkpt>
      <trkpt lat="48.24266" lon="-0.37818">
        <ele>286.5</ele>
        <time>2012-04-06T14:41:54Z</time>
      </trkpt>
      <trkpt lat="48.24263" lon="-0.37812">
        <ele>287.5</ele>
        <time>2012-04-06T14:42:00Z</time>
      </trkpt>
      <trkpt lat="48.24261" lon="-0.3781">
        <ele>289</ele>
        <time>2012-04-06T14:42:02Z</time>
      </trkpt>
      <trkpt lat="48.24259" lon="-0.37808">
        <ele>290</ele>
        <time>2012-04-06T14:42:04Z</time>
      </trkpt>
      <trkpt lat="48.24254" lon="-0.37803">
        <ele>291.5</ele>
        <time>2012-04-06T14:42:08Z</time>
      </trkpt>
      <trkpt lat="48.2425" lon="-0.37799">
        <ele>291</ele>
        <time>2012-04-06T14:42:12Z</time>
      </trkpt>
      <trkpt lat="48.24248" lon="-0.37796">
        <ele>291</ele>
        <time>2012-04-06T14:42:14Z</time>
      </trkpt>
      <trkpt lat="48.24246" lon="-0.37794">
        <ele>290.5</ele>
        <time>2012-04-06T14:42:16Z</time>
      </trkpt>
      <trkpt lat="48.24241" lon="-0.3779">
        <ele>292</ele>
        <time>2012-04-06T14:42:20Z</time>
      </trkpt>
      <trkpt lat="48.24239" lon="-0.37788">
        <ele>293.5</ele>
        <time>2012-04-06T14:42:22Z</time>
      </trkpt>
      <trkpt lat="48.24232" lon="-0.37782">
        <ele>292.5</ele>
        <time>2012-04-06T14:42:28Z</time>
      </trkpt>
      <trkpt lat="48.2423" lon="-0.3778">
        <ele>293</ele>
        <time>2012-04-06T14:42:30Z</time>
      </trkpt>
      <trkpt lat="48.24228" lon="-0.37778">
        <ele>293.5</ele>
        <time>2012-04-06T14:42:32Z</time>
      </trkpt>
      <trkpt lat="48.24226" lon="-0.37776">
        <ele>294</ele>
        <time>2012-04-06T14:42:34Z</time>
      </trkpt>
      <trkpt lat="48.24224" lon="-0.37774">
        <ele>294</ele>
        <time>2012-04-06T14:42:36Z</time>
      </trkpt>
      <trkpt lat="48.24222" lon="-0.37768">
        <ele>293.5</ele>
        <time>2012-04-06T14:42:48Z</time>
      </trkpt>
      <trkpt lat="48.24216" lon="-0.37762">
        <ele>293</ele>
        <time>2012-04-06T14:42:54Z</time>
      </trkpt>
      <trkpt lat="48.24212" lon="-0.37759">
        <ele>293</ele>
        <time>2012-04-06T14:42:58Z</time>
      </trkpt>
      <trkpt lat="48.24209" lon="-0.37754">
        <ele>293</ele>
        <time>2012-04-06T14:43:04Z</time>
      </trkpt>
      <trkpt lat="48.24207" lon="-0.37752">
        <ele>293.5</ele>
        <time>2012-04-06T14:43:06Z</time>
      </trkpt>
      <trkpt lat="48.24203" lon="-0.37748">
        <ele>294.5</ele>
        <time>2012-04-06T14:43:10Z</time>
      </trkpt>
      <trkpt lat="48.24199" lon="-0.37744">
        <ele>296</ele>
        <time>2012-04-06T14:43:14Z</time>
      </trkpt>
      <trkpt lat="48.24192" lon="-0.37737">
        <ele>298</ele>
        <time>2012-04-06T14:43:20Z</time>
      </trkpt>
      <trkpt lat="48.2419" lon="-0.37735">
        <ele>299</ele>
        <time>2012-04-06T14:43:22Z</time>
      </trkpt>
      <trkpt lat="48.24186" lon="-0.37731">
        <ele>301.5</ele>
        <time>2012-04-06T14:43:26Z</time>
      </trkpt>
      <trkpt lat="48.24182" lon="-0.37726">
        <ele>302</ele>
        <time>2012-04-06T14:43:30Z</time>
      </trkpt>
      <trkpt lat="48.24176" lon="-0.37719">
        <ele>302.5</ele>
        <time>2012-04-06T14:43:36Z</time>
      </trkpt>
      <trkpt lat="48.24168" lon="-0.37711">
        <ele>305</ele>
        <time>2012-04-06T14:43:44Z</time>
      </trkpt>
      <trkpt lat="48.24161" lon="-0.37705">
        <ele>306</ele>
        <time>2012-04-06T14:43:50Z</time>
      </trkpt>
      <trkpt lat="48.24159" lon="-0.37703">
        <ele>306.5</ele>
        <time>2012-04-06T14:43:52Z</time>
      </trkpt>
      <trkpt lat="48.24155" lon="-0.37699">
        <ele>306.5</ele>
        <time>2012-04-06T14:43:56Z</time>
      </trkpt>
      <trkpt lat="48.24153" lon="-0.37696">
        <ele>307</ele>
        <time>2012-04-06T14:43:58Z</time>
      </trkpt>
      <trkpt lat="48.24146" lon="-0.37691">
        <ele>309</ele>
        <time>2012-04-06T14:44:04Z</time>
      </trkpt>
      <trkpt lat="48.24142" lon="-0.37687">
        <ele>310.5</ele>
        <time>2012-04-06T14:44:08Z</time>
      </trkpt>
      <trkpt lat="48.24139" lon="-0.3768">
        <ele>311</ele>
        <time>2012-04-06T14:44:12Z</time>
      </trkpt>
      <trkpt lat="48.24137" lon="-0.37676">
        <ele>311</ele>
        <time>2012-04-06T14:44:14Z</time>
      </trkpt>
      <trkpt lat="48.24132" lon="-0.3767">
        <ele>310.5</ele>
        <time>2012-04-06T14:44:18Z</time>
      </trkpt>
      <trkpt lat="48.24128" lon="-0.37666">
        <ele>310</ele>
        <time>2012-04-06T14:44:22Z</time>
      </trkpt>
      <trkpt lat="48.24126" lon="-0.37663">
        <ele>310.5</ele>
        <time>2012-04-06T14:44:23Z</time>
      </trkpt>
      <trkpt lat="48.24124" lon="-0.37661">
        <ele>311.5</ele>
        <time>2012-04-06T14:44:25Z</time>
      </trkpt>
      <trkpt lat="48.24122" lon="-0.37659">
        <ele>312</ele>
        <time>2012-04-06T14:44:27Z</time>
      </trkpt>
      <trkpt lat="48.24116" lon="-0.3765">
        <ele>312</ele>
        <time>2012-04-06T14:44:33Z</time>
      </trkpt>
      <trkpt lat="48.24115" lon="-0.3764">
        <ele>309.5</ele>
        <time>2012-04-06T14:44:37Z</time>
      </trkpt>
      <trkpt lat="48.24119" lon="-0.37628">
        <ele>309</ele>
        <time>2012-04-06T14:44:44Z</time>
      </trkpt>
      <trkpt lat="48.24123" lon="-0.37622">
        <ele>308</ele>
        <time>2012-04-06T14:44:48Z</time>
      </trkpt>
      <trkpt lat="48.24127" lon="-0.37613">
        <ele>308.5</ele>
        <time>2012-04-06T14:44:54Z</time>
      </trkpt>
      <trkpt lat="48.24131" lon="-0.37603">
        <ele>309</ele>
        <time>2012-04-06T14:45:00Z</time>
      </trkpt>
      <trkpt lat="48.24133" lon="-0.376">
        <ele>309</ele>
        <time>2012-04-06T14:45:02Z</time>
      </trkpt>
      <trkpt lat="48.24136" lon="-0.37594">
        <ele>308</ele>
        <time>2012-04-06T14:45:06Z</time>
      </trkpt>
      <trkpt lat="48.24137" lon="-0.3759">
        <ele>308.5</ele>
        <time>2012-04-06T14:45:08Z</time>
      </trkpt>
      <trkpt lat="48.24139" lon="-0.37587">
        <ele>308.5</ele>
        <time>2012-04-06T14:45:10Z</time>
      </trkpt>
      <trkpt lat="48.24141" lon="-0.37579">
        <ele>309</ele>
        <time>2012-04-06T14:45:14Z</time>
      </trkpt>
      <trkpt lat="48.24142" lon="-0.37576">
        <ele>309.5</ele>
        <time>2012-04-06T14:45:16Z</time>
      </trkpt>
      <trkpt lat="48.24143" lon="-0.37572">
        <ele>309.5</ele>
        <time>2012-04-06T14:45:18Z</time>
      </trkpt>
      <trkpt lat="48.24147" lon="-0.37563">
        <ele>309</ele>
        <time>2012-04-06T14:45:24Z</time>
      </trkpt>
      <trkpt lat="48.24147" lon="-0.37563">
        <ele>309</ele>
        <time>2012-04-06T14:45:50Z</time>
      </trkpt>
      <trkpt lat="48.24148" lon="-0.37556">
        <ele>307.5</ele>
        <time>2012-04-06T14:45:52Z</time>
      </trkpt>
      <trkpt lat="48.24151" lon="-0.37548">
        <ele>309</ele>
        <time>2012-04-06T14:46:06Z</time>
      </trkpt>
      <trkpt lat="48.24152" lon="-0.37544">
        <ele>309</ele>
        <time>2012-04-06T14:46:08Z</time>
      </trkpt>
      <trkpt lat="48.24155" lon="-0.37537">
        <ele>308.5</ele>
        <time>2012-04-06T14:46:12Z</time>
      </trkpt>
      <trkpt lat="48.24163" lon="-0.37525">
        <ele>309.5</ele>
        <time>2012-04-06T14:46:20Z</time>
      </trkpt>
      <trkpt lat="48.24166" lon="-0.37519">
        <ele>309</ele>
        <time>2012-04-06T14:46:23Z</time>
      </trkpt>
      <trkpt lat="48.24169" lon="-0.37514">
        <ele>308</ele>
        <time>2012-04-06T14:46:27Z</time>
      </trkpt>
      <trkpt lat="48.24172" lon="-0.37507">
        <ele>306.5</ele>
        <time>2012-04-06T14:46:31Z</time>
      </trkpt>
      <trkpt lat="48.24174" lon="-0.37504">
        <ele>306</ele>
        <time>2012-04-06T14:46:33Z</time>
      </trkpt>
      <trkpt lat="48.24179" lon="-0.37495">
        <ele>305</ele>
        <time>2012-04-06T14:46:39Z</time>
      </trkpt>
      <trkpt lat="48.24185" lon="-0.37487">
        <ele>305</ele>
        <time>2012-04-06T14:46:45Z</time>
      </trkpt>
      <trkpt lat="48.24191" lon="-0.37481">
        <ele>303.5</ele>
        <time>2012-04-06T14:46:51Z</time>
      </trkpt>
      <trkpt lat="48.24197" lon="-0.37477">
        <ele>304</ele>
        <time>2012-04-06T14:46:59Z</time>
      </trkpt>
      <trkpt lat="48.24199" lon="-0.37469">
        <ele>313</ele>
        <time>2012-04-06T14:47:13Z</time>
      </trkpt>
      <trkpt lat="48.24203" lon="-0.37464">
        <ele>313</ele>
        <time>2012-04-06T14:47:17Z</time>
      </trkpt>
      <trkpt lat="48.24206" lon="-0.37457">
        <ele>313</ele>
        <time>2012-04-06T14:47:23Z</time>
      </trkpt>
      <trkpt lat="48.24213" lon="-0.37443">
        <ele>315</ele>
        <time>2012-04-06T14:47:33Z</time>
      </trkpt>
      <trkpt lat="48.24218" lon="-0.37434">
        <ele>313</ele>
        <time>2012-04-06T14:47:41Z</time>
      </trkpt>
      <trkpt lat="48.24221" lon="-0.37428">
        <ele>310</ele>
        <time>2012-04-06T14:47:45Z</time>
      </trkpt>
      <trkpt lat="48.24226" lon="-0.3742">
        <ele>309</ele>
        <time>2012-04-06T14:47:53Z</time>
      </trkpt>
      <trkpt lat="48.24231" lon="-0.3742">
        <ele>311</ele>
        <time>2012-04-06T14:48:05Z</time>
      </trkpt>
      <trkpt lat="48.24239" lon="-0.3742">
        <ele>310</ele>
        <time>2012-04-06T14:48:13Z</time>
      </trkpt>
      <trkpt lat="48.24245" lon="-0.37421">
        <ele>312</ele>
        <time>2012-04-06T14:48:19Z</time>
      </trkpt>
      <trkpt lat="48.2425" lon="-0.3742">
        <ele>310.5</ele>
        <time>2012-04-06T14:48:23Z</time>
      </trkpt>
      <trkpt lat="48.24276" lon="-0.3741">
        <ele>299.5</ele>
        <time>2012-04-06T14:48:43Z</time>
      </trkpt>
      <trkpt lat="48.24283" lon="-0.37407">
        <ele>292</ele>
        <time>2012-04-06T14:48:51Z</time>
      </trkpt>
      <trkpt lat="48.24291" lon="-0.37403">
        <ele>289.5</ele>
        <time>2012-04-06T14:48:55Z</time>
      </trkpt>
      <trkpt lat="48.24298" lon="-0.37404">
        <ele>292</ele>
        <time>2012-04-06T14:48:59Z</time>
      </trkpt>
      <trkpt lat="48.24312" lon="-0.374">
        <ele>302.5</ele>
        <time>2012-04-06T14:49:11Z</time>
      </trkpt>
      <trkpt lat="48.24322" lon="-0.37395">
        <ele>299.5</ele>
        <time>2012-04-06T14:49:19Z</time>
      </trkpt>
      <trkpt lat="48.24328" lon="-0.37392">
        <ele>300</ele>
        <time>2012-04-06T14:49:25Z</time>
      </trkpt>
      <trkpt lat="48.24338" lon="-0.37393">
        <ele>304.5</ele>
        <time>2012-04-06T14:49:33Z</time>
      </trkpt>
      <trkpt lat="48.24343" lon="-0.3739">
        <ele>300.5</ele>
        <time>2012-04-06T14:49:43Z</time>
      </trkpt>
      <trkpt lat="48.24348" lon="-0.37388">
        <ele>300</ele>
        <time>2012-04-06T14:49:47Z</time>
      </trkpt>
      <trkpt lat="48.24364" lon="-0.37388">
        <ele>301</ele>
        <time>2012-04-06T14:49:57Z</time>
      </trkpt>
      <trkpt lat="48.24368" lon="-0.37389">
        <ele>305</ele>
        <time>2012-04-06T14:50:03Z</time>
      </trkpt>
      <trkpt lat="48.24376" lon="-0.37388">
        <ele>308</ele>
        <time>2012-04-06T14:50:09Z</time>
      </trkpt>
      <trkpt lat="48.24383" lon="-0.37386">
        <ele>309</ele>
        <time>2012-04-06T14:50:15Z</time>
      </trkpt>
      <trkpt lat="48.24388" lon="-0.37381">
        <ele>301</ele>
        <time>2012-04-06T14:50:25Z</time>
      </trkpt>
      <trkpt lat="48.24404" lon="-0.37384">
        <ele>296.5</ele>
        <time>2012-04-06T14:50:45Z</time>
      </trkpt>
      <trkpt lat="48.2441" lon="-0.37381">
        <ele>294</ele>
        <time>2012-04-06T14:50:47Z</time>
      </trkpt>
      <trkpt lat="48.24428" lon="-0.37379">
        <ele>295</ele>
        <time>2012-04-06T14:50:57Z</time>
      </trkpt>
      <trkpt lat="48.24434" lon="-0.37379">
        <ele>295.5</ele>
        <time>2012-04-06T14:51:01Z</time>
      </trkpt>
      <trkpt lat="48.24449" lon="-0.37379">
        <ele>295.5</ele>
        <time>2012-04-06T14:51:13Z</time>
      </trkpt>
      <trkpt lat="48.24454" lon="-0.37379">
        <ele>296</ele>
        <time>2012-04-06T14:51:15Z</time>
      </trkpt>
      <trkpt lat="48.24462" lon="-0.3738">
        <ele>295.5</ele>
        <time>2012-04-06T14:51:21Z</time>
      </trkpt>
      <trkpt lat="48.24466" lon="-0.3738">
        <ele>296.5</ele>
        <time>2012-04-06T14:51:25Z</time>
      </trkpt>
      <trkpt lat="48.24468" lon="-0.37381">
        <ele>298.5</ele>
        <time>2012-04-06T14:51:27Z</time>
      </trkpt>
      <trkpt lat="48.24474" lon="-0.37383">
        <ele>299.5</ele>
        <time>2012-04-06T14:51:33Z</time>
      </trkpt>
      <trkpt lat="48.24485" lon="-0.37379">
        <ele>295.5</ele>
        <time>2012-04-06T14:51:41Z</time>
      </trkpt>
      <trkpt lat="48.24494" lon="-0.37376">
        <ele>292</ele>
        <time>2012-04-06T14:51:47Z</time>
      </trkpt>
      <trkpt lat="48.24497" lon="-0.37375">
        <ele>291</ele>
        <time>2012-04-06T14:51:49Z</time>
      </trkpt>
      <trkpt lat="48.245" lon="-0.37375">
        <ele>290</ele>
        <time>2012-04-06T14:51:51Z</time>
      </trkpt>
      <trkpt lat="48.24505" lon="-0.37373">
        <ele>290</ele>
        <time>2012-04-06T14:51:55Z</time>
      </trkpt>
      <trkpt lat="48.24513" lon="-0.37372">
        <ele>288.5</ele>
        <time>2012-04-06T14:52:01Z</time>
      </trkpt>
      <trkpt lat="48.24516" lon="-0.37372">
        <ele>287.5</ele>
        <time>2012-04-06T14:52:03Z</time>
      </trkpt>
      <trkpt lat="48.24521" lon="-0.37369">
        <ele>286.5</ele>
        <time>2012-04-06T14:52:07Z</time>
      </trkpt>
      <trkpt lat="48.24536" lon="-0.37366">
        <ele>281</ele>
        <time>2012-04-06T14:52:17Z</time>
      </trkpt>
      <trkpt lat="48.24539" lon="-0.37365">
        <ele>280.5</ele>
        <time>2012-04-06T14:52:19Z</time>
      </trkpt>
      <trkpt lat="48.24541" lon="-0.37364">
        <ele>280.5</ele>
        <time>2012-04-06T14:52:21Z</time>
      </trkpt>
      <trkpt lat="48.24547" lon="-0.37362">
        <ele>278.5</ele>
        <time>2012-04-06T14:52:25Z</time>
      </trkpt>
      <trkpt lat="48.24553" lon="-0.37361">
        <ele>277.5</ele>
        <time>2012-04-06T14:52:29Z</time>
      </trkpt>
      <trkpt lat="48.24556" lon="-0.37361">
        <ele>277.5</ele>
        <time>2012-04-06T14:52:31Z</time>
      </trkpt>
      <trkpt lat="48.24559" lon="-0.3736">
        <ele>277.5</ele>
        <time>2012-04-06T14:52:33Z</time>
      </trkpt>
      <trkpt lat="48.24567" lon="-0.37357">
        <ele>277.5</ele>
        <time>2012-04-06T14:52:39Z</time>
      </trkpt>
      <trkpt lat="48.24572" lon="-0.37355">
        <ele>277</ele>
        <time>2012-04-06T14:52:43Z</time>
      </trkpt>
      <trkpt lat="48.24574" lon="-0.37355">
        <ele>277.5</ele>
        <time>2012-04-06T14:52:45Z</time>
      </trkpt>
      <trkpt lat="48.24583" lon="-0.37354">
        <ele>276</ele>
        <time>2012-04-06T14:52:51Z</time>
      </trkpt>
      <trkpt lat="48.24586" lon="-0.37353">
        <ele>275.5</ele>
        <time>2012-04-06T14:52:53Z</time>
      </trkpt>
      <trkpt lat="48.24589" lon="-0.37353">
        <ele>275</ele>
        <time>2012-04-06T14:52:55Z</time>
      </trkpt>
      <trkpt lat="48.24595" lon="-0.37352">
        <ele>275</ele>
        <time>2012-04-06T14:52:59Z</time>
      </trkpt>
      <trkpt lat="48.24603" lon="-0.3735">
        <ele>273.5</ele>
        <time>2012-04-06T14:53:05Z</time>
      </trkpt>
      <trkpt lat="48.24605" lon="-0.37349">
        <ele>272.5</ele>
        <time>2012-04-06T14:53:07Z</time>
      </trkpt>
      <trkpt lat="48.24611" lon="-0.37349">
        <ele>272</ele>
        <time>2012-04-06T14:53:11Z</time>
      </trkpt>
      <trkpt lat="48.24613" lon="-0.37349">
        <ele>273</ele>
        <time>2012-04-06T14:53:13Z</time>
      </trkpt>
      <trkpt lat="48.24621" lon="-0.37348">
        <ele>273.5</ele>
        <time>2012-04-06T14:53:19Z</time>
      </trkpt>
      <trkpt lat="48.24632" lon="-0.37347">
        <ele>273.5</ele>
        <time>2012-04-06T14:53:27Z</time>
      </trkpt>
      <trkpt lat="48.24641" lon="-0.37345">
        <ele>273.5</ele>
        <time>2012-04-06T14:53:33Z</time>
      </trkpt>
      <trkpt lat="48.24643" lon="-0.37345">
        <ele>273</ele>
        <time>2012-04-06T14:53:35Z</time>
      </trkpt>
      <trkpt lat="48.24646" lon="-0.37344">
        <ele>272.5</ele>
        <time>2012-04-06T14:53:37Z</time>
      </trkpt>
      <trkpt lat="48.24649" lon="-0.37344">
        <ele>272</ele>
        <time>2012-04-06T14:53:39Z</time>
      </trkpt>
      <trkpt lat="48.24653" lon="-0.37344">
        <ele>271.5</ele>
        <time>2012-04-06T14:53:41Z</time>
      </trkpt>
      <trkpt lat="48.24662" lon="-0.37344">
        <ele>271</ele>
        <time>2012-04-06T14:53:49Z</time>
      </trkpt>
      <trkpt lat="48.24668" lon="-0.37343">
        <ele>270</ele>
        <time>2012-04-06T14:53:53Z</time>
      </trkpt>
      <trkpt lat="48.24672" lon="-0.37343">
        <ele>270</ele>
        <time>2012-04-06T14:53:55Z</time>
      </trkpt>
      <trkpt lat="48.2468" lon="-0.37341">
        <ele>268</ele>
        <time>2012-04-06T14:54:01Z</time>
      </trkpt>
      <trkpt lat="48.24685" lon="-0.37341">
        <ele>268</ele>
        <time>2012-04-06T14:54:05Z</time>
      </trkpt>
      <trkpt lat="48.24688" lon="-0.3734">
        <ele>267.5</ele>
        <time>2012-04-06T14:54:07Z</time>
      </trkpt>
      <trkpt lat="48.247" lon="-0.37337">
        <ele>268</ele>
        <time>2012-04-06T14:54:17Z</time>
      </trkpt>
      <trkpt lat="48.24703" lon="-0.37337">
        <ele>267.5</ele>
        <time>2012-04-06T14:54:19Z</time>
      </trkpt>
      <trkpt lat="48.24713" lon="-0.37336">
        <ele>267.5</ele>
        <time>2012-04-06T14:54:27Z</time>
      </trkpt>
      <trkpt lat="48.24716" lon="-0.37336">
        <ele>267.5</ele>
        <time>2012-04-06T14:54:29Z</time>
      </trkpt>
      <trkpt lat="48.24719" lon="-0.37336">
        <ele>266.5</ele>
        <time>2012-04-06T14:54:31Z</time>
      </trkpt>
      <trkpt lat="48.24721" lon="-0.37335">
        <ele>266.5</ele>
        <time>2012-04-06T14:54:33Z</time>
      </trkpt>
      <trkpt lat="48.24728" lon="-0.37334">
        <ele>269</ele>
        <time>2012-04-06T14:54:39Z</time>
      </trkpt>
      <trkpt lat="48.24731" lon="-0.37333">
        <ele>269.5</ele>
        <time>2012-04-06T14:54:41Z</time>
      </trkpt>
      <trkpt lat="48.24734" lon="-0.37333">
        <ele>270</ele>
        <time>2012-04-06T14:54:43Z</time>
      </trkpt>
      <trkpt lat="48.24737" lon="-0.37333">
        <ele>270.5</ele>
        <time>2012-04-06T14:54:45Z</time>
      </trkpt>
      <trkpt lat="48.24739" lon="-0.37333">
        <ele>271</ele>
        <time>2012-04-06T14:54:47Z</time>
      </trkpt>
      <trkpt lat="48.24748" lon="-0.37332">
        <ele>268</ele>
        <time>2012-04-06T14:54:53Z</time>
      </trkpt>
      <trkpt lat="48.24754" lon="-0.37332">
        <ele>266.5</ele>
        <time>2012-04-06T14:54:57Z</time>
      </trkpt>
      <trkpt lat="48.24756" lon="-0.37332">
        <ele>266.5</ele>
        <time>2012-04-06T14:54:59Z</time>
      </trkpt>
      <trkpt lat="48.24759" lon="-0.37332">
        <ele>266</ele>
        <time>2012-04-06T14:55:01Z</time>
      </trkpt>
      <trkpt lat="48.24764" lon="-0.37333">
        <ele>265.5</ele>
        <time>2012-04-06T14:55:05Z</time>
      </trkpt>
      <trkpt lat="48.24767" lon="-0.37333">
        <ele>266</ele>
        <time>2012-04-06T14:55:07Z</time>
      </trkpt>
      <trkpt lat="48.24772" lon="-0.37333">
        <ele>268</ele>
        <time>2012-04-06T14:55:11Z</time>
      </trkpt>
      <trkpt lat="48.24777" lon="-0.37333">
        <ele>268.5</ele>
        <time>2012-04-06T14:55:15Z</time>
      </trkpt>
      <trkpt lat="48.24785" lon="-0.37329">
        <ele>267</ele>
        <time>2012-04-06T14:55:21Z</time>
      </trkpt>
      <trkpt lat="48.2479" lon="-0.37326">
        <ele>264.5</ele>
        <time>2012-04-06T14:55:25Z</time>
      </trkpt>
      <trkpt lat="48.24793" lon="-0.37324">
        <ele>263.5</ele>
        <time>2012-04-06T14:55:27Z</time>
      </trkpt>
      <trkpt lat="48.24795" lon="-0.37323">
        <ele>263.5</ele>
        <time>2012-04-06T14:55:29Z</time>
      </trkpt>
      <trkpt lat="48.248" lon="-0.3732">
        <ele>262.5</ele>
        <time>2012-04-06T14:55:33Z</time>
      </trkpt>
      <trkpt lat="48.24805" lon="-0.37316">
        <ele>263</ele>
        <time>2012-04-06T14:55:37Z</time>
      </trkpt>
      <trkpt lat="48.24809" lon="-0.37314">
        <ele>264</ele>
        <time>2012-04-06T14:55:41Z</time>
      </trkpt>
      <trkpt lat="48.24813" lon="-0.37311">
        <ele>265</ele>
        <time>2012-04-06T14:55:45Z</time>
      </trkpt>
      <trkpt lat="48.24824" lon="-0.3731">
        <ele>266</ele>
        <time>2012-04-06T14:55:55Z</time>
      </trkpt>
      <trkpt lat="48.24837" lon="-0.37299">
        <ele>269.5</ele>
        <time>2012-04-06T14:56:07Z</time>
      </trkpt>
      <trkpt lat="48.24841" lon="-0.37293">
        <ele>267.5</ele>
        <time>2012-04-06T14:56:11Z</time>
      </trkpt>
      <trkpt lat="48.24846" lon="-0.37287">
        <ele>268</ele>
        <time>2012-04-06T14:56:15Z</time>
      </trkpt>
      <trkpt lat="48.24849" lon="-0.37278">
        <ele>268.5</ele>
        <time>2012-04-06T14:56:19Z</time>
      </trkpt>
      <trkpt lat="48.24849" lon="-0.37274">
        <ele>268</ele>
        <time>2012-04-06T14:56:21Z</time>
      </trkpt>
      <trkpt lat="48.24849" lon="-0.37266">
        <ele>267</ele>
        <time>2012-04-06T14:56:25Z</time>
      </trkpt>
      <trkpt lat="48.24851" lon="-0.37254">
        <ele>265.5</ele>
        <time>2012-04-06T14:56:31Z</time>
      </trkpt>
      <trkpt lat="48.24851" lon="-0.3725">
        <ele>266</ele>
        <time>2012-04-06T14:56:33Z</time>
      </trkpt>
      <trkpt lat="48.24852" lon="-0.37245">
        <ele>266</ele>
        <time>2012-04-06T14:56:35Z</time>
      </trkpt>
      <trkpt lat="48.24853" lon="-0.3724">
        <ele>266.5</ele>
        <time>2012-04-06T14:56:37Z</time>
      </trkpt>
      <trkpt lat="48.24854" lon="-0.37236">
        <ele>267</ele>
        <time>2012-04-06T14:56:39Z</time>
      </trkpt>
      <trkpt lat="48.24856" lon="-0.37224">
        <ele>269</ele>
        <time>2012-04-06T14:56:45Z</time>
      </trkpt>
      <trkpt lat="48.24856" lon="-0.37215">
        <ele>267</ele>
        <time>2012-04-06T14:56:49Z</time>
      </trkpt>
      <trkpt lat="48.24857" lon="-0.37211">
        <ele>266</ele>
        <time>2012-04-06T14:56:51Z</time>
      </trkpt>
      <trkpt lat="48.24858" lon="-0.37204">
        <ele>266.5</ele>
        <time>2012-04-06T14:56:55Z</time>
      </trkpt>
      <trkpt lat="48.24858" lon="-0.37196">
        <ele>266</ele>
        <time>2012-04-06T14:56:59Z</time>
      </trkpt>
      <trkpt lat="48.24859" lon="-0.37188">
        <ele>265</ele>
        <time>2012-04-06T14:57:03Z</time>
      </trkpt>
      <trkpt lat="48.2486" lon="-0.37175">
        <ele>260.5</ele>
        <time>2012-04-06T14:57:09Z</time>
      </trkpt>
      <trkpt lat="48.24862" lon="-0.37166">
        <ele>258.5</ele>
        <time>2012-04-06T14:57:13Z</time>
      </trkpt>
      <trkpt lat="48.24865" lon="-0.37154">
        <ele>261</ele>
        <time>2012-04-06T14:57:19Z</time>
      </trkpt>
      <trkpt lat="48.24869" lon="-0.37142">
        <ele>263</ele>
        <time>2012-04-06T14:57:25Z</time>
      </trkpt>
      <trkpt lat="48.24871" lon="-0.37135">
        <ele>262.5</ele>
        <time>2012-04-06T14:57:29Z</time>
      </trkpt>
      <trkpt lat="48.24878" lon="-0.37114">
        <ele>255.5</ele>
        <time>2012-04-06T14:57:39Z</time>
      </trkpt>
      <trkpt lat="48.24879" lon="-0.37111">
        <ele>254.5</ele>
        <time>2012-04-06T14:57:41Z</time>
      </trkpt>
      <trkpt lat="48.2488" lon="-0.37107">
        <ele>254</ele>
        <time>2012-04-06T14:57:43Z</time>
      </trkpt>
      <trkpt lat="48.24884" lon="-0.37089">
        <ele>249.5</ele>
        <time>2012-04-06T14:57:53Z</time>
      </trkpt>
      <trkpt lat="48.24885" lon="-0.37085">
        <ele>249.5</ele>
        <time>2012-04-06T14:57:55Z</time>
      </trkpt>
      <trkpt lat="48.24886" lon="-0.37082">
        <ele>249</ele>
        <time>2012-04-06T14:57:57Z</time>
      </trkpt>
      <trkpt lat="48.24888" lon="-0.37074">
        <ele>249.5</ele>
        <time>2012-04-06T14:58:01Z</time>
      </trkpt>
      <trkpt lat="48.24889" lon="-0.3707">
        <ele>249</ele>
        <time>2012-04-06T14:58:03Z</time>
      </trkpt>
      <trkpt lat="48.24891" lon="-0.37066">
        <ele>249.5</ele>
        <time>2012-04-06T14:58:05Z</time>
      </trkpt>
      <trkpt lat="48.24892" lon="-0.37058">
        <ele>249</ele>
        <time>2012-04-06T14:58:09Z</time>
      </trkpt>
      <trkpt lat="48.24901" lon="-0.37039">
        <ele>247</ele>
        <time>2012-04-06T14:58:21Z</time>
      </trkpt>
      <trkpt lat="48.24905" lon="-0.37027">
        <ele>244</ele>
        <time>2012-04-06T14:58:29Z</time>
      </trkpt>
      <trkpt lat="48.24907" lon="-0.37021">
        <ele>243</ele>
        <time>2012-04-06T14:58:33Z</time>
      </trkpt>
      <trkpt lat="48.24912" lon="-0.37009">
        <ele>242.5</ele>
        <time>2012-04-06T14:58:41Z</time>
      </trkpt>
      <trkpt lat="48.24921" lon="-0.36999">
        <ele>244.5</ele>
        <time>2012-04-06T14:58:49Z</time>
      </trkpt>
      <trkpt lat="48.24932" lon="-0.36988">
        <ele>243.5</ele>
        <time>2012-04-06T14:58:57Z</time>
      </trkpt>
      <trkpt lat="48.24941" lon="-0.36983">
        <ele>241.5</ele>
        <time>2012-04-06T14:59:03Z</time>
      </trkpt>
      <trkpt lat="48.24953" lon="-0.36967">
        <ele>240.5</ele>
        <time>2012-04-06T14:59:13Z</time>
      </trkpt>
      <trkpt lat="48.24959" lon="-0.36956">
        <ele>239.5</ele>
        <time>2012-04-06T14:59:19Z</time>
      </trkpt>
      <trkpt lat="48.24965" lon="-0.36953">
        <ele>239.5</ele>
        <time>2012-04-06T14:59:23Z</time>
      </trkpt>
      <trkpt lat="48.24981" lon="-0.36945">
        <ele>236</ele>
        <time>2012-04-06T14:59:35Z</time>
      </trkpt>
      <trkpt lat="48.2499" lon="-0.36941">
        <ele>235.5</ele>
        <time>2012-04-06T14:59:41Z</time>
      </trkpt>
      <trkpt lat="48.24994" lon="-0.36938">
        <ele>234.5</ele>
        <time>2012-04-06T14:59:45Z</time>
      </trkpt>
      <trkpt lat="48.25006" lon="-0.36936">
        <ele>232.5</ele>
        <time>2012-04-06T14:59:53Z</time>
      </trkpt>
      <trkpt lat="48.25008" lon="-0.36935">
        <ele>233</ele>
        <time>2012-04-06T14:59:55Z</time>
      </trkpt>
      <trkpt lat="48.25014" lon="-0.36935">
        <ele>233</ele>
        <time>2012-04-06T14:59:59Z</time>
      </trkpt>
      <trkpt lat="48.25025" lon="-0.36931">
        <ele>233.5</ele>
        <time>2012-04-06T15:00:07Z</time>
      </trkpt>
      <trkpt lat="48.25029" lon="-0.3693">
        <ele>233.5</ele>
        <time>2012-04-06T15:00:09Z</time>
      </trkpt>
      <trkpt lat="48.25033" lon="-0.3692">
        <ele>235</ele>
        <time>2012-04-06T15:00:15Z</time>
      </trkpt>
      <trkpt lat="48.25033" lon="-0.36911">
        <ele>233</ele>
        <time>2012-04-06T15:00:19Z</time>
      </trkpt>
      <trkpt lat="48.25032" lon="-0.36902">
        <ele>231.5</ele>
        <time>2012-04-06T15:00:23Z</time>
      </trkpt>
      <trkpt lat="48.25033" lon="-0.36889">
        <ele>231.5</ele>
        <time>2012-04-06T15:00:29Z</time>
      </trkpt>
      <trkpt lat="48.25033" lon="-0.3688">
        <ele>232</ele>
        <time>2012-04-06T15:00:33Z</time>
      </trkpt>
      <trkpt lat="48.25033" lon="-0.36876">
        <ele>232</ele>
        <time>2012-04-06T15:00:35Z</time>
      </trkpt>
      <trkpt lat="48.25033" lon="-0.36863">
        <ele>234</ele>
        <time>2012-04-06T15:00:41Z</time>
      </trkpt>
      <trkpt lat="48.25034" lon="-0.36854">
        <ele>234.5</ele>
        <time>2012-04-06T15:00:45Z</time>
      </trkpt>
      <trkpt lat="48.25034" lon="-0.3685">
        <ele>234.5</ele>
        <time>2012-04-06T15:00:47Z</time>
      </trkpt>
      <trkpt lat="48.25039" lon="-0.36839">
        <ele>234</ele>
        <time>2012-04-06T15:00:53Z</time>
      </trkpt>
      <trkpt lat="48.25043" lon="-0.36834">
        <ele>234</ele>
        <time>2012-04-06T15:00:57Z</time>
      </trkpt>
      <trkpt lat="48.25053" lon="-0.36818">
        <ele>231.5</ele>
        <time>2012-04-06T15:01:07Z</time>
      </trkpt>
      <trkpt lat="48.25055" lon="-0.36815">
        <ele>231</ele>
        <time>2012-04-06T15:01:09Z</time>
      </trkpt>
      <trkpt lat="48.25062" lon="-0.36807">
        <ele>227</ele>
        <time>2012-04-06T15:01:15Z</time>
      </trkpt>
      <trkpt lat="48.25067" lon="-0.36803">
        <ele>227</ele>
        <time>2012-04-06T15:01:19Z</time>
      </trkpt>
      <trkpt lat="48.25068" lon="-0.36796">
        <ele>228</ele>
        <time>2012-04-06T15:01:23Z</time>
      </trkpt>
      <trkpt lat="48.25067" lon="-0.36783">
        <ele>229.5</ele>
        <time>2012-04-06T15:01:29Z</time>
      </trkpt>
      <trkpt lat="48.25066" lon="-0.3678">
        <ele>230</ele>
        <time>2012-04-06T15:01:31Z</time>
      </trkpt>
      <trkpt lat="48.25065" lon="-0.36772">
        <ele>230</ele>
        <time>2012-04-06T15:01:35Z</time>
      </trkpt>
      <trkpt lat="48.25064" lon="-0.36759">
        <ele>231</ele>
        <time>2012-04-06T15:01:41Z</time>
      </trkpt>
      <trkpt lat="48.25063" lon="-0.36756">
        <ele>231</ele>
        <time>2012-04-06T15:01:43Z</time>
      </trkpt>
      <trkpt lat="48.25063" lon="-0.36752">
        <ele>231.5</ele>
        <time>2012-04-06T15:01:45Z</time>
      </trkpt>
      <trkpt lat="48.25063" lon="-0.36748">
        <ele>232</ele>
        <time>2012-04-06T15:01:47Z</time>
      </trkpt>
      <trkpt lat="48.25059" lon="-0.36729">
        <ele>233.5</ele>
        <time>2012-04-06T15:01:57Z</time>
      </trkpt>
      <trkpt lat="48.25059" lon="-0.36725">
        <ele>234</ele>
        <time>2012-04-06T15:01:59Z</time>
      </trkpt>
      <trkpt lat="48.25056" lon="-0.36713">
        <ele>233.5</ele>
        <time>2012-04-06T15:02:05Z</time>
      </trkpt>
      <trkpt lat="48.25056" lon="-0.36709">
        <ele>233.5</ele>
        <time>2012-04-06T15:02:07Z</time>
      </trkpt>
      <trkpt lat="48.25055" lon="-0.36706">
        <ele>234</ele>
        <time>2012-04-06T15:02:09Z</time>
      </trkpt>
      <trkpt lat="48.25054" lon="-0.36702">
        <ele>234</ele>
        <time>2012-04-06T15:02:11Z</time>
      </trkpt>
      <trkpt lat="48.25053" lon="-0.36698">
        <ele>233.5</ele>
        <time>2012-04-06T15:02:13Z</time>
      </trkpt>
      <trkpt lat="48.2505" lon="-0.36691">
        <ele>233</ele>
        <time>2012-04-06T15:02:17Z</time>
      </trkpt>
      <trkpt lat="48.25046" lon="-0.36685">
        <ele>231.5</ele>
        <time>2012-04-06T15:02:21Z</time>
      </trkpt>
      <trkpt lat="48.25044" lon="-0.36683">
        <ele>231.5</ele>
        <time>2012-04-06T15:02:23Z</time>
      </trkpt>
      <trkpt lat="48.25041" lon="-0.36675">
        <ele>231</ele>
        <time>2012-04-06T15:02:27Z</time>
      </trkpt>
      <trkpt lat="48.25038" lon="-0.36667">
        <ele>230</ele>
        <time>2012-04-06T15:02:31Z</time>
      </trkpt>
      <trkpt lat="48.25036" lon="-0.36658">
        <ele>230</ele>
        <time>2012-04-06T15:02:35Z</time>
      </trkpt>
      <trkpt lat="48.2504" lon="-0.36651">
        <ele>229</ele>
        <time>2012-04-06T15:02:39Z</time>
      </trkpt>
      <trkpt lat="48.2505" lon="-0.36635">
        <ele>223.5</ele>
        <time>2012-04-06T15:02:51Z</time>
      </trkpt>
      <trkpt lat="48.25053" lon="-0.36623">
        <ele>224</ele>
        <time>2012-04-06T15:02:57Z</time>
      </trkpt>
      <trkpt lat="48.25053" lon="-0.36616">
        <ele>225</ele>
        <time>2012-04-06T15:03:01Z</time>
      </trkpt>
      <trkpt lat="48.25055" lon="-0.36608">
        <ele>226.5</ele>
        <time>2012-04-06T15:03:05Z</time>
      </trkpt>
      <trkpt lat="48.25062" lon="-0.36593">
        <ele>227</ele>
        <time>2012-04-06T15:03:13Z</time>
      </trkpt>
      <trkpt lat="48.25064" lon="-0.36585">
        <ele>228.5</ele>
        <time>2012-04-06T15:03:17Z</time>
      </trkpt>
      <trkpt lat="48.25068" lon="-0.36575">
        <ele>230.5</ele>
        <time>2012-04-06T15:03:23Z</time>
      </trkpt>
      <trkpt lat="48.25069" lon="-0.36568">
        <ele>230.5</ele>
        <time>2012-04-06T15:03:27Z</time>
      </trkpt>
      <trkpt lat="48.2507" lon="-0.36563">
        <ele>231.5</ele>
        <time>2012-04-06T15:03:29Z</time>
      </trkpt>
      <trkpt lat="48.25073" lon="-0.36551">
        <ele>230</ele>
        <time>2012-04-06T15:03:35Z</time>
      </trkpt>
      <trkpt lat="48.25075" lon="-0.36539">
        <ele>228.5</ele>
        <time>2012-04-06T15:03:41Z</time>
      </trkpt>
      <trkpt lat="48.2508" lon="-0.36518">
        <ele>230</ele>
        <time>2012-04-06T15:03:51Z</time>
      </trkpt>
      <trkpt lat="48.25081" lon="-0.36514">
        <ele>230.5</ele>
        <time>2012-04-06T15:03:53Z</time>
      </trkpt>
      <trkpt lat="48.25082" lon="-0.3651">
        <ele>230</ele>
        <time>2012-04-06T15:03:55Z</time>
      </trkpt>
      <trkpt lat="48.25083" lon="-0.36502">
        <ele>229</ele>
        <time>2012-04-06T15:03:59Z</time>
      </trkpt>
      <trkpt lat="48.25084" lon="-0.36498">
        <ele>229.5</ele>
        <time>2012-04-06T15:04:01Z</time>
      </trkpt>
      <trkpt lat="48.25086" lon="-0.3649">
        <ele>231</ele>
        <time>2012-04-06T15:04:05Z</time>
      </trkpt>
      <trkpt lat="48.25088" lon="-0.36483">
        <ele>230</ele>
        <time>2012-04-06T15:04:15Z</time>
      </trkpt>
      <trkpt lat="48.25089" lon="-0.36475">
        <ele>228.5</ele>
        <time>2012-04-06T15:04:19Z</time>
      </trkpt>
      <trkpt lat="48.25089" lon="-0.36466">
        <ele>229.5</ele>
        <time>2012-04-06T15:04:23Z</time>
      </trkpt>
      <trkpt lat="48.25088" lon="-0.36453">
        <ele>230.5</ele>
        <time>2012-04-06T15:04:29Z</time>
      </trkpt>
      <trkpt lat="48.25087" lon="-0.36444">
        <ele>229.5</ele>
        <time>2012-04-06T15:04:33Z</time>
      </trkpt>
      <trkpt lat="48.25085" lon="-0.36433">
        <ele>226.5</ele>
        <time>2012-04-06T15:04:39Z</time>
      </trkpt>
      <trkpt lat="48.25085" lon="-0.36415">
        <ele>228.5</ele>
        <time>2012-04-06T15:04:47Z</time>
      </trkpt>
      <trkpt lat="48.25085" lon="-0.36402">
        <ele>232</ele>
        <time>2012-04-06T15:04:53Z</time>
      </trkpt>
      <trkpt lat="48.2509" lon="-0.36387">
        <ele>236.5</ele>
        <time>2012-04-06T15:05:01Z</time>
      </trkpt>
      <trkpt lat="48.2509" lon="-0.3638">
        <ele>236.5</ele>
        <time>2012-04-06T15:05:05Z</time>
      </trkpt>
      <trkpt lat="48.25076" lon="-0.36369">
        <ele>236</ele>
        <time>2012-04-06T15:05:15Z</time>
      </trkpt>
      <trkpt lat="48.25073" lon="-0.3635">
        <ele>233.5</ele>
        <time>2012-04-06T15:05:25Z</time>
      </trkpt>
      <trkpt lat="48.2508" lon="-0.36343">
        <ele>240.5</ele>
        <time>2012-04-06T15:05:31Z</time>
      </trkpt>
      <trkpt lat="48.25083" lon="-0.3634">
        <ele>240.5</ele>
        <time>2012-04-06T15:05:35Z</time>
      </trkpt>
      <trkpt lat="48.25087" lon="-0.36331">
        <ele>236.5</ele>
        <time>2012-04-06T15:05:43Z</time>
      </trkpt>
      <trkpt lat="48.2509" lon="-0.36324">
        <ele>234.5</ele>
        <time>2012-04-06T15:05:49Z</time>
      </trkpt>
      <trkpt lat="48.25095" lon="-0.36316">
        <ele>231</ele>
        <time>2012-04-06T15:05:55Z</time>
      </trkpt>
      <trkpt lat="48.25092" lon="-0.36308">
        <ele>228.5</ele>
        <time>2012-04-06T15:06:01Z</time>
      </trkpt>
      <trkpt lat="48.2509" lon="-0.36304">
        <ele>228</ele>
        <time>2012-04-06T15:06:03Z</time>
      </trkpt>
      <trkpt lat="48.25085" lon="-0.36293">
        <ele>229</ele>
        <time>2012-04-06T15:06:09Z</time>
      </trkpt>
      <trkpt lat="48.25084" lon="-0.36285">
        <ele>232</ele>
        <time>2012-04-06T15:06:13Z</time>
      </trkpt>
      <trkpt lat="48.25088" lon="-0.36281">
        <ele>237.5</ele>
        <time>2012-04-06T15:06:17Z</time>
      </trkpt>
      <trkpt lat="48.25088" lon="-0.3627">
        <ele>239</ele>
        <time>2012-04-06T15:06:25Z</time>
      </trkpt>
      <trkpt lat="48.25084" lon="-0.36261">
        <ele>242</ele>
        <time>2012-04-06T15:06:31Z</time>
      </trkpt>
      <trkpt lat="48.25082" lon="-0.36255">
        <ele>242</ele>
        <time>2012-04-06T15:06:35Z</time>
      </trkpt>
      <trkpt lat="48.2508" lon="-0.36245">
        <ele>238.5</ele>
        <time>2012-04-06T15:06:41Z</time>
      </trkpt>
      <trkpt lat="48.25082" lon="-0.36237">
        <ele>241.5</ele>
        <time>2012-04-06T15:06:47Z</time>
      </trkpt>
      <trkpt lat="48.25087" lon="-0.36224">
        <ele>241.5</ele>
        <time>2012-04-06T15:06:55Z</time>
      </trkpt>
      <trkpt lat="48.2509" lon="-0.36218">
        <ele>242</ele>
        <time>2012-04-06T15:06:59Z</time>
      </trkpt>
      <trkpt lat="48.25091" lon="-0.36214">
        <ele>242.5</ele>
        <time>2012-04-06T15:07:01Z</time>
      </trkpt>
      <trkpt lat="48.25098" lon="-0.36205">
        <ele>241</ele>
        <time>2012-04-06T15:07:07Z</time>
      </trkpt>
      <trkpt lat="48.25103" lon="-0.362">
        <ele>240.5</ele>
        <time>2012-04-06T15:07:11Z</time>
      </trkpt>
      <trkpt lat="48.25105" lon="-0.36197">
        <ele>240.5</ele>
        <time>2012-04-06T15:07:13Z</time>
      </trkpt>
      <trkpt lat="48.25112" lon="-0.36188">
        <ele>240.5</ele>
        <time>2012-04-06T15:07:19Z</time>
      </trkpt>
      <trkpt lat="48.25114" lon="-0.36185">
        <ele>241</ele>
        <time>2012-04-06T15:07:21Z</time>
      </trkpt>
      <trkpt lat="48.25119" lon="-0.3618">
        <ele>240.5</ele>
        <time>2012-04-06T15:07:25Z</time>
      </trkpt>
      <trkpt lat="48.25129" lon="-0.36166">
        <ele>241.5</ele>
        <time>2012-04-06T15:07:35Z</time>
      </trkpt>
      <trkpt lat="48.25135" lon="-0.36155">
        <ele>245</ele>
        <time>2012-04-06T15:07:43Z</time>
      </trkpt>
      <trkpt lat="48.25137" lon="-0.36146">
        <ele>246</ele>
        <time>2012-04-06T15:07:49Z</time>
      </trkpt>
      <trkpt lat="48.2514" lon="-0.36139">
        <ele>245</ele>
        <time>2012-04-06T15:07:53Z</time>
      </trkpt>
      <trkpt lat="48.25141" lon="-0.36135">
        <ele>245</ele>
        <time>2012-04-06T15:07:55Z</time>
      </trkpt>
      <trkpt lat="48.2514" lon="-0.36128">
        <ele>246.5</ele>
        <time>2012-04-06T15:07:59Z</time>
      </trkpt>
      <trkpt lat="48.2514" lon="-0.3612">
        <ele>246</ele>
        <time>2012-04-06T15:08:03Z</time>
      </trkpt>
      <trkpt lat="48.25148" lon="-0.36112">
        <ele>248</ele>
        <time>2012-04-06T15:08:11Z</time>
      </trkpt>
      <trkpt lat="48.25151" lon="-0.3611">
        <ele>247.5</ele>
        <time>2012-04-06T15:08:13Z</time>
      </trkpt>
      <trkpt lat="48.25155" lon="-0.36103">
        <ele>248.5</ele>
        <time>2012-04-06T15:08:17Z</time>
      </trkpt>
      <trkpt lat="48.25159" lon="-0.36097">
        <ele>249.5</ele>
        <time>2012-04-06T15:08:21Z</time>
      </trkpt>
      <trkpt lat="48.25162" lon="-0.3609">
        <ele>251.5</ele>
        <time>2012-04-06T15:08:25Z</time>
      </trkpt>
      <trkpt lat="48.25164" lon="-0.36087">
        <ele>251.5</ele>
        <time>2012-04-06T15:08:27Z</time>
      </trkpt>
      <trkpt lat="48.25167" lon="-0.36079">
        <ele>251</ele>
        <time>2012-04-06T15:08:31Z</time>
      </trkpt>
      <trkpt lat="48.25172" lon="-0.36068">
        <ele>250.5</ele>
        <time>2012-04-06T15:08:37Z</time>
      </trkpt>
      <trkpt lat="48.25175" lon="-0.36063">
        <ele>251.5</ele>
        <time>2012-04-06T15:08:41Z</time>
      </trkpt>
      <trkpt lat="48.25181" lon="-0.36056">
        <ele>252</ele>
        <time>2012-04-06T15:08:47Z</time>
      </trkpt>
      <trkpt lat="48.25184" lon="-0.36051">
        <ele>251</ele>
        <time>2012-04-06T15:08:51Z</time>
      </trkpt>
      <trkpt lat="48.25186" lon="-0.36048">
        <ele>251</ele>
        <time>2012-04-06T15:08:53Z</time>
      </trkpt>
      <trkpt lat="48.25188" lon="-0.36045">
        <ele>251</ele>
        <time>2012-04-06T15:08:55Z</time>
      </trkpt>
      <trkpt lat="48.25191" lon="-0.36039">
        <ele>251.5</ele>
        <time>2012-04-06T15:08:59Z</time>
      </trkpt>
      <trkpt lat="48.25194" lon="-0.36034">
        <ele>252</ele>
        <time>2012-04-06T15:09:03Z</time>
      </trkpt>
      <trkpt lat="48.25196" lon="-0.36031">
        <ele>251.5</ele>
        <time>2012-04-06T15:09:05Z</time>
      </trkpt>
      <trkpt lat="48.252" lon="-0.36026">
        <ele>251</ele>
        <time>2012-04-06T15:09:09Z</time>
      </trkpt>
      <trkpt lat="48.25209" lon="-0.36008">
        <ele>248.5</ele>
        <time>2012-04-06T15:09:21Z</time>
      </trkpt>
      <trkpt lat="48.25215" lon="-0.35999">
        <ele>249.5</ele>
        <time>2012-04-06T15:09:27Z</time>
      </trkpt>
      <trkpt lat="48.25216" lon="-0.35992">
        <ele>251.5</ele>
        <time>2012-04-06T15:09:31Z</time>
      </trkpt>
      <trkpt lat="48.25217" lon="-0.35985">
        <ele>252.5</ele>
        <time>2012-04-06T15:09:35Z</time>
      </trkpt>
      <trkpt lat="48.2522" lon="-0.35976">
        <ele>252.5</ele>
        <time>2012-04-06T15:09:41Z</time>
      </trkpt>
      <trkpt lat="48.25222" lon="-0.35972">
        <ele>254</ele>
        <time>2012-04-06T15:09:45Z</time>
      </trkpt>
    </trkseg>
  </trk>
</gpx>